<?xml version="1.0" encoding="UTF-8" standalone="no" ?>
<gpx xmlns="http://www.topografix.com/GPX/1/1" xmlns:xsi="http://www.w3.org/2001/XMLSchema-instance" xsi:schemaLocation="http://www.topografix.com/GPX/1/1 http://www.topografix.com/GPX/1/1/gpx.xsd" version="1.1" creator="VisuGPX - https://www.visugpx.com">
  <metadata>
    <name>19-01-03 Rando raquette au Rainkopf depuis Col de Bramont</name>
  </metadata>
  <trk>
    <name><![CDATA[Route from 2019-01-03 10:12:24]]></name>
    <desc><![CDATA[]]></desc>
    <trkseg>
      <trkpt lat="48.00051" lon="6.94529">
        <ele>1007</ele>
        <time>2019-01-03T09:12:32.000Z</time>
      </trkpt>
      <trkpt lat="48.00047" lon="6.94532">
        <ele>1013</ele>
        <time>2019-01-03T09:12:35.000Z</time>
      </trkpt>
      <trkpt lat="48.00042" lon="6.94537">
        <ele>1015</ele>
        <time>2019-01-03T09:12:39.000Z</time>
      </trkpt>
      <trkpt lat="48.00038" lon="6.94546">
        <ele>1016</ele>
        <time>2019-01-03T09:12:45.000Z</time>
      </trkpt>
      <trkpt lat="48.00038" lon="6.94556">
        <ele>1017</ele>
        <time>2019-01-03T09:12:51.000Z</time>
      </trkpt>
      <trkpt lat="48.00046" lon="6.94556">
        <ele>1019</ele>
        <time>2019-01-03T09:13:06.000Z</time>
      </trkpt>
      <trkpt lat="48.0005" lon="6.94555">
        <ele>1020</ele>
        <time>2019-01-03T09:13:09.000Z</time>
      </trkpt>
      <trkpt lat="48.00055" lon="6.94556">
        <ele>1020</ele>
        <time>2019-01-03T09:13:13.000Z</time>
      </trkpt>
      <trkpt lat="48.00047" lon="6.94558">
        <ele>1019</ele>
        <time>2019-01-03T09:13:37.000Z</time>
      </trkpt>
      <trkpt lat="48.0004" lon="6.94558">
        <ele>1019</ele>
        <time>2019-01-03T09:13:41.000Z</time>
      </trkpt>
      <trkpt lat="48.00035" lon="6.94562">
        <ele>1021</ele>
        <time>2019-01-03T09:13:44.000Z</time>
      </trkpt>
      <trkpt lat="48.0003" lon="6.94567">
        <ele>1021</ele>
        <time>2019-01-03T09:13:48.000Z</time>
      </trkpt>
      <trkpt lat="48.00022" lon="6.94576">
        <ele>1023</ele>
        <time>2019-01-03T09:13:55.000Z</time>
      </trkpt>
      <trkpt lat="48.00017" lon="6.94585">
        <ele>1024</ele>
        <time>2019-01-03T09:14:01.000Z</time>
      </trkpt>
      <trkpt lat="48.00009" lon="6.94594">
        <ele>1023</ele>
        <time>2019-01-03T09:14:08.000Z</time>
      </trkpt>
      <trkpt lat="48.00002" lon="6.94599">
        <ele>1023</ele>
        <time>2019-01-03T09:14:12.000Z</time>
      </trkpt>
      <trkpt lat="47.99998" lon="6.94603">
        <ele>1023</ele>
        <time>2019-01-03T09:14:15.000Z</time>
      </trkpt>
      <trkpt lat="47.99994" lon="6.94608">
        <ele>1023</ele>
        <time>2019-01-03T09:14:21.000Z</time>
      </trkpt>
      <trkpt lat="47.99988" lon="6.94614">
        <ele>1025</ele>
        <time>2019-01-03T09:14:25.000Z</time>
      </trkpt>
      <trkpt lat="47.99985" lon="6.94619">
        <ele>1025</ele>
        <time>2019-01-03T09:14:28.000Z</time>
      </trkpt>
      <trkpt lat="47.99982" lon="6.94624">
        <ele>1024</ele>
        <time>2019-01-03T09:14:31.000Z</time>
      </trkpt>
      <trkpt lat="47.9998" lon="6.94636">
        <ele>1022</ele>
        <time>2019-01-03T09:14:38.000Z</time>
      </trkpt>
      <trkpt lat="47.99979" lon="6.94644">
        <ele>1021</ele>
        <time>2019-01-03T09:14:42.000Z</time>
      </trkpt>
      <trkpt lat="47.99977" lon="6.94653">
        <ele>1022</ele>
        <time>2019-01-03T09:14:46.000Z</time>
      </trkpt>
      <trkpt lat="47.99974" lon="6.94663">
        <ele>1023</ele>
        <time>2019-01-03T09:14:53.000Z</time>
      </trkpt>
      <trkpt lat="47.99974" lon="6.94672">
        <ele>1026</ele>
        <time>2019-01-03T09:15:00.000Z</time>
      </trkpt>
      <trkpt lat="47.99973" lon="6.94681">
        <ele>1026</ele>
        <time>2019-01-03T09:15:07.000Z</time>
      </trkpt>
      <trkpt lat="47.99973" lon="6.94694">
        <ele>1027</ele>
        <time>2019-01-03T09:15:15.000Z</time>
      </trkpt>
      <trkpt lat="47.99975" lon="6.94704">
        <ele>1027</ele>
        <time>2019-01-03T09:15:21.000Z</time>
      </trkpt>
      <trkpt lat="47.99977" lon="6.94716">
        <ele>1030</ele>
        <time>2019-01-03T09:15:29.000Z</time>
      </trkpt>
      <trkpt lat="47.99975" lon="6.94731">
        <ele>1029</ele>
        <time>2019-01-03T09:15:36.000Z</time>
      </trkpt>
      <trkpt lat="47.99976" lon="6.94743">
        <ele>1029</ele>
        <time>2019-01-03T09:15:40.000Z</time>
      </trkpt>
      <trkpt lat="47.99976" lon="6.94753">
        <ele>1028</ele>
        <time>2019-01-03T09:15:44.000Z</time>
      </trkpt>
      <trkpt lat="47.99975" lon="6.94763">
        <ele>1028</ele>
        <time>2019-01-03T09:15:48.000Z</time>
      </trkpt>
      <trkpt lat="47.99974" lon="6.94771">
        <ele>1029</ele>
        <time>2019-01-03T09:15:51.000Z</time>
      </trkpt>
      <trkpt lat="47.99973" lon="6.94777">
        <ele>1029</ele>
        <time>2019-01-03T09:15:54.000Z</time>
      </trkpt>
      <trkpt lat="47.99971" lon="6.94791">
        <ele>1031</ele>
        <time>2019-01-03T09:16:01.000Z</time>
      </trkpt>
      <trkpt lat="47.99971" lon="6.948">
        <ele>1032</ele>
        <time>2019-01-03T09:16:05.000Z</time>
      </trkpt>
      <trkpt lat="47.9997" lon="6.94807">
        <ele>1033</ele>
        <time>2019-01-03T09:16:08.000Z</time>
      </trkpt>
      <trkpt lat="47.99968" lon="6.94813">
        <ele>1033</ele>
        <time>2019-01-03T09:16:11.000Z</time>
      </trkpt>
      <trkpt lat="47.99965" lon="6.94821">
        <ele>1034</ele>
        <time>2019-01-03T09:16:15.000Z</time>
      </trkpt>
      <trkpt lat="47.99964" lon="6.94836">
        <ele>1034</ele>
        <time>2019-01-03T09:16:22.000Z</time>
      </trkpt>
      <trkpt lat="47.99963" lon="6.94844">
        <ele>1034</ele>
        <time>2019-01-03T09:16:25.000Z</time>
      </trkpt>
      <trkpt lat="47.99962" lon="6.9486">
        <ele>1035</ele>
        <time>2019-01-03T09:16:32.000Z</time>
      </trkpt>
      <trkpt lat="47.99961" lon="6.94869">
        <ele>1035</ele>
        <time>2019-01-03T09:16:36.000Z</time>
      </trkpt>
      <trkpt lat="47.9996" lon="6.94877">
        <ele>1036</ele>
        <time>2019-01-03T09:16:40.000Z</time>
      </trkpt>
      <trkpt lat="47.99959" lon="6.94885">
        <ele>1036</ele>
        <time>2019-01-03T09:16:44.000Z</time>
      </trkpt>
      <trkpt lat="47.99957" lon="6.94892">
        <ele>1038</ele>
        <time>2019-01-03T09:16:48.000Z</time>
      </trkpt>
      <trkpt lat="47.99954" lon="6.94906">
        <ele>1038</ele>
        <time>2019-01-03T09:16:55.000Z</time>
      </trkpt>
      <trkpt lat="47.99953" lon="6.94922">
        <ele>1040</ele>
        <time>2019-01-03T09:17:02.000Z</time>
      </trkpt>
      <trkpt lat="47.99953" lon="6.94929">
        <ele>1041</ele>
        <time>2019-01-03T09:17:05.000Z</time>
      </trkpt>
      <trkpt lat="47.99952" lon="6.94938">
        <ele>1042</ele>
        <time>2019-01-03T09:17:09.000Z</time>
      </trkpt>
      <trkpt lat="47.99951" lon="6.94947">
        <ele>1043</ele>
        <time>2019-01-03T09:17:13.000Z</time>
      </trkpt>
      <trkpt lat="47.99949" lon="6.94955">
        <ele>1047</ele>
        <time>2019-01-03T09:17:23.000Z</time>
      </trkpt>
      <trkpt lat="47.99948" lon="6.94966">
        <ele>1051</ele>
        <time>2019-01-03T09:17:33.000Z</time>
      </trkpt>
      <trkpt lat="47.99947" lon="6.94975">
        <ele>1053</ele>
        <time>2019-01-03T09:17:40.000Z</time>
      </trkpt>
      <trkpt lat="47.99942" lon="6.94983">
        <ele>1055</ele>
        <time>2019-01-03T09:17:47.000Z</time>
      </trkpt>
      <trkpt lat="47.99938" lon="6.94987">
        <ele>1055</ele>
        <time>2019-01-03T09:17:51.000Z</time>
      </trkpt>
      <trkpt lat="47.99933" lon="6.94991">
        <ele>1055</ele>
        <time>2019-01-03T09:17:55.000Z</time>
      </trkpt>
      <trkpt lat="47.99928" lon="6.94995">
        <ele>1054</ele>
        <time>2019-01-03T09:17:59.000Z</time>
      </trkpt>
      <trkpt lat="47.99924" lon="6.94998">
        <ele>1054</ele>
        <time>2019-01-03T09:18:02.000Z</time>
      </trkpt>
      <trkpt lat="47.99919" lon="6.95004">
        <ele>1053</ele>
        <time>2019-01-03T09:18:06.000Z</time>
      </trkpt>
      <trkpt lat="47.99916" lon="6.95016">
        <ele>1052</ele>
        <time>2019-01-03T09:18:13.000Z</time>
      </trkpt>
      <trkpt lat="47.99916" lon="6.95027">
        <ele>1053</ele>
        <time>2019-01-03T09:18:20.000Z</time>
      </trkpt>
      <trkpt lat="47.99918" lon="6.95039">
        <ele>1054</ele>
        <time>2019-01-03T09:18:27.000Z</time>
      </trkpt>
      <trkpt lat="47.99924" lon="6.9505">
        <ele>1054</ele>
        <time>2019-01-03T09:18:34.000Z</time>
      </trkpt>
      <trkpt lat="47.99927" lon="6.95057">
        <ele>1054</ele>
        <time>2019-01-03T09:18:38.000Z</time>
      </trkpt>
      <trkpt lat="47.99933" lon="6.9507">
        <ele>1055</ele>
        <time>2019-01-03T09:18:45.000Z</time>
      </trkpt>
      <trkpt lat="47.99936" lon="6.95075">
        <ele>1055</ele>
        <time>2019-01-03T09:18:48.000Z</time>
      </trkpt>
      <trkpt lat="47.9994" lon="6.95082">
        <ele>1056</ele>
        <time>2019-01-03T09:18:52.000Z</time>
      </trkpt>
      <trkpt lat="47.99945" lon="6.95088">
        <ele>1056</ele>
        <time>2019-01-03T09:18:56.000Z</time>
      </trkpt>
      <trkpt lat="47.9995" lon="6.95096">
        <ele>1057</ele>
        <time>2019-01-03T09:19:04.000Z</time>
      </trkpt>
      <trkpt lat="47.99954" lon="6.95102">
        <ele>1058</ele>
        <time>2019-01-03T09:19:08.000Z</time>
      </trkpt>
      <trkpt lat="47.99956" lon="6.9511">
        <ele>1059</ele>
        <time>2019-01-03T09:19:12.000Z</time>
      </trkpt>
      <trkpt lat="47.99956" lon="6.95119">
        <ele>1061</ele>
        <time>2019-01-03T09:19:16.000Z</time>
      </trkpt>
      <trkpt lat="47.99956" lon="6.95126">
        <ele>1061</ele>
        <time>2019-01-03T09:19:20.000Z</time>
      </trkpt>
      <trkpt lat="47.99957" lon="6.95139">
        <ele>1060</ele>
        <time>2019-01-03T09:19:27.000Z</time>
      </trkpt>
      <trkpt lat="47.99957" lon="6.95152">
        <ele>1062</ele>
        <time>2019-01-03T09:19:33.000Z</time>
      </trkpt>
      <trkpt lat="47.99958" lon="6.9516">
        <ele>1064</ele>
        <time>2019-01-03T09:19:37.000Z</time>
      </trkpt>
      <trkpt lat="47.99959" lon="6.95166">
        <ele>1064</ele>
        <time>2019-01-03T09:19:41.000Z</time>
      </trkpt>
      <trkpt lat="47.99961" lon="6.95175">
        <ele>1065</ele>
        <time>2019-01-03T09:19:45.000Z</time>
      </trkpt>
      <trkpt lat="47.99963" lon="6.95182">
        <ele>1066</ele>
        <time>2019-01-03T09:19:49.000Z</time>
      </trkpt>
      <trkpt lat="47.99965" lon="6.95193">
        <ele>1069</ele>
        <time>2019-01-03T09:19:56.000Z</time>
      </trkpt>
      <trkpt lat="47.99964" lon="6.952">
        <ele>1071</ele>
        <time>2019-01-03T09:20:11.000Z</time>
      </trkpt>
      <trkpt lat="47.99965" lon="6.95209">
        <ele>1073</ele>
        <time>2019-01-03T09:20:21.000Z</time>
      </trkpt>
      <trkpt lat="47.99967" lon="6.95219">
        <ele>1076</ele>
        <time>2019-01-03T09:20:28.000Z</time>
      </trkpt>
      <trkpt lat="47.99969" lon="6.9523">
        <ele>1077</ele>
        <time>2019-01-03T09:20:35.000Z</time>
      </trkpt>
      <trkpt lat="47.9997" lon="6.95242">
        <ele>1077</ele>
        <time>2019-01-03T09:20:41.000Z</time>
      </trkpt>
      <trkpt lat="47.99971" lon="6.95249">
        <ele>1078</ele>
        <time>2019-01-03T09:20:45.000Z</time>
      </trkpt>
      <trkpt lat="47.99971" lon="6.95256">
        <ele>1079</ele>
        <time>2019-01-03T09:20:49.000Z</time>
      </trkpt>
      <trkpt lat="47.99971" lon="6.95264">
        <ele>1079</ele>
        <time>2019-01-03T09:20:53.000Z</time>
      </trkpt>
      <trkpt lat="47.9997" lon="6.95272">
        <ele>1079</ele>
        <time>2019-01-03T09:20:57.000Z</time>
      </trkpt>
      <trkpt lat="47.99969" lon="6.95281">
        <ele>1080</ele>
        <time>2019-01-03T09:21:01.000Z</time>
      </trkpt>
      <trkpt lat="47.99969" lon="6.95288">
        <ele>1079</ele>
        <time>2019-01-03T09:21:04.000Z</time>
      </trkpt>
      <trkpt lat="47.99969" lon="6.95296">
        <ele>1079</ele>
        <time>2019-01-03T09:21:08.000Z</time>
      </trkpt>
      <trkpt lat="47.99971" lon="6.95307">
        <ele>1081</ele>
        <time>2019-01-03T09:21:14.000Z</time>
      </trkpt>
      <trkpt lat="47.99972" lon="6.95314">
        <ele>1081</ele>
        <time>2019-01-03T09:21:18.000Z</time>
      </trkpt>
      <trkpt lat="47.99974" lon="6.95327">
        <ele>1081</ele>
        <time>2019-01-03T09:21:25.000Z</time>
      </trkpt>
      <trkpt lat="47.99975" lon="6.95336">
        <ele>1081</ele>
        <time>2019-01-03T09:21:29.000Z</time>
      </trkpt>
      <trkpt lat="47.99975" lon="6.95343">
        <ele>1080</ele>
        <time>2019-01-03T09:21:32.000Z</time>
      </trkpt>
      <trkpt lat="47.99976" lon="6.95354">
        <ele>1080</ele>
        <time>2019-01-03T09:21:36.000Z</time>
      </trkpt>
      <trkpt lat="47.99977" lon="6.95362">
        <ele>1080</ele>
        <time>2019-01-03T09:21:39.000Z</time>
      </trkpt>
      <trkpt lat="47.99978" lon="6.95371">
        <ele>1079</ele>
        <time>2019-01-03T09:21:43.000Z</time>
      </trkpt>
      <trkpt lat="47.99977" lon="6.95379">
        <ele>1079</ele>
        <time>2019-01-03T09:21:47.000Z</time>
      </trkpt>
      <trkpt lat="47.99976" lon="6.95387">
        <ele>1079</ele>
        <time>2019-01-03T09:21:51.000Z</time>
      </trkpt>
      <trkpt lat="47.99975" lon="6.95395">
        <ele>1078</ele>
        <time>2019-01-03T09:21:55.000Z</time>
      </trkpt>
      <trkpt lat="47.99974" lon="6.95406">
        <ele>1081</ele>
        <time>2019-01-03T09:22:03.000Z</time>
      </trkpt>
      <trkpt lat="47.99976" lon="6.95414">
        <ele>1082</ele>
        <time>2019-01-03T09:22:10.000Z</time>
      </trkpt>
      <trkpt lat="47.99978" lon="6.95422">
        <ele>1080</ele>
        <time>2019-01-03T09:22:41.000Z</time>
      </trkpt>
      <trkpt lat="47.9998" lon="6.95431">
        <ele>1084</ele>
        <time>2019-01-03T09:23:57.000Z</time>
      </trkpt>
      <trkpt lat="47.99986" lon="6.95441">
        <ele>1086</ele>
        <time>2019-01-03T09:24:04.000Z</time>
      </trkpt>
      <trkpt lat="47.99987" lon="6.95448">
        <ele>1086</ele>
        <time>2019-01-03T09:24:07.000Z</time>
      </trkpt>
      <trkpt lat="47.99988" lon="6.95456">
        <ele>1086</ele>
        <time>2019-01-03T09:24:11.000Z</time>
      </trkpt>
      <trkpt lat="47.99987" lon="6.95463">
        <ele>1086</ele>
        <time>2019-01-03T09:24:14.000Z</time>
      </trkpt>
      <trkpt lat="47.99985" lon="6.95472">
        <ele>1087</ele>
        <time>2019-01-03T09:24:18.000Z</time>
      </trkpt>
      <trkpt lat="47.99985" lon="6.95481">
        <ele>1088</ele>
        <time>2019-01-03T09:24:22.000Z</time>
      </trkpt>
      <trkpt lat="47.99986" lon="6.95488">
        <ele>1089</ele>
        <time>2019-01-03T09:24:26.000Z</time>
      </trkpt>
      <trkpt lat="47.99987" lon="6.95504">
        <ele>1089</ele>
        <time>2019-01-03T09:24:33.000Z</time>
      </trkpt>
      <trkpt lat="47.99988" lon="6.95511">
        <ele>1091</ele>
        <time>2019-01-03T09:24:37.000Z</time>
      </trkpt>
      <trkpt lat="47.99991" lon="6.95519">
        <ele>1091</ele>
        <time>2019-01-03T09:24:41.000Z</time>
      </trkpt>
      <trkpt lat="47.99992" lon="6.9553">
        <ele>1094</ele>
        <time>2019-01-03T09:24:48.000Z</time>
      </trkpt>
      <trkpt lat="47.99994" lon="6.95537">
        <ele>1096</ele>
        <time>2019-01-03T09:24:52.000Z</time>
      </trkpt>
      <trkpt lat="47.99997" lon="6.95545">
        <ele>1097</ele>
        <time>2019-01-03T09:24:56.000Z</time>
      </trkpt>
      <trkpt lat="48" lon="6.95557">
        <ele>1097</ele>
        <time>2019-01-03T09:25:03.000Z</time>
      </trkpt>
      <trkpt lat="48.00002" lon="6.95563">
        <ele>1098</ele>
        <time>2019-01-03T09:25:09.000Z</time>
      </trkpt>
      <trkpt lat="48.00007" lon="6.95568">
        <ele>1102</ele>
        <time>2019-01-03T09:25:19.000Z</time>
      </trkpt>
      <trkpt lat="48.00011" lon="6.95572">
        <ele>1106</ele>
        <time>2019-01-03T09:25:25.000Z</time>
      </trkpt>
      <trkpt lat="48.00015" lon="6.95577">
        <ele>1114</ele>
        <time>2019-01-03T09:25:48.000Z</time>
      </trkpt>
      <trkpt lat="48.00022" lon="6.95575">
        <ele>1116</ele>
        <time>2019-01-03T09:26:03.000Z</time>
      </trkpt>
      <trkpt lat="48.00027" lon="6.9557">
        <ele>1116</ele>
        <time>2019-01-03T09:26:10.000Z</time>
      </trkpt>
      <trkpt lat="48.00032" lon="6.95564">
        <ele>1116</ele>
        <time>2019-01-03T09:26:17.000Z</time>
      </trkpt>
      <trkpt lat="48.00038" lon="6.95567">
        <ele>1118</ele>
        <time>2019-01-03T09:26:24.000Z</time>
      </trkpt>
      <trkpt lat="48.00041" lon="6.95573">
        <ele>1117</ele>
        <time>2019-01-03T09:26:28.000Z</time>
      </trkpt>
      <trkpt lat="48.00045" lon="6.95579">
        <ele>1117</ele>
        <time>2019-01-03T09:26:32.000Z</time>
      </trkpt>
      <trkpt lat="48.00051" lon="6.95588">
        <ele>1118</ele>
        <time>2019-01-03T09:26:38.000Z</time>
      </trkpt>
      <trkpt lat="48.00055" lon="6.95595">
        <ele>1118</ele>
        <time>2019-01-03T09:26:42.000Z</time>
      </trkpt>
      <trkpt lat="48.00058" lon="6.95607">
        <ele>1120</ele>
        <time>2019-01-03T09:26:49.000Z</time>
      </trkpt>
      <trkpt lat="48.00061" lon="6.95613">
        <ele>1120</ele>
        <time>2019-01-03T09:26:53.000Z</time>
      </trkpt>
      <trkpt lat="48.00062" lon="6.95624">
        <ele>1120</ele>
        <time>2019-01-03T09:26:59.000Z</time>
      </trkpt>
      <trkpt lat="48.00061" lon="6.95632">
        <ele>1120</ele>
        <time>2019-01-03T09:27:03.000Z</time>
      </trkpt>
      <trkpt lat="48.0006" lon="6.95643">
        <ele>1120</ele>
        <time>2019-01-03T09:27:07.000Z</time>
      </trkpt>
      <trkpt lat="48.00059" lon="6.95649">
        <ele>1122</ele>
        <time>2019-01-03T09:27:10.000Z</time>
      </trkpt>
      <trkpt lat="48.00057" lon="6.95658">
        <ele>1122</ele>
        <time>2019-01-03T09:27:14.000Z</time>
      </trkpt>
      <trkpt lat="48.00055" lon="6.95669">
        <ele>1123</ele>
        <time>2019-01-03T09:27:18.000Z</time>
      </trkpt>
      <trkpt lat="48.00053" lon="6.95677">
        <ele>1124</ele>
        <time>2019-01-03T09:27:22.000Z</time>
      </trkpt>
      <trkpt lat="48.00049" lon="6.95687">
        <ele>1126</ele>
        <time>2019-01-03T09:27:28.000Z</time>
      </trkpt>
      <trkpt lat="48.00045" lon="6.95691">
        <ele>1126</ele>
        <time>2019-01-03T09:27:32.000Z</time>
      </trkpt>
      <trkpt lat="48.00042" lon="6.95698">
        <ele>1127</ele>
        <time>2019-01-03T09:27:36.000Z</time>
      </trkpt>
      <trkpt lat="48.00038" lon="6.95705">
        <ele>1129</ele>
        <time>2019-01-03T09:27:40.000Z</time>
      </trkpt>
      <trkpt lat="48.00036" lon="6.95712">
        <ele>1129</ele>
        <time>2019-01-03T09:27:43.000Z</time>
      </trkpt>
      <trkpt lat="48.00033" lon="6.9572">
        <ele>1129</ele>
        <time>2019-01-03T09:27:46.000Z</time>
      </trkpt>
      <trkpt lat="48.00029" lon="6.95728">
        <ele>1130</ele>
        <time>2019-01-03T09:27:50.000Z</time>
      </trkpt>
      <trkpt lat="48.00024" lon="6.95735">
        <ele>1131</ele>
        <time>2019-01-03T09:27:54.000Z</time>
      </trkpt>
      <trkpt lat="48.0002" lon="6.9574">
        <ele>1131</ele>
        <time>2019-01-03T09:27:58.000Z</time>
      </trkpt>
      <trkpt lat="48.00014" lon="6.95744">
        <ele>1132</ele>
        <time>2019-01-03T09:28:02.000Z</time>
      </trkpt>
      <trkpt lat="48.0001" lon="6.9575">
        <ele>1132</ele>
        <time>2019-01-03T09:28:06.000Z</time>
      </trkpt>
      <trkpt lat="48.00005" lon="6.95755">
        <ele>1133</ele>
        <time>2019-01-03T09:28:10.000Z</time>
      </trkpt>
      <trkpt lat="48" lon="6.95762">
        <ele>1135</ele>
        <time>2019-01-03T09:28:16.000Z</time>
      </trkpt>
      <trkpt lat="47.99995" lon="6.95768">
        <ele>1135</ele>
        <time>2019-01-03T09:28:20.000Z</time>
      </trkpt>
      <trkpt lat="47.99993" lon="6.95774">
        <ele>1136</ele>
        <time>2019-01-03T09:28:23.000Z</time>
      </trkpt>
      <trkpt lat="47.99989" lon="6.9578">
        <ele>1137</ele>
        <time>2019-01-03T09:28:26.000Z</time>
      </trkpt>
      <trkpt lat="47.99985" lon="6.95787">
        <ele>1136</ele>
        <time>2019-01-03T09:28:30.000Z</time>
      </trkpt>
      <trkpt lat="47.99981" lon="6.95794">
        <ele>1137</ele>
        <time>2019-01-03T09:28:34.000Z</time>
      </trkpt>
      <trkpt lat="47.99976" lon="6.95799">
        <ele>1137</ele>
        <time>2019-01-03T09:28:37.000Z</time>
      </trkpt>
      <trkpt lat="47.99972" lon="6.95806">
        <ele>1136</ele>
        <time>2019-01-03T09:28:41.000Z</time>
      </trkpt>
      <trkpt lat="47.9997" lon="6.95814">
        <ele>1136</ele>
        <time>2019-01-03T09:28:47.000Z</time>
      </trkpt>
      <trkpt lat="47.99966" lon="6.95827">
        <ele>1136</ele>
        <time>2019-01-03T09:28:53.000Z</time>
      </trkpt>
      <trkpt lat="47.99963" lon="6.95834">
        <ele>1137</ele>
        <time>2019-01-03T09:28:57.000Z</time>
      </trkpt>
      <trkpt lat="47.9996" lon="6.95839">
        <ele>1138</ele>
        <time>2019-01-03T09:29:01.000Z</time>
      </trkpt>
      <trkpt lat="47.99955" lon="6.9585">
        <ele>1141</ele>
        <time>2019-01-03T09:29:08.000Z</time>
      </trkpt>
      <trkpt lat="47.9995" lon="6.95855">
        <ele>1142</ele>
        <time>2019-01-03T09:29:12.000Z</time>
      </trkpt>
      <trkpt lat="47.99943" lon="6.95862">
        <ele>1143</ele>
        <time>2019-01-03T09:29:19.000Z</time>
      </trkpt>
      <trkpt lat="47.99935" lon="6.95869">
        <ele>1146</ele>
        <time>2019-01-03T09:29:26.000Z</time>
      </trkpt>
      <trkpt lat="47.9993" lon="6.95876">
        <ele>1148</ele>
        <time>2019-01-03T09:29:30.000Z</time>
      </trkpt>
      <trkpt lat="47.99926" lon="6.95882">
        <ele>1148</ele>
        <time>2019-01-03T09:29:34.000Z</time>
      </trkpt>
      <trkpt lat="47.99919" lon="6.95888">
        <ele>1149</ele>
        <time>2019-01-03T09:29:40.000Z</time>
      </trkpt>
      <trkpt lat="47.99915" lon="6.95893">
        <ele>1150</ele>
        <time>2019-01-03T09:29:44.000Z</time>
      </trkpt>
      <trkpt lat="47.99912" lon="6.95897">
        <ele>1150</ele>
        <time>2019-01-03T09:29:47.000Z</time>
      </trkpt>
      <trkpt lat="47.99907" lon="6.95902">
        <ele>1151</ele>
        <time>2019-01-03T09:29:51.000Z</time>
      </trkpt>
      <trkpt lat="47.999" lon="6.95907">
        <ele>1150</ele>
        <time>2019-01-03T09:29:58.000Z</time>
      </trkpt>
      <trkpt lat="47.99895" lon="6.95907">
        <ele>1153</ele>
        <time>2019-01-03T09:30:29.000Z</time>
      </trkpt>
      <trkpt lat="47.99889" lon="6.95913">
        <ele>1153</ele>
        <time>2019-01-03T09:32:30.000Z</time>
      </trkpt>
      <trkpt lat="47.99884" lon="6.95921">
        <ele>1153</ele>
        <time>2019-01-03T09:32:36.000Z</time>
      </trkpt>
      <trkpt lat="47.99883" lon="6.95929">
        <ele>1153</ele>
        <time>2019-01-03T09:33:08.000Z</time>
      </trkpt>
      <trkpt lat="47.9988" lon="6.95939">
        <ele>1154</ele>
        <time>2019-01-03T09:33:18.000Z</time>
      </trkpt>
      <trkpt lat="47.99877" lon="6.95952">
        <ele>1154</ele>
        <time>2019-01-03T09:33:26.000Z</time>
      </trkpt>
      <trkpt lat="47.99875" lon="6.9596">
        <ele>1155</ele>
        <time>2019-01-03T09:33:30.000Z</time>
      </trkpt>
      <trkpt lat="47.99872" lon="6.95967">
        <ele>1156</ele>
        <time>2019-01-03T09:33:34.000Z</time>
      </trkpt>
      <trkpt lat="47.99868" lon="6.95973">
        <ele>1156</ele>
        <time>2019-01-03T09:33:38.000Z</time>
      </trkpt>
      <trkpt lat="47.99866" lon="6.95981">
        <ele>1156</ele>
        <time>2019-01-03T09:33:42.000Z</time>
      </trkpt>
      <trkpt lat="47.99864" lon="6.9599">
        <ele>1158</ele>
        <time>2019-01-03T09:33:46.000Z</time>
      </trkpt>
      <trkpt lat="47.9986" lon="6.95999">
        <ele>1158</ele>
        <time>2019-01-03T09:33:50.000Z</time>
      </trkpt>
      <trkpt lat="47.99855" lon="6.96007">
        <ele>1157</ele>
        <time>2019-01-03T09:33:54.000Z</time>
      </trkpt>
      <trkpt lat="47.99851" lon="6.96014">
        <ele>1157</ele>
        <time>2019-01-03T09:33:58.000Z</time>
      </trkpt>
      <trkpt lat="47.99847" lon="6.96019">
        <ele>1158</ele>
        <time>2019-01-03T09:34:01.000Z</time>
      </trkpt>
      <trkpt lat="47.99843" lon="6.96025">
        <ele>1157</ele>
        <time>2019-01-03T09:34:04.000Z</time>
      </trkpt>
      <trkpt lat="47.99838" lon="6.96031">
        <ele>1159</ele>
        <time>2019-01-03T09:34:08.000Z</time>
      </trkpt>
      <trkpt lat="47.99834" lon="6.96034">
        <ele>1158</ele>
        <time>2019-01-03T09:34:11.000Z</time>
      </trkpt>
      <trkpt lat="47.99829" lon="6.96037">
        <ele>1158</ele>
        <time>2019-01-03T09:34:14.000Z</time>
      </trkpt>
      <trkpt lat="47.99824" lon="6.96043">
        <ele>1157</ele>
        <time>2019-01-03T09:34:18.000Z</time>
      </trkpt>
      <trkpt lat="47.99818" lon="6.9605">
        <ele>1156</ele>
        <time>2019-01-03T09:34:22.000Z</time>
      </trkpt>
      <trkpt lat="47.99814" lon="6.96054">
        <ele>1156</ele>
        <time>2019-01-03T09:34:25.000Z</time>
      </trkpt>
      <trkpt lat="47.99808" lon="6.96061">
        <ele>1156</ele>
        <time>2019-01-03T09:34:29.000Z</time>
      </trkpt>
      <trkpt lat="47.99804" lon="6.96065">
        <ele>1156</ele>
        <time>2019-01-03T09:34:32.000Z</time>
      </trkpt>
      <trkpt lat="47.99798" lon="6.9607">
        <ele>1157</ele>
        <time>2019-01-03T09:34:36.000Z</time>
      </trkpt>
      <trkpt lat="47.99794" lon="6.96074">
        <ele>1152</ele>
        <time>2019-01-03T09:34:54.000Z</time>
      </trkpt>
      <trkpt lat="47.99793" lon="6.96081">
        <ele>1155</ele>
        <time>2019-01-03T09:37:42.000Z</time>
      </trkpt>
      <trkpt lat="47.99793" lon="6.96088">
        <ele>1155</ele>
        <time>2019-01-03T09:37:46.000Z</time>
      </trkpt>
      <trkpt lat="47.9979" lon="6.96097">
        <ele>1153</ele>
        <time>2019-01-03T09:37:50.000Z</time>
      </trkpt>
      <trkpt lat="47.99787" lon="6.96104">
        <ele>1152</ele>
        <time>2019-01-03T09:37:54.000Z</time>
      </trkpt>
      <trkpt lat="47.99785" lon="6.96113">
        <ele>1151</ele>
        <time>2019-01-03T09:38:02.000Z</time>
      </trkpt>
      <trkpt lat="47.99782" lon="6.9612">
        <ele>1145</ele>
        <time>2019-01-03T09:39:17.000Z</time>
      </trkpt>
      <trkpt lat="47.99783" lon="6.96127">
        <ele>1145</ele>
        <time>2019-01-03T09:39:21.000Z</time>
      </trkpt>
      <trkpt lat="47.99782" lon="6.96135">
        <ele>1146</ele>
        <time>2019-01-03T09:39:25.000Z</time>
      </trkpt>
      <trkpt lat="47.99782" lon="6.96145">
        <ele>1145</ele>
        <time>2019-01-03T09:39:31.000Z</time>
      </trkpt>
      <trkpt lat="47.99782" lon="6.96157">
        <ele>1144</ele>
        <time>2019-01-03T09:39:38.000Z</time>
      </trkpt>
      <trkpt lat="47.99783" lon="6.96165">
        <ele>1144</ele>
        <time>2019-01-03T09:39:42.000Z</time>
      </trkpt>
      <trkpt lat="47.99784" lon="6.96175">
        <ele>1143</ele>
        <time>2019-01-03T09:39:49.000Z</time>
      </trkpt>
      <trkpt lat="47.99779" lon="6.96189">
        <ele>1141</ele>
        <time>2019-01-03T09:39:56.000Z</time>
      </trkpt>
      <trkpt lat="47.99775" lon="6.96201">
        <ele>1140</ele>
        <time>2019-01-03T09:40:02.000Z</time>
      </trkpt>
      <trkpt lat="47.99773" lon="6.96208">
        <ele>1139</ele>
        <time>2019-01-03T09:40:05.000Z</time>
      </trkpt>
      <trkpt lat="47.99773" lon="6.96215">
        <ele>1138</ele>
        <time>2019-01-03T09:40:08.000Z</time>
      </trkpt>
      <trkpt lat="47.99774" lon="6.96225">
        <ele>1137</ele>
        <time>2019-01-03T09:40:12.000Z</time>
      </trkpt>
      <trkpt lat="47.99777" lon="6.96235">
        <ele>1137</ele>
        <time>2019-01-03T09:40:16.000Z</time>
      </trkpt>
      <trkpt lat="47.9978" lon="6.96242">
        <ele>1137</ele>
        <time>2019-01-03T09:40:20.000Z</time>
      </trkpt>
      <trkpt lat="47.99783" lon="6.96251">
        <ele>1135</ele>
        <time>2019-01-03T09:40:24.000Z</time>
      </trkpt>
      <trkpt lat="47.99791" lon="6.9626">
        <ele>1134</ele>
        <time>2019-01-03T09:40:31.000Z</time>
      </trkpt>
      <trkpt lat="47.99794" lon="6.96266">
        <ele>1135</ele>
        <time>2019-01-03T09:40:35.000Z</time>
      </trkpt>
      <trkpt lat="47.99799" lon="6.96271">
        <ele>1134</ele>
        <time>2019-01-03T09:40:42.000Z</time>
      </trkpt>
      <trkpt lat="47.99805" lon="6.96272">
        <ele>1134</ele>
        <time>2019-01-03T09:40:53.000Z</time>
      </trkpt>
      <trkpt lat="47.99811" lon="6.96275">
        <ele>1133</ele>
        <time>2019-01-03T09:40:57.000Z</time>
      </trkpt>
      <trkpt lat="47.99817" lon="6.96277">
        <ele>1134</ele>
        <time>2019-01-03T09:41:01.000Z</time>
      </trkpt>
      <trkpt lat="47.99824" lon="6.9628">
        <ele>1133</ele>
        <time>2019-01-03T09:41:07.000Z</time>
      </trkpt>
      <trkpt lat="47.9983" lon="6.96284">
        <ele>1133</ele>
        <time>2019-01-03T09:41:11.000Z</time>
      </trkpt>
      <trkpt lat="47.99837" lon="6.9629">
        <ele>1133</ele>
        <time>2019-01-03T09:41:17.000Z</time>
      </trkpt>
      <trkpt lat="47.99843" lon="6.96296">
        <ele>1132</ele>
        <time>2019-01-03T09:41:23.000Z</time>
      </trkpt>
      <trkpt lat="47.99848" lon="6.96301">
        <ele>1132</ele>
        <time>2019-01-03T09:41:27.000Z</time>
      </trkpt>
      <trkpt lat="47.99853" lon="6.96303">
        <ele>1130</ele>
        <time>2019-01-03T09:41:31.000Z</time>
      </trkpt>
      <trkpt lat="47.99857" lon="6.96305">
        <ele>1131</ele>
        <time>2019-01-03T09:41:34.000Z</time>
      </trkpt>
      <trkpt lat="47.99863" lon="6.96308">
        <ele>1130</ele>
        <time>2019-01-03T09:41:37.000Z</time>
      </trkpt>
      <trkpt lat="47.99868" lon="6.96311">
        <ele>1130</ele>
        <time>2019-01-03T09:41:40.000Z</time>
      </trkpt>
      <trkpt lat="47.99872" lon="6.96314">
        <ele>1129</ele>
        <time>2019-01-03T09:41:43.000Z</time>
      </trkpt>
      <trkpt lat="47.99878" lon="6.96319">
        <ele>1129</ele>
        <time>2019-01-03T09:41:47.000Z</time>
      </trkpt>
      <trkpt lat="47.99887" lon="6.96326">
        <ele>1130</ele>
        <time>2019-01-03T09:41:54.000Z</time>
      </trkpt>
      <trkpt lat="47.99893" lon="6.96331">
        <ele>1129</ele>
        <time>2019-01-03T09:41:58.000Z</time>
      </trkpt>
      <trkpt lat="47.99899" lon="6.96335">
        <ele>1128</ele>
        <time>2019-01-03T09:42:02.000Z</time>
      </trkpt>
      <trkpt lat="47.99906" lon="6.9634">
        <ele>1130</ele>
        <time>2019-01-03T09:42:06.000Z</time>
      </trkpt>
      <trkpt lat="47.9991" lon="6.96344">
        <ele>1128</ele>
        <time>2019-01-03T09:42:09.000Z</time>
      </trkpt>
      <trkpt lat="47.99917" lon="6.96351">
        <ele>1127</ele>
        <time>2019-01-03T09:42:16.000Z</time>
      </trkpt>
      <trkpt lat="47.99923" lon="6.96357">
        <ele>1128</ele>
        <time>2019-01-03T09:42:22.000Z</time>
      </trkpt>
      <trkpt lat="47.99933" lon="6.96367">
        <ele>1127</ele>
        <time>2019-01-03T09:42:29.000Z</time>
      </trkpt>
      <trkpt lat="47.9994" lon="6.96373">
        <ele>1126</ele>
        <time>2019-01-03T09:42:33.000Z</time>
      </trkpt>
      <trkpt lat="47.99945" lon="6.9638">
        <ele>1125</ele>
        <time>2019-01-03T09:42:37.000Z</time>
      </trkpt>
      <trkpt lat="47.99949" lon="6.96385">
        <ele>1125</ele>
        <time>2019-01-03T09:42:40.000Z</time>
      </trkpt>
      <trkpt lat="47.99955" lon="6.96389">
        <ele>1124</ele>
        <time>2019-01-03T09:42:44.000Z</time>
      </trkpt>
      <trkpt lat="47.9996" lon="6.96391">
        <ele>1123</ele>
        <time>2019-01-03T09:42:47.000Z</time>
      </trkpt>
      <trkpt lat="47.99965" lon="6.96394">
        <ele>1123</ele>
        <time>2019-01-03T09:42:50.000Z</time>
      </trkpt>
      <trkpt lat="47.99971" lon="6.96397">
        <ele>1122</ele>
        <time>2019-01-03T09:42:53.000Z</time>
      </trkpt>
      <trkpt lat="47.99979" lon="6.96402">
        <ele>1119</ele>
        <time>2019-01-03T09:42:57.000Z</time>
      </trkpt>
      <trkpt lat="47.99989" lon="6.9641">
        <ele>1117</ele>
        <time>2019-01-03T09:43:04.000Z</time>
      </trkpt>
      <trkpt lat="47.99994" lon="6.96415">
        <ele>1116</ele>
        <time>2019-01-03T09:43:07.000Z</time>
      </trkpt>
      <trkpt lat="48" lon="6.96419">
        <ele>1116</ele>
        <time>2019-01-03T09:43:11.000Z</time>
      </trkpt>
      <trkpt lat="48.00008" lon="6.96421">
        <ele>1114</ele>
        <time>2019-01-03T09:43:18.000Z</time>
      </trkpt>
      <trkpt lat="48.00016" lon="6.96425">
        <ele>1112</ele>
        <time>2019-01-03T09:43:25.000Z</time>
      </trkpt>
      <trkpt lat="48.00021" lon="6.96427">
        <ele>1112</ele>
        <time>2019-01-03T09:43:28.000Z</time>
      </trkpt>
      <trkpt lat="48.00027" lon="6.9643">
        <ele>1111</ele>
        <time>2019-01-03T09:43:32.000Z</time>
      </trkpt>
      <trkpt lat="48.00032" lon="6.96432">
        <ele>1110</ele>
        <time>2019-01-03T09:43:35.000Z</time>
      </trkpt>
      <trkpt lat="48.00037" lon="6.96435">
        <ele>1110</ele>
        <time>2019-01-03T09:43:38.000Z</time>
      </trkpt>
      <trkpt lat="48.00043" lon="6.96438">
        <ele>1109</ele>
        <time>2019-01-03T09:43:41.000Z</time>
      </trkpt>
      <trkpt lat="48.00048" lon="6.96439">
        <ele>1108</ele>
        <time>2019-01-03T09:43:44.000Z</time>
      </trkpt>
      <trkpt lat="48.00054" lon="6.96437">
        <ele>1107</ele>
        <time>2019-01-03T09:43:48.000Z</time>
      </trkpt>
      <trkpt lat="48.00059" lon="6.96436">
        <ele>1108</ele>
        <time>2019-01-03T09:43:51.000Z</time>
      </trkpt>
      <trkpt lat="48.00064" lon="6.96436">
        <ele>1108</ele>
        <time>2019-01-03T09:43:54.000Z</time>
      </trkpt>
      <trkpt lat="48.00069" lon="6.96436">
        <ele>1108</ele>
        <time>2019-01-03T09:43:58.000Z</time>
      </trkpt>
      <trkpt lat="48.00074" lon="6.96435">
        <ele>1108</ele>
        <time>2019-01-03T09:44:01.000Z</time>
      </trkpt>
      <trkpt lat="48.00082" lon="6.96439">
        <ele>1108</ele>
        <time>2019-01-03T09:44:08.000Z</time>
      </trkpt>
      <trkpt lat="48.00088" lon="6.96438">
        <ele>1108</ele>
        <time>2019-01-03T09:44:12.000Z</time>
      </trkpt>
      <trkpt lat="48.00095" lon="6.96436">
        <ele>1108</ele>
        <time>2019-01-03T09:44:18.000Z</time>
      </trkpt>
      <trkpt lat="48.001" lon="6.96434">
        <ele>1107</ele>
        <time>2019-01-03T09:44:21.000Z</time>
      </trkpt>
      <trkpt lat="48.00105" lon="6.96433">
        <ele>1108</ele>
        <time>2019-01-03T09:44:25.000Z</time>
      </trkpt>
      <trkpt lat="48.00109" lon="6.9643">
        <ele>1108</ele>
        <time>2019-01-03T09:44:29.000Z</time>
      </trkpt>
      <trkpt lat="48.00114" lon="6.96427">
        <ele>1109</ele>
        <time>2019-01-03T09:44:33.000Z</time>
      </trkpt>
      <trkpt lat="48.00119" lon="6.96427">
        <ele>1110</ele>
        <time>2019-01-03T09:44:37.000Z</time>
      </trkpt>
      <trkpt lat="48.00126" lon="6.96426">
        <ele>1109</ele>
        <time>2019-01-03T09:44:44.000Z</time>
      </trkpt>
      <trkpt lat="48.00136" lon="6.96428">
        <ele>1109</ele>
        <time>2019-01-03T09:44:51.000Z</time>
      </trkpt>
      <trkpt lat="48.00145" lon="6.96428">
        <ele>1109</ele>
        <time>2019-01-03T09:44:58.000Z</time>
      </trkpt>
      <trkpt lat="48.0015" lon="6.96427">
        <ele>1108</ele>
        <time>2019-01-03T09:45:02.000Z</time>
      </trkpt>
      <trkpt lat="48.00161" lon="6.9643">
        <ele>1109</ele>
        <time>2019-01-03T09:45:10.000Z</time>
      </trkpt>
      <trkpt lat="48.00167" lon="6.9643">
        <ele>1109</ele>
        <time>2019-01-03T09:45:13.000Z</time>
      </trkpt>
      <trkpt lat="48.00174" lon="6.96431">
        <ele>1109</ele>
        <time>2019-01-03T09:45:17.000Z</time>
      </trkpt>
      <trkpt lat="48.0018" lon="6.96434">
        <ele>1108</ele>
        <time>2019-01-03T09:45:21.000Z</time>
      </trkpt>
      <trkpt lat="48.00186" lon="6.96437">
        <ele>1108</ele>
        <time>2019-01-03T09:45:25.000Z</time>
      </trkpt>
      <trkpt lat="48.0019" lon="6.96438">
        <ele>1107</ele>
        <time>2019-01-03T09:45:28.000Z</time>
      </trkpt>
      <trkpt lat="48.00199" lon="6.96443">
        <ele>1105</ele>
        <time>2019-01-03T09:45:35.000Z</time>
      </trkpt>
      <trkpt lat="48.00206" lon="6.96447">
        <ele>1105</ele>
        <time>2019-01-03T09:45:39.000Z</time>
      </trkpt>
      <trkpt lat="48.00211" lon="6.96449">
        <ele>1105</ele>
        <time>2019-01-03T09:45:42.000Z</time>
      </trkpt>
      <trkpt lat="48.00216" lon="6.96452">
        <ele>1104</ele>
        <time>2019-01-03T09:45:46.000Z</time>
      </trkpt>
      <trkpt lat="48.00225" lon="6.96456">
        <ele>1102</ele>
        <time>2019-01-03T09:45:54.000Z</time>
      </trkpt>
      <trkpt lat="48.0023" lon="6.96461">
        <ele>1102</ele>
        <time>2019-01-03T09:45:57.000Z</time>
      </trkpt>
      <trkpt lat="48.00234" lon="6.96464">
        <ele>1105</ele>
        <time>2019-01-03T09:46:05.000Z</time>
      </trkpt>
      <trkpt lat="48.00236" lon="6.96471">
        <ele>1106</ele>
        <time>2019-01-03T09:46:40.000Z</time>
      </trkpt>
      <trkpt lat="48.00243" lon="6.96477">
        <ele>1105</ele>
        <time>2019-01-03T09:46:47.000Z</time>
      </trkpt>
      <trkpt lat="48.00248" lon="6.96481">
        <ele>1106</ele>
        <time>2019-01-03T09:46:51.000Z</time>
      </trkpt>
      <trkpt lat="48.00254" lon="6.96493">
        <ele>1105</ele>
        <time>2019-01-03T09:46:58.000Z</time>
      </trkpt>
      <trkpt lat="48.0026" lon="6.96501">
        <ele>1105</ele>
        <time>2019-01-03T09:47:02.000Z</time>
      </trkpt>
      <trkpt lat="48.00264" lon="6.96508">
        <ele>1105</ele>
        <time>2019-01-03T09:47:05.000Z</time>
      </trkpt>
      <trkpt lat="48.00269" lon="6.96516">
        <ele>1104</ele>
        <time>2019-01-03T09:47:09.000Z</time>
      </trkpt>
      <trkpt lat="48.00273" lon="6.96522">
        <ele>1104</ele>
        <time>2019-01-03T09:47:13.000Z</time>
      </trkpt>
      <trkpt lat="48.0028" lon="6.96528">
        <ele>1101</ele>
        <time>2019-01-03T09:47:20.000Z</time>
      </trkpt>
      <trkpt lat="48.00286" lon="6.96531">
        <ele>1100</ele>
        <time>2019-01-03T09:47:24.000Z</time>
      </trkpt>
      <trkpt lat="48.0029" lon="6.96534">
        <ele>1101</ele>
        <time>2019-01-03T09:47:28.000Z</time>
      </trkpt>
      <trkpt lat="48.00295" lon="6.96543">
        <ele>1101</ele>
        <time>2019-01-03T09:47:34.000Z</time>
      </trkpt>
      <trkpt lat="48.00304" lon="6.96545">
        <ele>1097</ele>
        <time>2019-01-03T09:47:41.000Z</time>
      </trkpt>
      <trkpt lat="48.00312" lon="6.9655">
        <ele>1095</ele>
        <time>2019-01-03T09:47:48.000Z</time>
      </trkpt>
      <trkpt lat="48.00317" lon="6.96555">
        <ele>1093</ele>
        <time>2019-01-03T09:47:52.000Z</time>
      </trkpt>
      <trkpt lat="48.00324" lon="6.96563">
        <ele>1091</ele>
        <time>2019-01-03T09:47:58.000Z</time>
      </trkpt>
      <trkpt lat="48.00331" lon="6.96569">
        <ele>1089</ele>
        <time>2019-01-03T09:48:04.000Z</time>
      </trkpt>
      <trkpt lat="48.00335" lon="6.96575">
        <ele>1089</ele>
        <time>2019-01-03T09:48:08.000Z</time>
      </trkpt>
      <trkpt lat="48.00338" lon="6.9658">
        <ele>1088</ele>
        <time>2019-01-03T09:48:12.000Z</time>
      </trkpt>
      <trkpt lat="48.00342" lon="6.96587">
        <ele>1088</ele>
        <time>2019-01-03T09:48:16.000Z</time>
      </trkpt>
      <trkpt lat="48.00345" lon="6.96598">
        <ele>1086</ele>
        <time>2019-01-03T09:48:22.000Z</time>
      </trkpt>
      <trkpt lat="48.00347" lon="6.96605">
        <ele>1085</ele>
        <time>2019-01-03T09:48:26.000Z</time>
      </trkpt>
      <trkpt lat="48.00348" lon="6.96615">
        <ele>1084</ele>
        <time>2019-01-03T09:48:32.000Z</time>
      </trkpt>
      <trkpt lat="48.00349" lon="6.96631">
        <ele>1081</ele>
        <time>2019-01-03T09:48:39.000Z</time>
      </trkpt>
      <trkpt lat="48.00353" lon="6.96641">
        <ele>1079</ele>
        <time>2019-01-03T09:48:46.000Z</time>
      </trkpt>
      <trkpt lat="48.00359" lon="6.96653">
        <ele>1080</ele>
        <time>2019-01-03T09:48:53.000Z</time>
      </trkpt>
      <trkpt lat="48.00362" lon="6.96662">
        <ele>1080</ele>
        <time>2019-01-03T09:48:57.000Z</time>
      </trkpt>
      <trkpt lat="48.00368" lon="6.96673">
        <ele>1081</ele>
        <time>2019-01-03T09:49:03.000Z</time>
      </trkpt>
      <trkpt lat="48.0037" lon="6.96679">
        <ele>1081</ele>
        <time>2019-01-03T09:49:06.000Z</time>
      </trkpt>
      <trkpt lat="48.00372" lon="6.9669">
        <ele>1079</ele>
        <time>2019-01-03T09:49:10.000Z</time>
      </trkpt>
      <trkpt lat="48.00374" lon="6.96698">
        <ele>1079</ele>
        <time>2019-01-03T09:49:13.000Z</time>
      </trkpt>
      <trkpt lat="48.00376" lon="6.96704">
        <ele>1078</ele>
        <time>2019-01-03T09:49:16.000Z</time>
      </trkpt>
      <trkpt lat="48.00378" lon="6.96711">
        <ele>1079</ele>
        <time>2019-01-03T09:49:20.000Z</time>
      </trkpt>
      <trkpt lat="48.0038" lon="6.96719">
        <ele>1079</ele>
        <time>2019-01-03T09:49:27.000Z</time>
      </trkpt>
      <trkpt lat="48.00385" lon="6.96723">
        <ele>1080</ele>
        <time>2019-01-03T09:49:48.000Z</time>
      </trkpt>
      <trkpt lat="48.00387" lon="6.9673">
        <ele>1080</ele>
        <time>2019-01-03T09:49:58.000Z</time>
      </trkpt>
      <trkpt lat="48.00387" lon="6.96737">
        <ele>1081</ele>
        <time>2019-01-03T09:50:10.000Z</time>
      </trkpt>
      <trkpt lat="48.00391" lon="6.96741">
        <ele>1082</ele>
        <time>2019-01-03T09:50:17.000Z</time>
      </trkpt>
      <trkpt lat="48.00386" lon="6.96739">
        <ele>1082</ele>
        <time>2019-01-03T09:50:23.279Z</time>
      </trkpt>
      <trkpt lat="48.00381" lon="6.9673">
        <ele>1083</ele>
        <time>2019-01-03T09:50:28.000Z</time>
      </trkpt>
      <trkpt lat="48.0038" lon="6.96722">
        <ele>1084</ele>
        <time>2019-01-03T09:50:31.000Z</time>
      </trkpt>
      <trkpt lat="48.00387" lon="6.9672">
        <ele>1085</ele>
        <time>2019-01-03T09:50:38.000Z</time>
      </trkpt>
      <trkpt lat="48.00392" lon="6.96723">
        <ele>1086</ele>
        <time>2019-01-03T09:50:42.000Z</time>
      </trkpt>
      <trkpt lat="48.00396" lon="6.96728">
        <ele>1088</ele>
        <time>2019-01-03T09:50:54.000Z</time>
      </trkpt>
      <trkpt lat="48.00394" lon="6.96739">
        <ele>1086</ele>
        <time>2019-01-03T09:50:58.000Z</time>
      </trkpt>
      <trkpt lat="48.00397" lon="6.96751">
        <ele>1082</ele>
        <time>2019-01-03T09:51:05.000Z</time>
      </trkpt>
      <trkpt lat="48.004" lon="6.96757">
        <ele>1083</ele>
        <time>2019-01-03T09:51:09.000Z</time>
      </trkpt>
      <trkpt lat="48.00405" lon="6.96764">
        <ele>1082</ele>
        <time>2019-01-03T09:51:15.000Z</time>
      </trkpt>
      <trkpt lat="48.00407" lon="6.96776">
        <ele>1083</ele>
        <time>2019-01-03T09:51:29.000Z</time>
      </trkpt>
      <trkpt lat="48.00411" lon="6.96785">
        <ele>1083</ele>
        <time>2019-01-03T09:51:36.000Z</time>
      </trkpt>
      <trkpt lat="48.00413" lon="6.96799">
        <ele>1084</ele>
        <time>2019-01-03T09:51:44.000Z</time>
      </trkpt>
      <trkpt lat="48.00415" lon="6.96809">
        <ele>1082</ele>
        <time>2019-01-03T09:51:51.000Z</time>
      </trkpt>
      <trkpt lat="48.00421" lon="6.96813">
        <ele>1082</ele>
        <time>2019-01-03T09:51:59.000Z</time>
      </trkpt>
      <trkpt lat="48.00428" lon="6.96817">
        <ele>1083</ele>
        <time>2019-01-03T09:52:05.000Z</time>
      </trkpt>
      <trkpt lat="48.00435" lon="6.96818">
        <ele>1085</ele>
        <time>2019-01-03T09:52:13.000Z</time>
      </trkpt>
      <trkpt lat="48.00444" lon="6.9682">
        <ele>1085</ele>
        <time>2019-01-03T09:52:20.000Z</time>
      </trkpt>
      <trkpt lat="48.00451" lon="6.96828">
        <ele>1088</ele>
        <time>2019-01-03T09:52:27.000Z</time>
      </trkpt>
      <trkpt lat="48.00456" lon="6.96828">
        <ele>1087</ele>
        <time>2019-01-03T09:52:34.000Z</time>
      </trkpt>
      <trkpt lat="48.00462" lon="6.96824">
        <ele>1088</ele>
        <time>2019-01-03T09:52:42.000Z</time>
      </trkpt>
      <trkpt lat="48.00467" lon="6.96829">
        <ele>1093</ele>
        <time>2019-01-03T09:52:50.000Z</time>
      </trkpt>
      <trkpt lat="48.00472" lon="6.96841">
        <ele>1095</ele>
        <time>2019-01-03T09:52:58.000Z</time>
      </trkpt>
      <trkpt lat="48.00475" lon="6.96847">
        <ele>1095</ele>
        <time>2019-01-03T09:53:04.000Z</time>
      </trkpt>
      <trkpt lat="48.00479" lon="6.96855">
        <ele>1096</ele>
        <time>2019-01-03T09:53:10.000Z</time>
      </trkpt>
      <trkpt lat="48.00482" lon="6.96861">
        <ele>1101</ele>
        <time>2019-01-03T09:53:18.000Z</time>
      </trkpt>
      <trkpt lat="48.00484" lon="6.96868">
        <ele>1100</ele>
        <time>2019-01-03T09:53:22.000Z</time>
      </trkpt>
      <trkpt lat="48.0049" lon="6.96877">
        <ele>1102</ele>
        <time>2019-01-03T09:53:28.000Z</time>
      </trkpt>
      <trkpt lat="48.00496" lon="6.96886">
        <ele>1103</ele>
        <time>2019-01-03T09:53:35.000Z</time>
      </trkpt>
      <trkpt lat="48.005" lon="6.96892">
        <ele>1104</ele>
        <time>2019-01-03T09:53:42.000Z</time>
      </trkpt>
      <trkpt lat="48.00503" lon="6.96902">
        <ele>1106</ele>
        <time>2019-01-03T09:53:50.000Z</time>
      </trkpt>
      <trkpt lat="48.00507" lon="6.96908">
        <ele>1106</ele>
        <time>2019-01-03T09:53:54.000Z</time>
      </trkpt>
      <trkpt lat="48.00512" lon="6.96914">
        <ele>1108</ele>
        <time>2019-01-03T09:54:01.000Z</time>
      </trkpt>
      <trkpt lat="48.00513" lon="6.96904">
        <ele>1111</ele>
        <time>2019-01-03T09:54:19.000Z</time>
      </trkpt>
      <trkpt lat="48.00518" lon="6.96903">
        <ele>1115</ele>
        <time>2019-01-03T09:54:31.000Z</time>
      </trkpt>
      <trkpt lat="48.0052" lon="6.96911">
        <ele>1115</ele>
        <time>2019-01-03T09:54:38.000Z</time>
      </trkpt>
      <trkpt lat="48.00523" lon="6.96925">
        <ele>1116</ele>
        <time>2019-01-03T09:54:46.000Z</time>
      </trkpt>
      <trkpt lat="48.00525" lon="6.96937">
        <ele>1118</ele>
        <time>2019-01-03T09:54:54.000Z</time>
      </trkpt>
      <trkpt lat="48.0053" lon="6.96938">
        <ele>1124</ele>
        <time>2019-01-03T09:55:09.000Z</time>
      </trkpt>
      <trkpt lat="48.00533" lon="6.96929">
        <ele>1126</ele>
        <time>2019-01-03T09:55:17.000Z</time>
      </trkpt>
      <trkpt lat="48.00535" lon="6.96923">
        <ele>1127</ele>
        <time>2019-01-03T09:55:23.000Z</time>
      </trkpt>
      <trkpt lat="48.00541" lon="6.96924">
        <ele>1128</ele>
        <time>2019-01-03T09:55:31.000Z</time>
      </trkpt>
      <trkpt lat="48.00549" lon="6.9692">
        <ele>1128</ele>
        <time>2019-01-03T09:55:42.000Z</time>
      </trkpt>
      <trkpt lat="48.00553" lon="6.96915">
        <ele>1128</ele>
        <time>2019-01-03T09:55:46.000Z</time>
      </trkpt>
      <trkpt lat="48.00556" lon="6.96922">
        <ele>1129</ele>
        <time>2019-01-03T09:55:56.000Z</time>
      </trkpt>
      <trkpt lat="48.00557" lon="6.9693">
        <ele>1130</ele>
        <time>2019-01-03T09:56:03.000Z</time>
      </trkpt>
      <trkpt lat="48.00559" lon="6.96939">
        <ele>1135</ele>
        <time>2019-01-03T09:56:11.000Z</time>
      </trkpt>
      <trkpt lat="48.00563" lon="6.96935">
        <ele>1135</ele>
        <time>2019-01-03T09:56:19.000Z</time>
      </trkpt>
      <trkpt lat="48.00567" lon="6.96927">
        <ele>1136</ele>
        <time>2019-01-03T09:56:26.000Z</time>
      </trkpt>
      <trkpt lat="48.0057" lon="6.96921">
        <ele>1137</ele>
        <time>2019-01-03T09:56:32.000Z</time>
      </trkpt>
      <trkpt lat="48.00575" lon="6.96917">
        <ele>1140</ele>
        <time>2019-01-03T09:56:39.000Z</time>
      </trkpt>
      <trkpt lat="48.00578" lon="6.96923">
        <ele>1142</ele>
        <time>2019-01-03T09:56:50.000Z</time>
      </trkpt>
      <trkpt lat="48.00576" lon="6.9693">
        <ele>1146</ele>
        <time>2019-01-03T09:56:58.000Z</time>
      </trkpt>
      <trkpt lat="48.00577" lon="6.9694">
        <ele>1147</ele>
        <time>2019-01-03T09:57:05.000Z</time>
      </trkpt>
      <trkpt lat="48.00581" lon="6.96948">
        <ele>1148</ele>
        <time>2019-01-03T09:57:12.000Z</time>
      </trkpt>
      <trkpt lat="48.00584" lon="6.96941">
        <ele>1150</ele>
        <time>2019-01-03T09:57:20.000Z</time>
      </trkpt>
      <trkpt lat="48.00589" lon="6.96937">
        <ele>1151</ele>
        <time>2019-01-03T09:57:27.000Z</time>
      </trkpt>
      <trkpt lat="48.00593" lon="6.96928">
        <ele>1153</ele>
        <time>2019-01-03T09:57:34.000Z</time>
      </trkpt>
      <trkpt lat="48.00595" lon="6.96919">
        <ele>1154</ele>
        <time>2019-01-03T09:57:42.000Z</time>
      </trkpt>
      <trkpt lat="48.00598" lon="6.9691">
        <ele>1155</ele>
        <time>2019-01-03T09:57:49.000Z</time>
      </trkpt>
      <trkpt lat="48.00603" lon="6.96897">
        <ele>1156</ele>
        <time>2019-01-03T09:57:57.000Z</time>
      </trkpt>
      <trkpt lat="48.00608" lon="6.96889">
        <ele>1159</ele>
        <time>2019-01-03T09:58:04.000Z</time>
      </trkpt>
      <trkpt lat="48.00612" lon="6.96891">
        <ele>1160</ele>
        <time>2019-01-03T09:58:11.000Z</time>
      </trkpt>
      <trkpt lat="48.00617" lon="6.96894">
        <ele>1163</ele>
        <time>2019-01-03T09:58:18.000Z</time>
      </trkpt>
      <trkpt lat="48.00624" lon="6.96902">
        <ele>1167</ele>
        <time>2019-01-03T09:58:26.000Z</time>
      </trkpt>
      <trkpt lat="48.00628" lon="6.9691">
        <ele>1167</ele>
        <time>2019-01-03T09:58:32.000Z</time>
      </trkpt>
      <trkpt lat="48.0063" lon="6.96917">
        <ele>1168</ele>
        <time>2019-01-03T09:58:41.000Z</time>
      </trkpt>
      <trkpt lat="48.00633" lon="6.96926">
        <ele>1170</ele>
        <time>2019-01-03T09:58:48.000Z</time>
      </trkpt>
      <trkpt lat="48.00635" lon="6.96936">
        <ele>1173</ele>
        <time>2019-01-03T09:58:59.000Z</time>
      </trkpt>
      <trkpt lat="48.00637" lon="6.96947">
        <ele>1173</ele>
        <time>2019-01-03T09:59:06.000Z</time>
      </trkpt>
      <trkpt lat="48.00639" lon="6.96955">
        <ele>1175</ele>
        <time>2019-01-03T09:59:13.000Z</time>
      </trkpt>
      <trkpt lat="48.00642" lon="6.96962">
        <ele>1177</ele>
        <time>2019-01-03T09:59:17.000Z</time>
      </trkpt>
      <trkpt lat="48.00645" lon="6.96972">
        <ele>1179</ele>
        <time>2019-01-03T09:59:24.000Z</time>
      </trkpt>
      <trkpt lat="48.00646" lon="6.9698">
        <ele>1180</ele>
        <time>2019-01-03T09:59:31.000Z</time>
      </trkpt>
      <trkpt lat="48.00645" lon="6.96989">
        <ele>1181</ele>
        <time>2019-01-03T09:59:38.000Z</time>
      </trkpt>
      <trkpt lat="48.00646" lon="6.96996">
        <ele>1182</ele>
        <time>2019-01-03T09:59:42.000Z</time>
      </trkpt>
      <trkpt lat="48.00646" lon="6.97011">
        <ele>1186</ele>
        <time>2019-01-03T09:59:50.000Z</time>
      </trkpt>
      <trkpt lat="48.00647" lon="6.97019">
        <ele>1188</ele>
        <time>2019-01-03T09:59:54.000Z</time>
      </trkpt>
      <trkpt lat="48.0065" lon="6.97028">
        <ele>1188</ele>
        <time>2019-01-03T10:00:02.000Z</time>
      </trkpt>
      <trkpt lat="48.00655" lon="6.97035">
        <ele>1188</ele>
        <time>2019-01-03T10:00:09.000Z</time>
      </trkpt>
      <trkpt lat="48.00658" lon="6.9704">
        <ele>1195</ele>
        <time>2019-01-03T10:01:24.000Z</time>
      </trkpt>
      <trkpt lat="48.00663" lon="6.97047">
        <ele>1194</ele>
        <time>2019-01-03T10:01:36.000Z</time>
      </trkpt>
      <trkpt lat="48.00666" lon="6.97055">
        <ele>1195</ele>
        <time>2019-01-03T10:01:42.000Z</time>
      </trkpt>
      <trkpt lat="48.00669" lon="6.97061">
        <ele>1195</ele>
        <time>2019-01-03T10:01:46.000Z</time>
      </trkpt>
      <trkpt lat="48.00675" lon="6.97071">
        <ele>1197</ele>
        <time>2019-01-03T10:01:53.000Z</time>
      </trkpt>
      <trkpt lat="48.00679" lon="6.97077">
        <ele>1197</ele>
        <time>2019-01-03T10:01:57.000Z</time>
      </trkpt>
      <trkpt lat="48.00683" lon="6.97084">
        <ele>1197</ele>
        <time>2019-01-03T10:02:01.000Z</time>
      </trkpt>
      <trkpt lat="48.00687" lon="6.97096">
        <ele>1198</ele>
        <time>2019-01-03T10:02:09.000Z</time>
      </trkpt>
      <trkpt lat="48.00691" lon="6.97102">
        <ele>1198</ele>
        <time>2019-01-03T10:02:13.000Z</time>
      </trkpt>
      <trkpt lat="48.00698" lon="6.97114">
        <ele>1197</ele>
        <time>2019-01-03T10:02:20.000Z</time>
      </trkpt>
      <trkpt lat="48.00703" lon="6.97123">
        <ele>1200</ele>
        <time>2019-01-03T10:02:28.000Z</time>
      </trkpt>
      <trkpt lat="48.00708" lon="6.97132">
        <ele>1200</ele>
        <time>2019-01-03T10:02:34.000Z</time>
      </trkpt>
      <trkpt lat="48.00712" lon="6.97139">
        <ele>1200</ele>
        <time>2019-01-03T10:02:38.000Z</time>
      </trkpt>
      <trkpt lat="48.00716" lon="6.97144">
        <ele>1200</ele>
        <time>2019-01-03T10:02:42.000Z</time>
      </trkpt>
      <trkpt lat="48.00719" lon="6.9715">
        <ele>1200</ele>
        <time>2019-01-03T10:02:46.000Z</time>
      </trkpt>
      <trkpt lat="48.00723" lon="6.97156">
        <ele>1201</ele>
        <time>2019-01-03T10:02:52.000Z</time>
      </trkpt>
      <trkpt lat="48.00727" lon="6.97161">
        <ele>1205</ele>
        <time>2019-01-03T10:02:59.000Z</time>
      </trkpt>
      <trkpt lat="48.00732" lon="6.97168">
        <ele>1207</ele>
        <time>2019-01-03T10:03:07.000Z</time>
      </trkpt>
      <trkpt lat="48.00736" lon="6.97175">
        <ele>1208</ele>
        <time>2019-01-03T10:03:13.000Z</time>
      </trkpt>
      <trkpt lat="48.00742" lon="6.97178">
        <ele>1209</ele>
        <time>2019-01-03T10:04:45.000Z</time>
      </trkpt>
      <trkpt lat="48.00744" lon="6.97184">
        <ele>1210</ele>
        <time>2019-01-03T10:04:51.000Z</time>
      </trkpt>
      <trkpt lat="48.00745" lon="6.97191">
        <ele>1210</ele>
        <time>2019-01-03T10:06:09.000Z</time>
      </trkpt>
      <trkpt lat="48.00742" lon="6.97199">
        <ele>1211</ele>
        <time>2019-01-03T10:06:20.000Z</time>
      </trkpt>
      <trkpt lat="48.00744" lon="6.9721">
        <ele>1212</ele>
        <time>2019-01-03T10:06:28.000Z</time>
      </trkpt>
      <trkpt lat="48.00747" lon="6.97219">
        <ele>1212</ele>
        <time>2019-01-03T10:06:34.000Z</time>
      </trkpt>
      <trkpt lat="48.00749" lon="6.97224">
        <ele>1212</ele>
        <time>2019-01-03T10:06:37.000Z</time>
      </trkpt>
      <trkpt lat="48.00751" lon="6.97231">
        <ele>1213</ele>
        <time>2019-01-03T10:06:41.000Z</time>
      </trkpt>
      <trkpt lat="48.00754" lon="6.97237">
        <ele>1214</ele>
        <time>2019-01-03T10:06:45.000Z</time>
      </trkpt>
      <trkpt lat="48.00758" lon="6.97245">
        <ele>1215</ele>
        <time>2019-01-03T10:06:52.000Z</time>
      </trkpt>
      <trkpt lat="48.00763" lon="6.97253">
        <ele>1215</ele>
        <time>2019-01-03T10:06:59.000Z</time>
      </trkpt>
      <trkpt lat="48.00766" lon="6.97261">
        <ele>1216</ele>
        <time>2019-01-03T10:07:05.000Z</time>
      </trkpt>
      <trkpt lat="48.0077" lon="6.97269">
        <ele>1216</ele>
        <time>2019-01-03T10:07:12.000Z</time>
      </trkpt>
      <trkpt lat="48.00773" lon="6.97277">
        <ele>1219</ele>
        <time>2019-01-03T10:07:18.000Z</time>
      </trkpt>
      <trkpt lat="48.00776" lon="6.97283">
        <ele>1219</ele>
        <time>2019-01-03T10:07:22.000Z</time>
      </trkpt>
      <trkpt lat="48.00779" lon="6.9729">
        <ele>1222</ele>
        <time>2019-01-03T10:07:29.000Z</time>
      </trkpt>
      <trkpt lat="48.0078" lon="6.973">
        <ele>1224</ele>
        <time>2019-01-03T10:07:36.000Z</time>
      </trkpt>
      <trkpt lat="48.00782" lon="6.97307">
        <ele>1226</ele>
        <time>2019-01-03T10:07:42.000Z</time>
      </trkpt>
      <trkpt lat="48.00789" lon="6.97314">
        <ele>1229</ele>
        <time>2019-01-03T10:07:49.000Z</time>
      </trkpt>
      <trkpt lat="48.00793" lon="6.97319">
        <ele>1230</ele>
        <time>2019-01-03T10:07:56.000Z</time>
      </trkpt>
      <trkpt lat="48.00799" lon="6.97314">
        <ele>1230</ele>
        <time>2019-01-03T10:08:04.000Z</time>
      </trkpt>
      <trkpt lat="48.00806" lon="6.9732">
        <ele>1232</ele>
        <time>2019-01-03T10:08:28.000Z</time>
      </trkpt>
      <trkpt lat="48.0081" lon="6.97326">
        <ele>1233</ele>
        <time>2019-01-03T10:08:35.000Z</time>
      </trkpt>
      <trkpt lat="48.00817" lon="6.97331">
        <ele>1234</ele>
        <time>2019-01-03T10:08:43.000Z</time>
      </trkpt>
      <trkpt lat="48.00821" lon="6.97338">
        <ele>1236</ele>
        <time>2019-01-03T10:08:51.000Z</time>
      </trkpt>
      <trkpt lat="48.00823" lon="6.97346">
        <ele>1237</ele>
        <time>2019-01-03T10:08:57.000Z</time>
      </trkpt>
      <trkpt lat="48.00826" lon="6.97355">
        <ele>1238</ele>
        <time>2019-01-03T10:09:04.000Z</time>
      </trkpt>
      <trkpt lat="48.00831" lon="6.97361">
        <ele>1241</ele>
        <time>2019-01-03T10:09:12.000Z</time>
      </trkpt>
      <trkpt lat="48.00834" lon="6.9737">
        <ele>1242</ele>
        <time>2019-01-03T10:09:19.000Z</time>
      </trkpt>
      <trkpt lat="48.00837" lon="6.97378">
        <ele>1243</ele>
        <time>2019-01-03T10:09:26.000Z</time>
      </trkpt>
      <trkpt lat="48.0084" lon="6.97388">
        <ele>1244</ele>
        <time>2019-01-03T10:09:35.000Z</time>
      </trkpt>
      <trkpt lat="48.00842" lon="6.97394">
        <ele>1245</ele>
        <time>2019-01-03T10:09:39.000Z</time>
      </trkpt>
      <trkpt lat="48.00845" lon="6.97402">
        <ele>1248</ele>
        <time>2019-01-03T10:09:46.000Z</time>
      </trkpt>
      <trkpt lat="48.0085" lon="6.97408">
        <ele>1249</ele>
        <time>2019-01-03T10:09:52.000Z</time>
      </trkpt>
      <trkpt lat="48.00853" lon="6.97414">
        <ele>1250</ele>
        <time>2019-01-03T10:09:58.000Z</time>
      </trkpt>
      <trkpt lat="48.00853" lon="6.97423">
        <ele>1253</ele>
        <time>2019-01-03T10:10:32.000Z</time>
      </trkpt>
      <trkpt lat="48.00857" lon="6.97423">
        <ele>1251</ele>
        <time>2019-01-03T10:11:07.000Z</time>
      </trkpt>
      <trkpt lat="48.00865" lon="6.97422">
        <ele>1252</ele>
        <time>2019-01-03T10:11:13.000Z</time>
      </trkpt>
      <trkpt lat="48.0087" lon="6.97424">
        <ele>1254</ele>
        <time>2019-01-03T10:12:40.000Z</time>
      </trkpt>
      <trkpt lat="48.00865" lon="6.97427">
        <ele>1256</ele>
        <time>2019-01-03T10:12:57.000Z</time>
      </trkpt>
      <trkpt lat="48.00867" lon="6.97435">
        <ele>1258</ele>
        <time>2019-01-03T10:13:50.000Z</time>
      </trkpt>
      <trkpt lat="48.0087" lon="6.97441">
        <ele>1258</ele>
        <time>2019-01-03T10:13:54.000Z</time>
      </trkpt>
      <trkpt lat="48.00875" lon="6.97446">
        <ele>1259</ele>
        <time>2019-01-03T10:14:01.000Z</time>
      </trkpt>
      <trkpt lat="48.0088" lon="6.97452">
        <ele>1260</ele>
        <time>2019-01-03T10:14:09.000Z</time>
      </trkpt>
      <trkpt lat="48.00884" lon="6.97456">
        <ele>1262</ele>
        <time>2019-01-03T10:14:15.000Z</time>
      </trkpt>
      <trkpt lat="48.00884" lon="6.97463">
        <ele>1263</ele>
        <time>2019-01-03T10:14:33.000Z</time>
      </trkpt>
      <trkpt lat="48.00888" lon="6.97467">
        <ele>1267</ele>
        <time>2019-01-03T10:16:07.000Z</time>
      </trkpt>
      <trkpt lat="48.00892" lon="6.9747">
        <ele>1267</ele>
        <time>2019-01-03T10:16:13.000Z</time>
      </trkpt>
      <trkpt lat="48.00898" lon="6.97478">
        <ele>1269</ele>
        <time>2019-01-03T10:16:21.000Z</time>
      </trkpt>
      <trkpt lat="48.00901" lon="6.97485">
        <ele>1271</ele>
        <time>2019-01-03T10:16:29.000Z</time>
      </trkpt>
      <trkpt lat="48.00905" lon="6.97491">
        <ele>1271</ele>
        <time>2019-01-03T10:16:36.000Z</time>
      </trkpt>
      <trkpt lat="48.00908" lon="6.97496">
        <ele>1271</ele>
        <time>2019-01-03T10:16:40.000Z</time>
      </trkpt>
      <trkpt lat="48.00913" lon="6.97501">
        <ele>1273</ele>
        <time>2019-01-03T10:16:46.000Z</time>
      </trkpt>
      <trkpt lat="48.00914" lon="6.97509">
        <ele>1277</ele>
        <time>2019-01-03T10:18:38.000Z</time>
      </trkpt>
      <trkpt lat="48.0092" lon="6.97515">
        <ele>1277</ele>
        <time>2019-01-03T10:18:45.000Z</time>
      </trkpt>
      <trkpt lat="48.00926" lon="6.97523">
        <ele>1278</ele>
        <time>2019-01-03T10:18:52.000Z</time>
      </trkpt>
      <trkpt lat="48.00931" lon="6.97532">
        <ele>1278</ele>
        <time>2019-01-03T10:18:59.000Z</time>
      </trkpt>
      <trkpt lat="48.00933" lon="6.97545">
        <ele>1279</ele>
        <time>2019-01-03T10:19:07.000Z</time>
      </trkpt>
      <trkpt lat="48.00933" lon="6.97552">
        <ele>1279</ele>
        <time>2019-01-03T10:19:11.000Z</time>
      </trkpt>
      <trkpt lat="48.00933" lon="6.97559">
        <ele>1279</ele>
        <time>2019-01-03T10:19:15.000Z</time>
      </trkpt>
      <trkpt lat="48.00934" lon="6.9757">
        <ele>1281</ele>
        <time>2019-01-03T10:19:22.000Z</time>
      </trkpt>
      <trkpt lat="48.00934" lon="6.97578">
        <ele>1281</ele>
        <time>2019-01-03T10:19:26.000Z</time>
      </trkpt>
      <trkpt lat="48.00934" lon="6.97589">
        <ele>1282</ele>
        <time>2019-01-03T10:19:33.000Z</time>
      </trkpt>
      <trkpt lat="48.00933" lon="6.976">
        <ele>1283</ele>
        <time>2019-01-03T10:19:41.000Z</time>
      </trkpt>
      <trkpt lat="48.00933" lon="6.9761">
        <ele>1285</ele>
        <time>2019-01-03T10:20:28.000Z</time>
      </trkpt>
      <trkpt lat="48.00931" lon="6.97617">
        <ele>1287</ele>
        <time>2019-01-03T10:20:39.000Z</time>
      </trkpt>
      <trkpt lat="48.00936" lon="6.97627">
        <ele>1287</ele>
        <time>2019-01-03T10:20:46.000Z</time>
      </trkpt>
      <trkpt lat="48.00941" lon="6.97632">
        <ele>1287</ele>
        <time>2019-01-03T10:20:54.000Z</time>
      </trkpt>
      <trkpt lat="48.00947" lon="6.9764">
        <ele>1287</ele>
        <time>2019-01-03T10:21:01.000Z</time>
      </trkpt>
      <trkpt lat="48.0095" lon="6.97645">
        <ele>1286</ele>
        <time>2019-01-03T10:21:05.000Z</time>
      </trkpt>
      <trkpt lat="48.00954" lon="6.97657">
        <ele>1286</ele>
        <time>2019-01-03T10:21:12.000Z</time>
      </trkpt>
      <trkpt lat="48.00949" lon="6.97647">
        <ele>1285</ele>
        <time>2019-01-03T10:22:09.000Z</time>
      </trkpt>
      <trkpt lat="48.00944" lon="6.9764">
        <ele>1286</ele>
        <time>2019-01-03T10:22:13.000Z</time>
      </trkpt>
      <trkpt lat="48.00939" lon="6.97634">
        <ele>1286</ele>
        <time>2019-01-03T10:22:17.000Z</time>
      </trkpt>
      <trkpt lat="48.00936" lon="6.97629">
        <ele>1285</ele>
        <time>2019-01-03T10:22:20.000Z</time>
      </trkpt>
      <trkpt lat="48.00934" lon="6.97638">
        <ele>1287</ele>
        <time>2019-01-03T10:22:30.000Z</time>
      </trkpt>
      <trkpt lat="48.00933" lon="6.97647">
        <ele>1289</ele>
        <time>2019-01-03T10:22:37.000Z</time>
      </trkpt>
      <trkpt lat="48.00929" lon="6.97655">
        <ele>1291</ele>
        <time>2019-01-03T10:22:44.000Z</time>
      </trkpt>
      <trkpt lat="48.00931" lon="6.97668">
        <ele>1292</ele>
        <time>2019-01-03T10:22:52.000Z</time>
      </trkpt>
      <trkpt lat="48.00931" lon="6.97679">
        <ele>1293</ele>
        <time>2019-01-03T10:22:58.000Z</time>
      </trkpt>
      <trkpt lat="48.0093" lon="6.97692">
        <ele>1297</ele>
        <time>2019-01-03T10:23:06.000Z</time>
      </trkpt>
      <trkpt lat="48.00931" lon="6.97699">
        <ele>1298</ele>
        <time>2019-01-03T10:23:10.000Z</time>
      </trkpt>
      <trkpt lat="48.00931" lon="6.97712">
        <ele>1300</ele>
        <time>2019-01-03T10:23:17.000Z</time>
      </trkpt>
      <trkpt lat="48.00931" lon="6.97719">
        <ele>1300</ele>
        <time>2019-01-03T10:23:21.000Z</time>
      </trkpt>
      <trkpt lat="48.0093" lon="6.97727">
        <ele>1302</ele>
        <time>2019-01-03T10:23:28.000Z</time>
      </trkpt>
      <trkpt lat="48.0093" lon="6.97738">
        <ele>1304</ele>
        <time>2019-01-03T10:23:35.000Z</time>
      </trkpt>
      <trkpt lat="48.0093" lon="6.97746">
        <ele>1304</ele>
        <time>2019-01-03T10:23:39.000Z</time>
      </trkpt>
      <trkpt lat="48.0093" lon="6.97759">
        <ele>1305</ele>
        <time>2019-01-03T10:23:47.000Z</time>
      </trkpt>
      <trkpt lat="48.00931" lon="6.97766">
        <ele>1307</ele>
        <time>2019-01-03T10:23:54.000Z</time>
      </trkpt>
      <trkpt lat="48.00931" lon="6.97774">
        <ele>1311</ele>
        <time>2019-01-03T10:24:02.000Z</time>
      </trkpt>
      <trkpt lat="48.00929" lon="6.97783">
        <ele>1313</ele>
        <time>2019-01-03T10:24:10.000Z</time>
      </trkpt>
      <trkpt lat="48.00925" lon="6.97788">
        <ele>1315</ele>
        <time>2019-01-03T10:25:28.000Z</time>
      </trkpt>
      <trkpt lat="48.00928" lon="6.97796">
        <ele>1318</ele>
        <time>2019-01-03T10:25:35.000Z</time>
      </trkpt>
      <trkpt lat="48.0093" lon="6.97805">
        <ele>1319</ele>
        <time>2019-01-03T10:25:41.000Z</time>
      </trkpt>
      <trkpt lat="48.00934" lon="6.97816">
        <ele>1318</ele>
        <time>2019-01-03T10:25:49.000Z</time>
      </trkpt>
      <trkpt lat="48.00934" lon="6.97825">
        <ele>1318</ele>
        <time>2019-01-03T10:25:56.000Z</time>
      </trkpt>
      <trkpt lat="48.00933" lon="6.97833">
        <ele>1318</ele>
        <time>2019-01-03T10:26:02.000Z</time>
      </trkpt>
      <trkpt lat="48.00933" lon="6.97846">
        <ele>1320</ele>
        <time>2019-01-03T10:26:09.000Z</time>
      </trkpt>
      <trkpt lat="48.00933" lon="6.97859">
        <ele>1322</ele>
        <time>2019-01-03T10:26:17.000Z</time>
      </trkpt>
      <trkpt lat="48.00932" lon="6.97871">
        <ele>1322</ele>
        <time>2019-01-03T10:26:24.000Z</time>
      </trkpt>
      <trkpt lat="48.00933" lon="6.97883">
        <ele>1323</ele>
        <time>2019-01-03T10:26:31.000Z</time>
      </trkpt>
      <trkpt lat="48.00934" lon="6.97895">
        <ele>1325</ele>
        <time>2019-01-03T10:26:39.000Z</time>
      </trkpt>
      <trkpt lat="48.00936" lon="6.97905">
        <ele>1325</ele>
        <time>2019-01-03T10:26:46.000Z</time>
      </trkpt>
      <trkpt lat="48.00936" lon="6.97914">
        <ele>1328</ele>
        <time>2019-01-03T10:26:52.000Z</time>
      </trkpt>
      <trkpt lat="48.00933" lon="6.97923">
        <ele>1330</ele>
        <time>2019-01-03T10:26:59.000Z</time>
      </trkpt>
      <trkpt lat="48.00935" lon="6.97933">
        <ele>1331</ele>
        <time>2019-01-03T10:27:39.000Z</time>
      </trkpt>
      <trkpt lat="48.00937" lon="6.97944">
        <ele>1331</ele>
        <time>2019-01-03T10:27:46.000Z</time>
      </trkpt>
      <trkpt lat="48.0094" lon="6.97958">
        <ele>1332</ele>
        <time>2019-01-03T10:27:53.000Z</time>
      </trkpt>
      <trkpt lat="48.00943" lon="6.97968">
        <ele>1333</ele>
        <time>2019-01-03T10:27:59.000Z</time>
      </trkpt>
      <trkpt lat="48.00945" lon="6.97978">
        <ele>1334</ele>
        <time>2019-01-03T10:28:06.000Z</time>
      </trkpt>
      <trkpt lat="48.00945" lon="6.97986">
        <ele>1336</ele>
        <time>2019-01-03T10:28:10.000Z</time>
      </trkpt>
      <trkpt lat="48.00946" lon="6.97994">
        <ele>1335</ele>
        <time>2019-01-03T10:28:14.000Z</time>
      </trkpt>
      <trkpt lat="48.00946" lon="6.98002">
        <ele>1336</ele>
        <time>2019-01-03T10:28:18.000Z</time>
      </trkpt>
      <trkpt lat="48.00946" lon="6.98009">
        <ele>1336</ele>
        <time>2019-01-03T10:28:21.000Z</time>
      </trkpt>
      <trkpt lat="48.00946" lon="6.98016">
        <ele>1337</ele>
        <time>2019-01-03T10:28:28.000Z</time>
      </trkpt>
      <trkpt lat="48.00944" lon="6.98024">
        <ele>1338</ele>
        <time>2019-01-03T10:29:10.000Z</time>
      </trkpt>
      <trkpt lat="48.00947" lon="6.98031">
        <ele>1337</ele>
        <time>2019-01-03T10:29:14.000Z</time>
      </trkpt>
      <trkpt lat="48.00949" lon="6.98042">
        <ele>1339</ele>
        <time>2019-01-03T10:29:21.000Z</time>
      </trkpt>
      <trkpt lat="48.00949" lon="6.9805">
        <ele>1339</ele>
        <time>2019-01-03T10:29:25.000Z</time>
      </trkpt>
      <trkpt lat="48.00949" lon="6.98061">
        <ele>1339</ele>
        <time>2019-01-03T10:29:31.000Z</time>
      </trkpt>
      <trkpt lat="48.00951" lon="6.98075">
        <ele>1340</ele>
        <time>2019-01-03T10:29:38.000Z</time>
      </trkpt>
      <trkpt lat="48.00952" lon="6.98087">
        <ele>1341</ele>
        <time>2019-01-03T10:29:44.000Z</time>
      </trkpt>
      <trkpt lat="48.00953" lon="6.98095">
        <ele>1341</ele>
        <time>2019-01-03T10:29:48.000Z</time>
      </trkpt>
      <trkpt lat="48.00952" lon="6.98102">
        <ele>1342</ele>
        <time>2019-01-03T10:29:52.000Z</time>
      </trkpt>
      <trkpt lat="48.00953" lon="6.98109">
        <ele>1342</ele>
        <time>2019-01-03T10:29:56.000Z</time>
      </trkpt>
      <trkpt lat="48.00954" lon="6.98117">
        <ele>1342</ele>
        <time>2019-01-03T10:30:00.000Z</time>
      </trkpt>
      <trkpt lat="48.00954" lon="6.98124">
        <ele>1343</ele>
        <time>2019-01-03T10:30:04.000Z</time>
      </trkpt>
      <trkpt lat="48.00955" lon="6.98132">
        <ele>1343</ele>
        <time>2019-01-03T10:30:08.000Z</time>
      </trkpt>
      <trkpt lat="48.00956" lon="6.9814">
        <ele>1343</ele>
        <time>2019-01-03T10:30:12.000Z</time>
      </trkpt>
      <trkpt lat="48.00957" lon="6.98151">
        <ele>1344</ele>
        <time>2019-01-03T10:30:18.000Z</time>
      </trkpt>
      <trkpt lat="48.00957" lon="6.98158">
        <ele>1346</ele>
        <time>2019-01-03T10:30:22.000Z</time>
      </trkpt>
      <trkpt lat="48.00955" lon="6.98166">
        <ele>1347</ele>
        <time>2019-01-03T10:30:36.000Z</time>
      </trkpt>
      <trkpt lat="48.00955" lon="6.98176">
        <ele>1348</ele>
        <time>2019-01-03T10:31:37.000Z</time>
      </trkpt>
      <trkpt lat="48.00959" lon="6.98189">
        <ele>1349</ele>
        <time>2019-01-03T10:31:44.000Z</time>
      </trkpt>
      <trkpt lat="48.00961" lon="6.98196">
        <ele>1349</ele>
        <time>2019-01-03T10:31:48.000Z</time>
      </trkpt>
      <trkpt lat="48.00962" lon="6.98203">
        <ele>1350</ele>
        <time>2019-01-03T10:31:52.000Z</time>
      </trkpt>
      <trkpt lat="48.00965" lon="6.98211">
        <ele>1349</ele>
        <time>2019-01-03T10:31:56.000Z</time>
      </trkpt>
      <trkpt lat="48.00968" lon="6.98222">
        <ele>1349</ele>
        <time>2019-01-03T10:32:02.000Z</time>
      </trkpt>
      <trkpt lat="48.0097" lon="6.98229">
        <ele>1350</ele>
        <time>2019-01-03T10:32:05.000Z</time>
      </trkpt>
      <trkpt lat="48.00972" lon="6.98237">
        <ele>1351</ele>
        <time>2019-01-03T10:32:09.000Z</time>
      </trkpt>
      <trkpt lat="48.00974" lon="6.98243">
        <ele>1351</ele>
        <time>2019-01-03T10:32:13.000Z</time>
      </trkpt>
      <trkpt lat="48.00976" lon="6.98252">
        <ele>1351</ele>
        <time>2019-01-03T10:32:23.000Z</time>
      </trkpt>
      <trkpt lat="48.00977" lon="6.98258">
        <ele>1352</ele>
        <time>2019-01-03T10:32:27.000Z</time>
      </trkpt>
      <trkpt lat="48.00977" lon="6.98269">
        <ele>1353</ele>
        <time>2019-01-03T10:32:34.000Z</time>
      </trkpt>
      <trkpt lat="48.00973" lon="6.98274">
        <ele>1354</ele>
        <time>2019-01-03T10:32:57.000Z</time>
      </trkpt>
      <trkpt lat="48.00979" lon="6.98277">
        <ele>1353</ele>
        <time>2019-01-03T10:36:11.000Z</time>
      </trkpt>
      <trkpt lat="48.00981" lon="6.98284">
        <ele>1352</ele>
        <time>2019-01-03T10:36:18.000Z</time>
      </trkpt>
      <trkpt lat="48.00984" lon="6.98295">
        <ele>1351</ele>
        <time>2019-01-03T10:36:25.000Z</time>
      </trkpt>
      <trkpt lat="48.00987" lon="6.98303">
        <ele>1352</ele>
        <time>2019-01-03T10:36:33.000Z</time>
      </trkpt>
      <trkpt lat="48.00996" lon="6.98298">
        <ele>1351</ele>
        <time>2019-01-03T10:36:48.000Z</time>
      </trkpt>
      <trkpt lat="48.01003" lon="6.98295">
        <ele>1351</ele>
        <time>2019-01-03T10:36:54.000Z</time>
      </trkpt>
      <trkpt lat="48.01007" lon="6.98294">
        <ele>1350</ele>
        <time>2019-01-03T10:36:57.000Z</time>
      </trkpt>
      <trkpt lat="48.01011" lon="6.9829">
        <ele>1349</ele>
        <time>2019-01-03T10:37:04.000Z</time>
      </trkpt>
      <trkpt lat="48.01018" lon="6.98284">
        <ele>1347</ele>
        <time>2019-01-03T10:37:12.000Z</time>
      </trkpt>
      <trkpt lat="48.01026" lon="6.98283">
        <ele>1346</ele>
        <time>2019-01-03T10:37:19.000Z</time>
      </trkpt>
      <trkpt lat="48.01033" lon="6.98285">
        <ele>1346</ele>
        <time>2019-01-03T10:37:27.000Z</time>
      </trkpt>
      <trkpt lat="48.01043" lon="6.98286">
        <ele>1344</ele>
        <time>2019-01-03T10:37:35.000Z</time>
      </trkpt>
      <trkpt lat="48.01049" lon="6.98287">
        <ele>1344</ele>
        <time>2019-01-03T10:37:41.000Z</time>
      </trkpt>
      <trkpt lat="48.01056" lon="6.98287">
        <ele>1343</ele>
        <time>2019-01-03T10:37:48.000Z</time>
      </trkpt>
      <trkpt lat="48.0106" lon="6.98287">
        <ele>1340</ele>
        <time>2019-01-03T10:37:52.000Z</time>
      </trkpt>
      <trkpt lat="48.01067" lon="6.98289">
        <ele>1339</ele>
        <time>2019-01-03T10:37:58.000Z</time>
      </trkpt>
      <trkpt lat="48.0106" lon="6.98289">
        <ele>1334</ele>
        <time>2019-01-03T10:39:13.000Z</time>
      </trkpt>
      <trkpt lat="48.01051" lon="6.98288">
        <ele>1335</ele>
        <time>2019-01-03T10:39:20.000Z</time>
      </trkpt>
      <trkpt lat="48.01044" lon="6.98289">
        <ele>1337</ele>
        <time>2019-01-03T10:39:27.000Z</time>
      </trkpt>
      <trkpt lat="48.01035" lon="6.98288">
        <ele>1338</ele>
        <time>2019-01-03T10:39:35.000Z</time>
      </trkpt>
      <trkpt lat="48.01027" lon="6.98289">
        <ele>1340</ele>
        <time>2019-01-03T10:39:43.000Z</time>
      </trkpt>
      <trkpt lat="48.0102" lon="6.9829">
        <ele>1342</ele>
        <time>2019-01-03T10:39:50.000Z</time>
      </trkpt>
      <trkpt lat="48.01013" lon="6.98291">
        <ele>1344</ele>
        <time>2019-01-03T10:39:56.000Z</time>
      </trkpt>
      <trkpt lat="48.01005" lon="6.98292">
        <ele>1347</ele>
        <time>2019-01-03T10:40:03.000Z</time>
      </trkpt>
      <trkpt lat="48.01" lon="6.98293">
        <ele>1348</ele>
        <time>2019-01-03T10:40:07.000Z</time>
      </trkpt>
      <trkpt lat="48.00993" lon="6.9829">
        <ele>1349</ele>
        <time>2019-01-03T10:40:14.000Z</time>
      </trkpt>
      <trkpt lat="48.00988" lon="6.98292">
        <ele>1350</ele>
        <time>2019-01-03T10:40:18.000Z</time>
      </trkpt>
      <trkpt lat="48.00982" lon="6.98289">
        <ele>1351</ele>
        <time>2019-01-03T10:40:25.000Z</time>
      </trkpt>
      <trkpt lat="48.00978" lon="6.98281">
        <ele>1351</ele>
        <time>2019-01-03T10:40:33.000Z</time>
      </trkpt>
      <trkpt lat="48.00976" lon="6.98273">
        <ele>1349</ele>
        <time>2019-01-03T10:40:41.000Z</time>
      </trkpt>
      <trkpt lat="48.00971" lon="6.98272">
        <ele>1354</ele>
        <time>2019-01-03T10:46:23.000Z</time>
      </trkpt>
      <trkpt lat="48.00966" lon="6.98273">
        <ele>1355</ele>
        <time>2019-01-03T10:46:27.000Z</time>
      </trkpt>
      <trkpt lat="48.0096" lon="6.98273">
        <ele>1354</ele>
        <time>2019-01-03T10:46:34.000Z</time>
      </trkpt>
      <trkpt lat="48.00967" lon="6.98275">
        <ele>1354</ele>
        <time>2019-01-03T10:51:02.000Z</time>
      </trkpt>
      <trkpt lat="48.00975" lon="6.98274">
        <ele>1353</ele>
        <time>2019-01-03T10:51:10.000Z</time>
      </trkpt>
      <trkpt lat="48.00967" lon="6.98274">
        <ele>1355</ele>
        <time>2019-01-03T10:54:07.000Z</time>
      </trkpt>
      <trkpt lat="48.00961" lon="6.98274">
        <ele>1355</ele>
        <time>2019-01-03T10:54:11.000Z</time>
      </trkpt>
      <trkpt lat="48.00957" lon="6.98272">
        <ele>1355</ele>
        <time>2019-01-03T10:54:14.000Z</time>
      </trkpt>
      <trkpt lat="48.00952" lon="6.9827">
        <ele>1354</ele>
        <time>2019-01-03T10:54:18.000Z</time>
      </trkpt>
      <trkpt lat="48.00947" lon="6.98269">
        <ele>1354</ele>
        <time>2019-01-03T10:54:22.000Z</time>
      </trkpt>
      <trkpt lat="48.00942" lon="6.98267">
        <ele>1353</ele>
        <time>2019-01-03T10:54:26.000Z</time>
      </trkpt>
      <trkpt lat="48.00937" lon="6.98265">
        <ele>1353</ele>
        <time>2019-01-03T10:54:29.000Z</time>
      </trkpt>
      <trkpt lat="48.00932" lon="6.98264">
        <ele>1352</ele>
        <time>2019-01-03T10:54:33.000Z</time>
      </trkpt>
      <trkpt lat="48.00924" lon="6.98262">
        <ele>1351</ele>
        <time>2019-01-03T10:54:39.000Z</time>
      </trkpt>
      <trkpt lat="48.00918" lon="6.9826">
        <ele>1349</ele>
        <time>2019-01-03T10:54:43.000Z</time>
      </trkpt>
      <trkpt lat="48.00911" lon="6.98259">
        <ele>1348</ele>
        <time>2019-01-03T10:54:49.000Z</time>
      </trkpt>
      <trkpt lat="48.00904" lon="6.98256">
        <ele>1346</ele>
        <time>2019-01-03T10:54:56.000Z</time>
      </trkpt>
      <trkpt lat="48.009" lon="6.98251">
        <ele>1344</ele>
        <time>2019-01-03T10:55:00.000Z</time>
      </trkpt>
      <trkpt lat="48.00894" lon="6.98242">
        <ele>1341</ele>
        <time>2019-01-03T10:55:07.000Z</time>
      </trkpt>
      <trkpt lat="48.00889" lon="6.98234">
        <ele>1340</ele>
        <time>2019-01-03T10:55:13.000Z</time>
      </trkpt>
      <trkpt lat="48.00885" lon="6.98231">
        <ele>1339</ele>
        <time>2019-01-03T10:55:17.000Z</time>
      </trkpt>
      <trkpt lat="48.0088" lon="6.98223">
        <ele>1338</ele>
        <time>2019-01-03T10:55:23.000Z</time>
      </trkpt>
      <trkpt lat="48.00875" lon="6.98218">
        <ele>1336</ele>
        <time>2019-01-03T10:55:27.000Z</time>
      </trkpt>
      <trkpt lat="48.00871" lon="6.98214">
        <ele>1336</ele>
        <time>2019-01-03T10:55:31.000Z</time>
      </trkpt>
      <trkpt lat="48.00864" lon="6.98208">
        <ele>1335</ele>
        <time>2019-01-03T10:55:37.000Z</time>
      </trkpt>
      <trkpt lat="48.00855" lon="6.98202">
        <ele>1332</ele>
        <time>2019-01-03T10:55:44.000Z</time>
      </trkpt>
      <trkpt lat="48.00851" lon="6.98199">
        <ele>1331</ele>
        <time>2019-01-03T10:55:47.000Z</time>
      </trkpt>
      <trkpt lat="48.00846" lon="6.98196">
        <ele>1330</ele>
        <time>2019-01-03T10:55:51.000Z</time>
      </trkpt>
      <trkpt lat="48.00841" lon="6.98194">
        <ele>1329</ele>
        <time>2019-01-03T10:55:55.000Z</time>
      </trkpt>
      <trkpt lat="48.00835" lon="6.98191">
        <ele>1327</ele>
        <time>2019-01-03T10:55:59.000Z</time>
      </trkpt>
      <trkpt lat="48.0083" lon="6.98188">
        <ele>1326</ele>
        <time>2019-01-03T10:56:02.000Z</time>
      </trkpt>
      <trkpt lat="48.00824" lon="6.98185">
        <ele>1324</ele>
        <time>2019-01-03T10:56:06.000Z</time>
      </trkpt>
      <trkpt lat="48.00815" lon="6.98182">
        <ele>1323</ele>
        <time>2019-01-03T10:56:12.000Z</time>
      </trkpt>
      <trkpt lat="48.00811" lon="6.9818">
        <ele>1323</ele>
        <time>2019-01-03T10:56:15.000Z</time>
      </trkpt>
      <trkpt lat="48.00805" lon="6.98177">
        <ele>1322</ele>
        <time>2019-01-03T10:56:19.000Z</time>
      </trkpt>
      <trkpt lat="48.008" lon="6.98175">
        <ele>1322</ele>
        <time>2019-01-03T10:56:23.000Z</time>
      </trkpt>
      <trkpt lat="48.00795" lon="6.98174">
        <ele>1321</ele>
        <time>2019-01-03T10:56:27.000Z</time>
      </trkpt>
      <trkpt lat="48.00787" lon="6.98169">
        <ele>1319</ele>
        <time>2019-01-03T10:56:35.000Z</time>
      </trkpt>
      <trkpt lat="48.00779" lon="6.98167">
        <ele>1314</ele>
        <time>2019-01-03T10:57:19.000Z</time>
      </trkpt>
      <trkpt lat="48.00775" lon="6.98165">
        <ele>1313</ele>
        <time>2019-01-03T10:57:22.000Z</time>
      </trkpt>
      <trkpt lat="48.0077" lon="6.98164">
        <ele>1312</ele>
        <time>2019-01-03T10:57:25.000Z</time>
      </trkpt>
      <trkpt lat="48.00764" lon="6.98164">
        <ele>1310</ele>
        <time>2019-01-03T10:57:29.000Z</time>
      </trkpt>
      <trkpt lat="48.0076" lon="6.98165">
        <ele>1309</ele>
        <time>2019-01-03T10:57:33.000Z</time>
      </trkpt>
      <trkpt lat="48.00753" lon="6.98164">
        <ele>1307</ele>
        <time>2019-01-03T10:57:40.000Z</time>
      </trkpt>
      <trkpt lat="48.00748" lon="6.98166">
        <ele>1304</ele>
        <time>2019-01-03T10:57:47.000Z</time>
      </trkpt>
      <trkpt lat="48.00742" lon="6.98165">
        <ele>1301</ele>
        <time>2019-01-03T10:57:55.000Z</time>
      </trkpt>
      <trkpt lat="48.00737" lon="6.98166">
        <ele>1297</ele>
        <time>2019-01-03T10:58:17.000Z</time>
      </trkpt>
      <trkpt lat="48.00732" lon="6.98165">
        <ele>1293</ele>
        <time>2019-01-03T10:59:03.000Z</time>
      </trkpt>
      <trkpt lat="48.00725" lon="6.98161">
        <ele>1292</ele>
        <time>2019-01-03T10:59:11.000Z</time>
      </trkpt>
      <trkpt lat="48.0072" lon="6.98159">
        <ele>1290</ele>
        <time>2019-01-03T10:59:17.000Z</time>
      </trkpt>
      <trkpt lat="48.00715" lon="6.98156">
        <ele>1289</ele>
        <time>2019-01-03T10:59:27.000Z</time>
      </trkpt>
      <trkpt lat="48.0071" lon="6.98154">
        <ele>1287</ele>
        <time>2019-01-03T10:59:33.000Z</time>
      </trkpt>
      <trkpt lat="48.00703" lon="6.98152">
        <ele>1284</ele>
        <time>2019-01-03T10:59:40.000Z</time>
      </trkpt>
      <trkpt lat="48.00699" lon="6.98149">
        <ele>1283</ele>
        <time>2019-01-03T10:59:44.000Z</time>
      </trkpt>
      <trkpt lat="48.00693" lon="6.98144">
        <ele>1282</ele>
        <time>2019-01-03T10:59:48.000Z</time>
      </trkpt>
      <trkpt lat="48.00687" lon="6.9814">
        <ele>1282</ele>
        <time>2019-01-03T10:59:52.000Z</time>
      </trkpt>
      <trkpt lat="48.00681" lon="6.98136">
        <ele>1280</ele>
        <time>2019-01-03T10:59:56.000Z</time>
      </trkpt>
      <trkpt lat="48.00676" lon="6.98132">
        <ele>1280</ele>
        <time>2019-01-03T11:00:00.000Z</time>
      </trkpt>
      <trkpt lat="48.00672" lon="6.9813">
        <ele>1279</ele>
        <time>2019-01-03T11:00:04.000Z</time>
      </trkpt>
      <trkpt lat="48.00667" lon="6.9813">
        <ele>1277</ele>
        <time>2019-01-03T11:00:10.000Z</time>
      </trkpt>
      <trkpt lat="48.00662" lon="6.98127">
        <ele>1276</ele>
        <time>2019-01-03T11:00:13.000Z</time>
      </trkpt>
      <trkpt lat="48.00656" lon="6.98122">
        <ele>1276</ele>
        <time>2019-01-03T11:00:17.000Z</time>
      </trkpt>
      <trkpt lat="48.00651" lon="6.98118">
        <ele>1274</ele>
        <time>2019-01-03T11:00:21.000Z</time>
      </trkpt>
      <trkpt lat="48.00646" lon="6.98115">
        <ele>1273</ele>
        <time>2019-01-03T11:00:25.000Z</time>
      </trkpt>
      <trkpt lat="48.00636" lon="6.9811">
        <ele>1269</ele>
        <time>2019-01-03T11:00:32.000Z</time>
      </trkpt>
      <trkpt lat="48.00632" lon="6.98107">
        <ele>1268</ele>
        <time>2019-01-03T11:00:35.000Z</time>
      </trkpt>
      <trkpt lat="48.00627" lon="6.98108">
        <ele>1268</ele>
        <time>2019-01-03T11:00:39.000Z</time>
      </trkpt>
      <trkpt lat="48.00619" lon="6.98107">
        <ele>1268</ele>
        <time>2019-01-03T11:00:45.000Z</time>
      </trkpt>
      <trkpt lat="48.00614" lon="6.98104">
        <ele>1267</ele>
        <time>2019-01-03T11:00:49.000Z</time>
      </trkpt>
      <trkpt lat="48.0061" lon="6.981">
        <ele>1266</ele>
        <time>2019-01-03T11:00:53.000Z</time>
      </trkpt>
      <trkpt lat="48.00604" lon="6.981">
        <ele>1265</ele>
        <time>2019-01-03T11:00:57.000Z</time>
      </trkpt>
      <trkpt lat="48.00595" lon="6.98098">
        <ele>1264</ele>
        <time>2019-01-03T11:01:03.000Z</time>
      </trkpt>
      <trkpt lat="48.00591" lon="6.98096">
        <ele>1264</ele>
        <time>2019-01-03T11:01:06.000Z</time>
      </trkpt>
      <trkpt lat="48.00586" lon="6.98093">
        <ele>1262</ele>
        <time>2019-01-03T11:01:10.000Z</time>
      </trkpt>
      <trkpt lat="48.00577" lon="6.98088">
        <ele>1261</ele>
        <time>2019-01-03T11:01:17.000Z</time>
      </trkpt>
      <trkpt lat="48.00572" lon="6.98088">
        <ele>1258</ele>
        <time>2019-01-03T11:01:23.000Z</time>
      </trkpt>
      <trkpt lat="48.00561" lon="6.9809">
        <ele>1256</ele>
        <time>2019-01-03T11:01:30.000Z</time>
      </trkpt>
      <trkpt lat="48.00555" lon="6.98092">
        <ele>1254</ele>
        <time>2019-01-03T11:01:34.000Z</time>
      </trkpt>
      <trkpt lat="48.00549" lon="6.98094">
        <ele>1254</ele>
        <time>2019-01-03T11:01:38.000Z</time>
      </trkpt>
      <trkpt lat="48.00544" lon="6.98094">
        <ele>1253</ele>
        <time>2019-01-03T11:01:41.000Z</time>
      </trkpt>
      <trkpt lat="48.0054" lon="6.98091">
        <ele>1253</ele>
        <time>2019-01-03T11:01:45.000Z</time>
      </trkpt>
      <trkpt lat="48.00534" lon="6.98087">
        <ele>1250</ele>
        <time>2019-01-03T11:02:12.000Z</time>
      </trkpt>
      <trkpt lat="48.00532" lon="6.98081">
        <ele>1251</ele>
        <time>2019-01-03T11:02:16.000Z</time>
      </trkpt>
      <trkpt lat="48.00531" lon="6.98074">
        <ele>1251</ele>
        <time>2019-01-03T11:02:20.000Z</time>
      </trkpt>
      <trkpt lat="48.00531" lon="6.98062">
        <ele>1250</ele>
        <time>2019-01-03T11:02:31.000Z</time>
      </trkpt>
      <trkpt lat="48.00531" lon="6.98054">
        <ele>1250</ele>
        <time>2019-01-03T11:02:34.000Z</time>
      </trkpt>
      <trkpt lat="48.00534" lon="6.98046">
        <ele>1251</ele>
        <time>2019-01-03T11:02:38.000Z</time>
      </trkpt>
      <trkpt lat="48.00535" lon="6.98039">
        <ele>1251</ele>
        <time>2019-01-03T11:02:41.000Z</time>
      </trkpt>
      <trkpt lat="48.00537" lon="6.98033">
        <ele>1251</ele>
        <time>2019-01-03T11:02:44.000Z</time>
      </trkpt>
      <trkpt lat="48.0054" lon="6.98024">
        <ele>1251</ele>
        <time>2019-01-03T11:02:48.000Z</time>
      </trkpt>
      <trkpt lat="48.00541" lon="6.98016">
        <ele>1251</ele>
        <time>2019-01-03T11:02:52.000Z</time>
      </trkpt>
      <trkpt lat="48.00543" lon="6.98005">
        <ele>1253</ele>
        <time>2019-01-03T11:02:58.000Z</time>
      </trkpt>
      <trkpt lat="48.00545" lon="6.97995">
        <ele>1254</ele>
        <time>2019-01-03T11:03:24.000Z</time>
      </trkpt>
      <trkpt lat="48.00552" lon="6.9799">
        <ele>1255</ele>
        <time>2019-01-03T11:03:31.000Z</time>
      </trkpt>
      <trkpt lat="48.00555" lon="6.97984">
        <ele>1256</ele>
        <time>2019-01-03T11:03:35.000Z</time>
      </trkpt>
      <trkpt lat="48.00557" lon="6.97977">
        <ele>1256</ele>
        <time>2019-01-03T11:03:38.000Z</time>
      </trkpt>
      <trkpt lat="48.00559" lon="6.97969">
        <ele>1255</ele>
        <time>2019-01-03T11:03:53.000Z</time>
      </trkpt>
      <trkpt lat="48.00564" lon="6.97958">
        <ele>1254</ele>
        <time>2019-01-03T11:03:59.000Z</time>
      </trkpt>
      <trkpt lat="48.00569" lon="6.97948">
        <ele>1254</ele>
        <time>2019-01-03T11:04:05.000Z</time>
      </trkpt>
      <trkpt lat="48.00572" lon="6.97942">
        <ele>1255</ele>
        <time>2019-01-03T11:04:09.000Z</time>
      </trkpt>
      <trkpt lat="48.00576" lon="6.97937">
        <ele>1253</ele>
        <time>2019-01-03T11:04:13.000Z</time>
      </trkpt>
      <trkpt lat="48.00584" lon="6.97926">
        <ele>1251</ele>
        <time>2019-01-03T11:04:20.000Z</time>
      </trkpt>
      <trkpt lat="48.00588" lon="6.9792">
        <ele>1250</ele>
        <time>2019-01-03T11:04:24.000Z</time>
      </trkpt>
      <trkpt lat="48.00593" lon="6.97914">
        <ele>1250</ele>
        <time>2019-01-03T11:04:28.000Z</time>
      </trkpt>
      <trkpt lat="48.00599" lon="6.97906">
        <ele>1250</ele>
        <time>2019-01-03T11:04:35.000Z</time>
      </trkpt>
      <trkpt lat="48.00604" lon="6.97898">
        <ele>1249</ele>
        <time>2019-01-03T11:04:41.000Z</time>
      </trkpt>
      <trkpt lat="48.00607" lon="6.97892">
        <ele>1250</ele>
        <time>2019-01-03T11:04:45.000Z</time>
      </trkpt>
      <trkpt lat="48.00614" lon="6.97884">
        <ele>1249</ele>
        <time>2019-01-03T11:04:51.000Z</time>
      </trkpt>
      <trkpt lat="48.00619" lon="6.97878">
        <ele>1250</ele>
        <time>2019-01-03T11:04:55.000Z</time>
      </trkpt>
      <trkpt lat="48.00622" lon="6.97871">
        <ele>1250</ele>
        <time>2019-01-03T11:04:59.000Z</time>
      </trkpt>
      <trkpt lat="48.00628" lon="6.97864">
        <ele>1249</ele>
        <time>2019-01-03T11:05:05.000Z</time>
      </trkpt>
      <trkpt lat="48.00634" lon="6.97855">
        <ele>1249</ele>
        <time>2019-01-03T11:05:11.000Z</time>
      </trkpt>
      <trkpt lat="48.00637" lon="6.97849">
        <ele>1249</ele>
        <time>2019-01-03T11:05:15.000Z</time>
      </trkpt>
      <trkpt lat="48.0064" lon="6.97844">
        <ele>1247</ele>
        <time>2019-01-03T11:05:18.000Z</time>
      </trkpt>
      <trkpt lat="48.00645" lon="6.97837">
        <ele>1247</ele>
        <time>2019-01-03T11:05:22.000Z</time>
      </trkpt>
      <trkpt lat="48.0065" lon="6.9783">
        <ele>1248</ele>
        <time>2019-01-03T11:05:28.000Z</time>
      </trkpt>
      <trkpt lat="48.00655" lon="6.97821">
        <ele>1248</ele>
        <time>2019-01-03T11:05:35.000Z</time>
      </trkpt>
      <trkpt lat="48.00661" lon="6.97814">
        <ele>1248</ele>
        <time>2019-01-03T11:05:42.000Z</time>
      </trkpt>
      <trkpt lat="48.00663" lon="6.97808">
        <ele>1248</ele>
        <time>2019-01-03T11:05:52.000Z</time>
      </trkpt>
      <trkpt lat="48.00665" lon="6.97798">
        <ele>1250</ele>
        <time>2019-01-03T11:05:59.000Z</time>
      </trkpt>
      <trkpt lat="48.00664" lon="6.97791">
        <ele>1251</ele>
        <time>2019-01-03T11:06:07.000Z</time>
      </trkpt>
      <trkpt lat="48.00668" lon="6.97783">
        <ele>1248</ele>
        <time>2019-01-03T11:06:18.000Z</time>
      </trkpt>
      <trkpt lat="48.00671" lon="6.97777">
        <ele>1247</ele>
        <time>2019-01-03T11:06:21.000Z</time>
      </trkpt>
      <trkpt lat="48.00674" lon="6.97771">
        <ele>1248</ele>
        <time>2019-01-03T11:06:24.000Z</time>
      </trkpt>
      <trkpt lat="48.00678" lon="6.9776">
        <ele>1248</ele>
        <time>2019-01-03T11:06:30.000Z</time>
      </trkpt>
      <trkpt lat="48.00682" lon="6.97755">
        <ele>1247</ele>
        <time>2019-01-03T11:06:37.000Z</time>
      </trkpt>
      <trkpt lat="48.00686" lon="6.97742">
        <ele>1246</ele>
        <time>2019-01-03T11:06:55.000Z</time>
      </trkpt>
      <trkpt lat="48.00689" lon="6.97733">
        <ele>1246</ele>
        <time>2019-01-03T11:06:59.000Z</time>
      </trkpt>
      <trkpt lat="48.00691" lon="6.97725">
        <ele>1245</ele>
        <time>2019-01-03T11:07:03.000Z</time>
      </trkpt>
      <trkpt lat="48.00693" lon="6.97719">
        <ele>1245</ele>
        <time>2019-01-03T11:07:06.000Z</time>
      </trkpt>
      <trkpt lat="48.00695" lon="6.9771">
        <ele>1244</ele>
        <time>2019-01-03T11:07:10.000Z</time>
      </trkpt>
      <trkpt lat="48.00698" lon="6.97701">
        <ele>1244</ele>
        <time>2019-01-03T11:07:14.000Z</time>
      </trkpt>
      <trkpt lat="48.00701" lon="6.97692">
        <ele>1243</ele>
        <time>2019-01-03T11:07:18.000Z</time>
      </trkpt>
      <trkpt lat="48.00703" lon="6.97686">
        <ele>1243</ele>
        <time>2019-01-03T11:07:21.000Z</time>
      </trkpt>
      <trkpt lat="48.00707" lon="6.97677">
        <ele>1244</ele>
        <time>2019-01-03T11:07:25.000Z</time>
      </trkpt>
      <trkpt lat="48.00709" lon="6.97671">
        <ele>1243</ele>
        <time>2019-01-03T11:07:28.000Z</time>
      </trkpt>
      <trkpt lat="48.00711" lon="6.97665">
        <ele>1243</ele>
        <time>2019-01-03T11:07:31.000Z</time>
      </trkpt>
      <trkpt lat="48.00715" lon="6.97657">
        <ele>1245</ele>
        <time>2019-01-03T11:07:35.000Z</time>
      </trkpt>
      <trkpt lat="48.00718" lon="6.97651">
        <ele>1245</ele>
        <time>2019-01-03T11:07:38.000Z</time>
      </trkpt>
      <trkpt lat="48.00721" lon="6.97643">
        <ele>1245</ele>
        <time>2019-01-03T11:07:42.000Z</time>
      </trkpt>
      <trkpt lat="48.00725" lon="6.97633">
        <ele>1244</ele>
        <time>2019-01-03T11:07:46.000Z</time>
      </trkpt>
      <trkpt lat="48.0073" lon="6.97626">
        <ele>1245</ele>
        <time>2019-01-03T11:07:50.000Z</time>
      </trkpt>
      <trkpt lat="48.00733" lon="6.97621">
        <ele>1246</ele>
        <time>2019-01-03T11:07:53.000Z</time>
      </trkpt>
      <trkpt lat="48.00737" lon="6.97614">
        <ele>1246</ele>
        <time>2019-01-03T11:07:57.000Z</time>
      </trkpt>
      <trkpt lat="48.00743" lon="6.97603">
        <ele>1246</ele>
        <time>2019-01-03T11:08:03.000Z</time>
      </trkpt>
      <trkpt lat="48.00748" lon="6.97592">
        <ele>1246</ele>
        <time>2019-01-03T11:08:10.000Z</time>
      </trkpt>
      <trkpt lat="48.00752" lon="6.97584">
        <ele>1247</ele>
        <time>2019-01-03T11:08:14.000Z</time>
      </trkpt>
      <trkpt lat="48.00755" lon="6.97577">
        <ele>1247</ele>
        <time>2019-01-03T11:08:18.000Z</time>
      </trkpt>
      <trkpt lat="48.0076" lon="6.97571">
        <ele>1246</ele>
        <time>2019-01-03T11:08:22.000Z</time>
      </trkpt>
      <trkpt lat="48.00764" lon="6.97564">
        <ele>1247</ele>
        <time>2019-01-03T11:08:26.000Z</time>
      </trkpt>
      <trkpt lat="48.00768" lon="6.97555">
        <ele>1247</ele>
        <time>2019-01-03T11:08:34.000Z</time>
      </trkpt>
      <trkpt lat="48.00772" lon="6.97549">
        <ele>1247</ele>
        <time>2019-01-03T11:08:38.000Z</time>
      </trkpt>
      <trkpt lat="48.00776" lon="6.97543">
        <ele>1247</ele>
        <time>2019-01-03T11:08:42.000Z</time>
      </trkpt>
      <trkpt lat="48.00782" lon="6.97536">
        <ele>1247</ele>
        <time>2019-01-03T11:08:46.000Z</time>
      </trkpt>
      <trkpt lat="48.00786" lon="6.97532">
        <ele>1246</ele>
        <time>2019-01-03T11:08:49.000Z</time>
      </trkpt>
      <trkpt lat="48.00791" lon="6.97528">
        <ele>1247</ele>
        <time>2019-01-03T11:08:52.000Z</time>
      </trkpt>
      <trkpt lat="48.00795" lon="6.97522">
        <ele>1248</ele>
        <time>2019-01-03T11:08:56.000Z</time>
      </trkpt>
      <trkpt lat="48.00801" lon="6.97513">
        <ele>1249</ele>
        <time>2019-01-03T11:09:02.000Z</time>
      </trkpt>
      <trkpt lat="48.00806" lon="6.97507">
        <ele>1249</ele>
        <time>2019-01-03T11:09:06.000Z</time>
      </trkpt>
      <trkpt lat="48.0081" lon="6.97499">
        <ele>1249</ele>
        <time>2019-01-03T11:09:10.000Z</time>
      </trkpt>
      <trkpt lat="48.00814" lon="6.97493">
        <ele>1249</ele>
        <time>2019-01-03T11:09:14.000Z</time>
      </trkpt>
      <trkpt lat="48.00819" lon="6.97486">
        <ele>1249</ele>
        <time>2019-01-03T11:09:18.000Z</time>
      </trkpt>
      <trkpt lat="48.00823" lon="6.97478">
        <ele>1249</ele>
        <time>2019-01-03T11:09:22.000Z</time>
      </trkpt>
      <trkpt lat="48.00827" lon="6.97471">
        <ele>1250</ele>
        <time>2019-01-03T11:09:26.000Z</time>
      </trkpt>
      <trkpt lat="48.00831" lon="6.97464">
        <ele>1249</ele>
        <time>2019-01-03T11:09:30.000Z</time>
      </trkpt>
      <trkpt lat="48.00835" lon="6.97457">
        <ele>1249</ele>
        <time>2019-01-03T11:09:34.000Z</time>
      </trkpt>
      <trkpt lat="48.00838" lon="6.9745">
        <ele>1248</ele>
        <time>2019-01-03T11:09:38.000Z</time>
      </trkpt>
      <trkpt lat="48.00843" lon="6.97444">
        <ele>1248</ele>
        <time>2019-01-03T11:09:42.000Z</time>
      </trkpt>
      <trkpt lat="48.00848" lon="6.9744">
        <ele>1247</ele>
        <time>2019-01-03T11:09:45.000Z</time>
      </trkpt>
      <trkpt lat="48.00852" lon="6.97436">
        <ele>1247</ele>
        <time>2019-01-03T11:09:48.000Z</time>
      </trkpt>
      <trkpt lat="48.00856" lon="6.97429">
        <ele>1247</ele>
        <time>2019-01-03T11:09:52.000Z</time>
      </trkpt>
      <trkpt lat="48.00854" lon="6.9742">
        <ele>1246</ele>
        <time>2019-01-03T11:10:00.000Z</time>
      </trkpt>
      <trkpt lat="48.00849" lon="6.9741">
        <ele>1243</ele>
        <time>2019-01-03T11:10:07.000Z</time>
      </trkpt>
      <trkpt lat="48.00843" lon="6.97401">
        <ele>1240</ele>
        <time>2019-01-03T11:10:15.000Z</time>
      </trkpt>
      <trkpt lat="48.00842" lon="6.97394">
        <ele>1240</ele>
        <time>2019-01-03T11:10:19.000Z</time>
      </trkpt>
      <trkpt lat="48.00842" lon="6.97384">
        <ele>1239</ele>
        <time>2019-01-03T11:10:25.000Z</time>
      </trkpt>
      <trkpt lat="48.0084" lon="6.97378">
        <ele>1238</ele>
        <time>2019-01-03T11:10:29.000Z</time>
      </trkpt>
      <trkpt lat="48.00837" lon="6.97371">
        <ele>1238</ele>
        <time>2019-01-03T11:10:33.000Z</time>
      </trkpt>
      <trkpt lat="48.00833" lon="6.97367">
        <ele>1238</ele>
        <time>2019-01-03T11:10:37.000Z</time>
      </trkpt>
      <trkpt lat="48.0083" lon="6.97362">
        <ele>1237</ele>
        <time>2019-01-03T11:10:40.000Z</time>
      </trkpt>
      <trkpt lat="48.00826" lon="6.97353">
        <ele>1235</ele>
        <time>2019-01-03T11:10:44.000Z</time>
      </trkpt>
      <trkpt lat="48.00824" lon="6.97345">
        <ele>1234</ele>
        <time>2019-01-03T11:10:51.000Z</time>
      </trkpt>
      <trkpt lat="48.00822" lon="6.97337">
        <ele>1232</ele>
        <time>2019-01-03T11:11:05.000Z</time>
      </trkpt>
      <trkpt lat="48.00819" lon="6.97331">
        <ele>1230</ele>
        <time>2019-01-03T11:11:09.000Z</time>
      </trkpt>
      <trkpt lat="48.00816" lon="6.97325">
        <ele>1230</ele>
        <time>2019-01-03T11:11:13.000Z</time>
      </trkpt>
      <trkpt lat="48.00812" lon="6.97318">
        <ele>1228</ele>
        <time>2019-01-03T11:11:17.000Z</time>
      </trkpt>
      <trkpt lat="48.00808" lon="6.9731">
        <ele>1228</ele>
        <time>2019-01-03T11:11:28.000Z</time>
      </trkpt>
      <trkpt lat="48.00801" lon="6.97313">
        <ele>1229</ele>
        <time>2019-01-03T11:11:35.000Z</time>
      </trkpt>
      <trkpt lat="48.00793" lon="6.97312">
        <ele>1226</ele>
        <time>2019-01-03T11:11:43.000Z</time>
      </trkpt>
      <trkpt lat="48.00788" lon="6.97308">
        <ele>1226</ele>
        <time>2019-01-03T11:11:47.000Z</time>
      </trkpt>
      <trkpt lat="48.00784" lon="6.97301">
        <ele>1226</ele>
        <time>2019-01-03T11:11:51.000Z</time>
      </trkpt>
      <trkpt lat="48.00782" lon="6.97294">
        <ele>1226</ele>
        <time>2019-01-03T11:11:55.000Z</time>
      </trkpt>
      <trkpt lat="48.00778" lon="6.97284">
        <ele>1225</ele>
        <time>2019-01-03T11:12:02.000Z</time>
      </trkpt>
      <trkpt lat="48.00772" lon="6.97273">
        <ele>1221</ele>
        <time>2019-01-03T11:12:09.000Z</time>
      </trkpt>
      <trkpt lat="48.00769" lon="6.97265">
        <ele>1220</ele>
        <time>2019-01-03T11:12:13.000Z</time>
      </trkpt>
      <trkpt lat="48.00766" lon="6.97256">
        <ele>1218</ele>
        <time>2019-01-03T11:12:17.000Z</time>
      </trkpt>
      <trkpt lat="48.00762" lon="6.97247">
        <ele>1218</ele>
        <time>2019-01-03T11:12:21.000Z</time>
      </trkpt>
      <trkpt lat="48.00757" lon="6.97243">
        <ele>1216</ele>
        <time>2019-01-03T11:12:24.000Z</time>
      </trkpt>
      <trkpt lat="48.0075" lon="6.97236">
        <ele>1216</ele>
        <time>2019-01-03T11:12:30.000Z</time>
      </trkpt>
      <trkpt lat="48.00748" lon="6.97229">
        <ele>1214</ele>
        <time>2019-01-03T11:12:34.000Z</time>
      </trkpt>
      <trkpt lat="48.00746" lon="6.97218">
        <ele>1213</ele>
        <time>2019-01-03T11:12:41.000Z</time>
      </trkpt>
      <trkpt lat="48.00744" lon="6.97203">
        <ele>1209</ele>
        <time>2019-01-03T11:12:48.000Z</time>
      </trkpt>
      <trkpt lat="48.00744" lon="6.97189">
        <ele>1206</ele>
        <time>2019-01-03T11:12:55.000Z</time>
      </trkpt>
      <trkpt lat="48.00742" lon="6.97182">
        <ele>1206</ele>
        <time>2019-01-03T11:12:59.000Z</time>
      </trkpt>
      <trkpt lat="48.0074" lon="6.9717">
        <ele>1203</ele>
        <time>2019-01-03T11:13:06.000Z</time>
      </trkpt>
      <trkpt lat="48.00735" lon="6.97163">
        <ele>1204</ele>
        <time>2019-01-03T11:13:13.000Z</time>
      </trkpt>
      <trkpt lat="48.00732" lon="6.97156">
        <ele>1203</ele>
        <time>2019-01-03T11:13:17.000Z</time>
      </trkpt>
      <trkpt lat="48.00724" lon="6.9715">
        <ele>1202</ele>
        <time>2019-01-03T11:13:25.000Z</time>
      </trkpt>
      <trkpt lat="48.00717" lon="6.97142">
        <ele>1200</ele>
        <time>2019-01-03T11:13:33.000Z</time>
      </trkpt>
      <trkpt lat="48.00713" lon="6.97138">
        <ele>1199</ele>
        <time>2019-01-03T11:13:37.000Z</time>
      </trkpt>
      <trkpt lat="48.00708" lon="6.97131">
        <ele>1198</ele>
        <time>2019-01-03T11:13:41.000Z</time>
      </trkpt>
      <trkpt lat="48.00704" lon="6.97126">
        <ele>1197</ele>
        <time>2019-01-03T11:13:44.000Z</time>
      </trkpt>
      <trkpt lat="48.007" lon="6.9712">
        <ele>1197</ele>
        <time>2019-01-03T11:13:48.000Z</time>
      </trkpt>
      <trkpt lat="48.00697" lon="6.97113">
        <ele>1197</ele>
        <time>2019-01-03T11:13:52.000Z</time>
      </trkpt>
      <trkpt lat="48.00695" lon="6.97107">
        <ele>1196</ele>
        <time>2019-01-03T11:13:55.000Z</time>
      </trkpt>
      <trkpt lat="48.00692" lon="6.971">
        <ele>1195</ele>
        <time>2019-01-03T11:13:59.000Z</time>
      </trkpt>
      <trkpt lat="48.00688" lon="6.97093">
        <ele>1194</ele>
        <time>2019-01-03T11:14:03.000Z</time>
      </trkpt>
      <trkpt lat="48.00682" lon="6.97078">
        <ele>1194</ele>
        <time>2019-01-03T11:14:10.000Z</time>
      </trkpt>
      <trkpt lat="48.00678" lon="6.97073">
        <ele>1193</ele>
        <time>2019-01-03T11:14:13.000Z</time>
      </trkpt>
      <trkpt lat="48.0067" lon="6.97061">
        <ele>1192</ele>
        <time>2019-01-03T11:14:20.000Z</time>
      </trkpt>
      <trkpt lat="48.00667" lon="6.97054">
        <ele>1192</ele>
        <time>2019-01-03T11:14:23.000Z</time>
      </trkpt>
      <trkpt lat="48.00662" lon="6.97046">
        <ele>1191</ele>
        <time>2019-01-03T11:14:27.000Z</time>
      </trkpt>
      <trkpt lat="48.00657" lon="6.97038">
        <ele>1190</ele>
        <time>2019-01-03T11:14:31.000Z</time>
      </trkpt>
      <trkpt lat="48.00654" lon="6.97031">
        <ele>1189</ele>
        <time>2019-01-03T11:14:35.000Z</time>
      </trkpt>
      <trkpt lat="48.00651" lon="6.97025">
        <ele>1188</ele>
        <time>2019-01-03T11:14:39.000Z</time>
      </trkpt>
      <trkpt lat="48.00649" lon="6.97019">
        <ele>1187</ele>
        <time>2019-01-03T11:14:43.000Z</time>
      </trkpt>
      <trkpt lat="48.00649" lon="6.97004">
        <ele>1185</ele>
        <time>2019-01-03T11:14:51.000Z</time>
      </trkpt>
      <trkpt lat="48.00649" lon="6.96993">
        <ele>1184</ele>
        <time>2019-01-03T11:14:55.000Z</time>
      </trkpt>
      <trkpt lat="48.00649" lon="6.96985">
        <ele>1182</ele>
        <time>2019-01-03T11:14:59.000Z</time>
      </trkpt>
      <trkpt lat="48.00647" lon="6.96974">
        <ele>1179</ele>
        <time>2019-01-03T11:15:06.000Z</time>
      </trkpt>
      <trkpt lat="48.00642" lon="6.96961">
        <ele>1176</ele>
        <time>2019-01-03T11:15:13.000Z</time>
      </trkpt>
      <trkpt lat="48.0064" lon="6.96955">
        <ele>1174</ele>
        <time>2019-01-03T11:15:16.000Z</time>
      </trkpt>
      <trkpt lat="48.00638" lon="6.96946">
        <ele>1172</ele>
        <time>2019-01-03T11:15:20.000Z</time>
      </trkpt>
      <trkpt lat="48.00636" lon="6.96933">
        <ele>1170</ele>
        <time>2019-01-03T11:15:27.000Z</time>
      </trkpt>
      <trkpt lat="48.00634" lon="6.96925">
        <ele>1168</ele>
        <time>2019-01-03T11:15:31.000Z</time>
      </trkpt>
      <trkpt lat="48.00632" lon="6.96915">
        <ele>1166</ele>
        <time>2019-01-03T11:15:35.000Z</time>
      </trkpt>
      <trkpt lat="48.00628" lon="6.96902">
        <ele>1166</ele>
        <time>2019-01-03T11:15:39.000Z</time>
      </trkpt>
      <trkpt lat="48.00625" lon="6.96895">
        <ele>1166</ele>
        <time>2019-01-03T11:15:43.000Z</time>
      </trkpt>
      <trkpt lat="48.00621" lon="6.9689">
        <ele>1166</ele>
        <time>2019-01-03T11:15:47.000Z</time>
      </trkpt>
      <trkpt lat="48.00617" lon="6.96882">
        <ele>1166</ele>
        <time>2019-01-03T11:15:54.000Z</time>
      </trkpt>
      <trkpt lat="48.0061" lon="6.96881">
        <ele>1165</ele>
        <time>2019-01-03T11:16:02.000Z</time>
      </trkpt>
      <trkpt lat="48.00605" lon="6.96889">
        <ele>1166</ele>
        <time>2019-01-03T11:16:10.000Z</time>
      </trkpt>
      <trkpt lat="48.00602" lon="6.96899">
        <ele>1165</ele>
        <time>2019-01-03T11:16:17.000Z</time>
      </trkpt>
      <trkpt lat="48.00598" lon="6.9691">
        <ele>1165</ele>
        <time>2019-01-03T11:16:25.000Z</time>
      </trkpt>
      <trkpt lat="48.00595" lon="6.96915">
        <ele>1164</ele>
        <time>2019-01-03T11:16:28.000Z</time>
      </trkpt>
      <trkpt lat="48.00591" lon="6.96923">
        <ele>1164</ele>
        <time>2019-01-03T11:16:32.000Z</time>
      </trkpt>
      <trkpt lat="48.00588" lon="6.9693">
        <ele>1163</ele>
        <time>2019-01-03T11:16:36.000Z</time>
      </trkpt>
      <trkpt lat="48.00583" lon="6.96925">
        <ele>1159</ele>
        <time>2019-01-03T11:16:47.000Z</time>
      </trkpt>
      <trkpt lat="48.00582" lon="6.96916">
        <ele>1156</ele>
        <time>2019-01-03T11:16:54.000Z</time>
      </trkpt>
      <trkpt lat="48.0058" lon="6.96909">
        <ele>1156</ele>
        <time>2019-01-03T11:16:57.000Z</time>
      </trkpt>
      <trkpt lat="48.00578" lon="6.96904">
        <ele>1155</ele>
        <time>2019-01-03T11:17:01.000Z</time>
      </trkpt>
      <trkpt lat="48.00572" lon="6.96911">
        <ele>1152</ele>
        <time>2019-01-03T11:17:09.000Z</time>
      </trkpt>
      <trkpt lat="48.00569" lon="6.96916">
        <ele>1151</ele>
        <time>2019-01-03T11:17:13.000Z</time>
      </trkpt>
      <trkpt lat="48.00566" lon="6.96924">
        <ele>1150</ele>
        <time>2019-01-03T11:17:17.000Z</time>
      </trkpt>
      <trkpt lat="48.00563" lon="6.9693">
        <ele>1149</ele>
        <time>2019-01-03T11:17:21.000Z</time>
      </trkpt>
      <trkpt lat="48.00559" lon="6.96923">
        <ele>1146</ele>
        <time>2019-01-03T11:17:29.000Z</time>
      </trkpt>
      <trkpt lat="48.00557" lon="6.96911">
        <ele>1143</ele>
        <time>2019-01-03T11:17:37.000Z</time>
      </trkpt>
      <trkpt lat="48.00553" lon="6.96914">
        <ele>1141</ele>
        <time>2019-01-03T11:17:44.000Z</time>
      </trkpt>
      <trkpt lat="48.00545" lon="6.96914">
        <ele>1140</ele>
        <time>2019-01-03T11:17:52.000Z</time>
      </trkpt>
      <trkpt lat="48.0054" lon="6.96911">
        <ele>1136</ele>
        <time>2019-01-03T11:18:00.000Z</time>
      </trkpt>
      <trkpt lat="48.00538" lon="6.96921">
        <ele>1135</ele>
        <time>2019-01-03T11:18:07.000Z</time>
      </trkpt>
      <trkpt lat="48.00534" lon="6.96927">
        <ele>1133</ele>
        <time>2019-01-03T11:18:13.000Z</time>
      </trkpt>
      <trkpt lat="48.00529" lon="6.96931">
        <ele>1131</ele>
        <time>2019-01-03T11:18:21.000Z</time>
      </trkpt>
      <trkpt lat="48.00526" lon="6.96922">
        <ele>1126</ele>
        <time>2019-01-03T11:18:29.000Z</time>
      </trkpt>
      <trkpt lat="48.00523" lon="6.96908">
        <ele>1124</ele>
        <time>2019-01-03T11:18:36.000Z</time>
      </trkpt>
      <trkpt lat="48.00522" lon="6.969">
        <ele>1123</ele>
        <time>2019-01-03T11:18:40.000Z</time>
      </trkpt>
      <trkpt lat="48.00519" lon="6.96894">
        <ele>1121</ele>
        <time>2019-01-03T11:18:44.000Z</time>
      </trkpt>
      <trkpt lat="48.00517" lon="6.96902">
        <ele>1119</ele>
        <time>2019-01-03T11:18:52.000Z</time>
      </trkpt>
      <trkpt lat="48.00515" lon="6.96912">
        <ele>1117</ele>
        <time>2019-01-03T11:18:59.000Z</time>
      </trkpt>
      <trkpt lat="48.00511" lon="6.96905">
        <ele>1113</ele>
        <time>2019-01-03T11:19:07.000Z</time>
      </trkpt>
      <trkpt lat="48.00507" lon="6.969">
        <ele>1113</ele>
        <time>2019-01-03T11:19:11.000Z</time>
      </trkpt>
      <trkpt lat="48.00503" lon="6.96892">
        <ele>1113</ele>
        <time>2019-01-03T11:19:18.000Z</time>
      </trkpt>
      <trkpt lat="48.00496" lon="6.9688">
        <ele>1109</ele>
        <time>2019-01-03T11:19:25.000Z</time>
      </trkpt>
      <trkpt lat="48.00494" lon="6.96874">
        <ele>1108</ele>
        <time>2019-01-03T11:19:29.000Z</time>
      </trkpt>
      <trkpt lat="48.0049" lon="6.96863">
        <ele>1106</ele>
        <time>2019-01-03T11:19:36.000Z</time>
      </trkpt>
      <trkpt lat="48.00489" lon="6.96855">
        <ele>1104</ele>
        <time>2019-01-03T11:19:40.000Z</time>
      </trkpt>
      <trkpt lat="48.00485" lon="6.96849">
        <ele>1102</ele>
        <time>2019-01-03T11:19:47.000Z</time>
      </trkpt>
      <trkpt lat="48.0048" lon="6.9685">
        <ele>1097</ele>
        <time>2019-01-03T11:19:53.000Z</time>
      </trkpt>
      <trkpt lat="48.00476" lon="6.96839">
        <ele>1094</ele>
        <time>2019-01-03T11:20:01.000Z</time>
      </trkpt>
      <trkpt lat="48.00475" lon="6.96829">
        <ele>1092</ele>
        <time>2019-01-03T11:20:08.000Z</time>
      </trkpt>
      <trkpt lat="48.0047" lon="6.96822">
        <ele>1091</ele>
        <time>2019-01-03T11:20:15.000Z</time>
      </trkpt>
      <trkpt lat="48.00462" lon="6.96823">
        <ele>1092</ele>
        <time>2019-01-03T11:20:23.000Z</time>
      </trkpt>
      <trkpt lat="48.00454" lon="6.96819">
        <ele>1090</ele>
        <time>2019-01-03T11:20:31.000Z</time>
      </trkpt>
      <trkpt lat="48.00445" lon="6.96814">
        <ele>1089</ele>
        <time>2019-01-03T11:20:38.000Z</time>
      </trkpt>
      <trkpt lat="48.00439" lon="6.96815">
        <ele>1086</ele>
        <time>2019-01-03T11:20:44.000Z</time>
      </trkpt>
      <trkpt lat="48.00431" lon="6.96815">
        <ele>1084</ele>
        <time>2019-01-03T11:20:51.000Z</time>
      </trkpt>
      <trkpt lat="48.00423" lon="6.96808">
        <ele>1081</ele>
        <time>2019-01-03T11:20:58.000Z</time>
      </trkpt>
      <trkpt lat="48.00416" lon="6.96804">
        <ele>1080</ele>
        <time>2019-01-03T11:21:05.000Z</time>
      </trkpt>
      <trkpt lat="48.00416" lon="6.96794">
        <ele>1078</ele>
        <time>2019-01-03T11:21:13.000Z</time>
      </trkpt>
      <trkpt lat="48.00417" lon="6.96786">
        <ele>1076</ele>
        <time>2019-01-03T11:21:17.000Z</time>
      </trkpt>
      <trkpt lat="48.00414" lon="6.96775">
        <ele>1075</ele>
        <time>2019-01-03T11:21:24.000Z</time>
      </trkpt>
      <trkpt lat="48.0041" lon="6.96769">
        <ele>1074</ele>
        <time>2019-01-03T11:21:28.000Z</time>
      </trkpt>
      <trkpt lat="48.00407" lon="6.96763">
        <ele>1072</ele>
        <time>2019-01-03T11:21:32.000Z</time>
      </trkpt>
      <trkpt lat="48.00403" lon="6.96759">
        <ele>1073</ele>
        <time>2019-01-03T11:21:35.000Z</time>
      </trkpt>
      <trkpt lat="48.00397" lon="6.96754">
        <ele>1072</ele>
        <time>2019-01-03T11:21:39.000Z</time>
      </trkpt>
      <trkpt lat="48.00393" lon="6.96748">
        <ele>1071</ele>
        <time>2019-01-03T11:21:43.000Z</time>
      </trkpt>
      <trkpt lat="48.00391" lon="6.96742">
        <ele>1071</ele>
        <time>2019-01-03T11:21:46.000Z</time>
      </trkpt>
      <trkpt lat="48.00388" lon="6.96736">
        <ele>1070</ele>
        <time>2019-01-03T11:21:50.000Z</time>
      </trkpt>
      <trkpt lat="48.00387" lon="6.96729">
        <ele>1069</ele>
        <time>2019-01-03T11:21:54.000Z</time>
      </trkpt>
      <trkpt lat="48.00386" lon="6.9672">
        <ele>1068</ele>
        <time>2019-01-03T11:21:58.000Z</time>
      </trkpt>
      <trkpt lat="48.00385" lon="6.96713">
        <ele>1068</ele>
        <time>2019-01-03T11:22:01.000Z</time>
      </trkpt>
      <trkpt lat="48.00381" lon="6.967">
        <ele>1068</ele>
        <time>2019-01-03T11:22:08.000Z</time>
      </trkpt>
      <trkpt lat="48.00379" lon="6.9669">
        <ele>1068</ele>
        <time>2019-01-03T11:22:12.000Z</time>
      </trkpt>
      <trkpt lat="48.00377" lon="6.9668">
        <ele>1067</ele>
        <time>2019-01-03T11:22:18.000Z</time>
      </trkpt>
      <trkpt lat="48.00373" lon="6.96674">
        <ele>1067</ele>
        <time>2019-01-03T11:22:25.000Z</time>
      </trkpt>
      <trkpt lat="48.00368" lon="6.96673">
        <ele>1069</ele>
        <time>2019-01-03T11:22:52.000Z</time>
      </trkpt>
      <trkpt lat="48.00367" lon="6.9666">
        <ele>1070</ele>
        <time>2019-01-03T11:23:02.000Z</time>
      </trkpt>
      <trkpt lat="48.00372" lon="6.96657">
        <ele>1066</ele>
        <time>2019-01-03T11:23:09.000Z</time>
      </trkpt>
      <trkpt lat="48.00377" lon="6.96658">
        <ele>1067</ele>
        <time>2019-01-03T11:23:12.000Z</time>
      </trkpt>
      <trkpt lat="48.00382" lon="6.96657">
        <ele>1066</ele>
        <time>2019-01-03T11:23:15.000Z</time>
      </trkpt>
      <trkpt lat="48.00383" lon="6.96647">
        <ele>1066</ele>
        <time>2019-01-03T11:23:19.000Z</time>
      </trkpt>
      <trkpt lat="48.00383" lon="6.96641">
        <ele>1066</ele>
        <time>2019-01-03T11:23:22.000Z</time>
      </trkpt>
      <trkpt lat="48.00383" lon="6.96634">
        <ele>1067</ele>
        <time>2019-01-03T11:23:25.000Z</time>
      </trkpt>
      <trkpt lat="48.00383" lon="6.96624">
        <ele>1066</ele>
        <time>2019-01-03T11:23:29.000Z</time>
      </trkpt>
      <trkpt lat="48.00382" lon="6.96614">
        <ele>1066</ele>
        <time>2019-01-03T11:23:33.000Z</time>
      </trkpt>
      <trkpt lat="48.00381" lon="6.96604">
        <ele>1066</ele>
        <time>2019-01-03T11:23:37.000Z</time>
      </trkpt>
      <trkpt lat="48.00381" lon="6.96595">
        <ele>1066</ele>
        <time>2019-01-03T11:23:40.000Z</time>
      </trkpt>
      <trkpt lat="48.0038" lon="6.96588">
        <ele>1066</ele>
        <time>2019-01-03T11:23:43.000Z</time>
      </trkpt>
      <trkpt lat="48.00379" lon="6.96576">
        <ele>1067</ele>
        <time>2019-01-03T11:23:47.000Z</time>
      </trkpt>
      <trkpt lat="48.00375" lon="6.9657">
        <ele>1066</ele>
        <time>2019-01-03T11:23:51.000Z</time>
      </trkpt>
      <trkpt lat="48.00367" lon="6.96559">
        <ele>1067</ele>
        <time>2019-01-03T11:23:58.000Z</time>
      </trkpt>
      <trkpt lat="48.00362" lon="6.96555">
        <ele>1067</ele>
        <time>2019-01-03T11:24:04.000Z</time>
      </trkpt>
      <trkpt lat="48.00357" lon="6.96549">
        <ele>1068</ele>
        <time>2019-01-03T11:24:12.000Z</time>
      </trkpt>
      <trkpt lat="48.00352" lon="6.9654">
        <ele>1067</ele>
        <time>2019-01-03T11:24:26.000Z</time>
      </trkpt>
      <trkpt lat="48.00345" lon="6.96534">
        <ele>1068</ele>
        <time>2019-01-03T11:24:33.000Z</time>
      </trkpt>
      <trkpt lat="48.00336" lon="6.96529">
        <ele>1070</ele>
        <time>2019-01-03T11:24:41.000Z</time>
      </trkpt>
      <trkpt lat="48.00328" lon="6.96521">
        <ele>1070</ele>
        <time>2019-01-03T11:24:48.000Z</time>
      </trkpt>
      <trkpt lat="48.00322" lon="6.96513">
        <ele>1071</ele>
        <time>2019-01-03T11:24:54.000Z</time>
      </trkpt>
      <trkpt lat="48.00317" lon="6.96509">
        <ele>1072</ele>
        <time>2019-01-03T11:24:58.000Z</time>
      </trkpt>
      <trkpt lat="48.00311" lon="6.96501">
        <ele>1074</ele>
        <time>2019-01-03T11:25:05.000Z</time>
      </trkpt>
      <trkpt lat="48.00309" lon="6.96489">
        <ele>1076</ele>
        <time>2019-01-03T11:25:12.000Z</time>
      </trkpt>
      <trkpt lat="48.00306" lon="6.96484">
        <ele>1076</ele>
        <time>2019-01-03T11:25:16.000Z</time>
      </trkpt>
      <trkpt lat="48.00302" lon="6.96478">
        <ele>1077</ele>
        <time>2019-01-03T11:25:20.000Z</time>
      </trkpt>
      <trkpt lat="48.00297" lon="6.96467">
        <ele>1079</ele>
        <time>2019-01-03T11:25:26.000Z</time>
      </trkpt>
      <trkpt lat="48.00293" lon="6.96459">
        <ele>1078</ele>
        <time>2019-01-03T11:25:33.000Z</time>
      </trkpt>
      <trkpt lat="48.0029" lon="6.96452">
        <ele>1080</ele>
        <time>2019-01-03T11:25:37.000Z</time>
      </trkpt>
      <trkpt lat="48.00286" lon="6.96446">
        <ele>1081</ele>
        <time>2019-01-03T11:25:41.000Z</time>
      </trkpt>
      <trkpt lat="48.0028" lon="6.96433">
        <ele>1082</ele>
        <time>2019-01-03T11:25:49.000Z</time>
      </trkpt>
      <trkpt lat="48.00278" lon="6.96426">
        <ele>1082</ele>
        <time>2019-01-03T11:25:53.000Z</time>
      </trkpt>
      <trkpt lat="48.00275" lon="6.96418">
        <ele>1082</ele>
        <time>2019-01-03T11:25:57.000Z</time>
      </trkpt>
      <trkpt lat="48.00272" lon="6.96407">
        <ele>1081</ele>
        <time>2019-01-03T11:26:04.000Z</time>
      </trkpt>
      <trkpt lat="48.0027" lon="6.96401">
        <ele>1081</ele>
        <time>2019-01-03T11:26:08.000Z</time>
      </trkpt>
      <trkpt lat="48.00269" lon="6.96394">
        <ele>1082</ele>
        <time>2019-01-03T11:26:12.000Z</time>
      </trkpt>
      <trkpt lat="48.00267" lon="6.96385">
        <ele>1083</ele>
        <time>2019-01-03T11:26:16.000Z</time>
      </trkpt>
      <trkpt lat="48.00265" lon="6.96379">
        <ele>1083</ele>
        <time>2019-01-03T11:26:19.000Z</time>
      </trkpt>
      <trkpt lat="48.00263" lon="6.96372">
        <ele>1084</ele>
        <time>2019-01-03T11:26:23.000Z</time>
      </trkpt>
      <trkpt lat="48.0026" lon="6.96362">
        <ele>1084</ele>
        <time>2019-01-03T11:26:29.000Z</time>
      </trkpt>
      <trkpt lat="48.00258" lon="6.96354">
        <ele>1086</ele>
        <time>2019-01-03T11:26:33.000Z</time>
      </trkpt>
      <trkpt lat="48.00256" lon="6.96346">
        <ele>1087</ele>
        <time>2019-01-03T11:26:37.000Z</time>
      </trkpt>
      <trkpt lat="48.00254" lon="6.96339">
        <ele>1087</ele>
        <time>2019-01-03T11:26:41.000Z</time>
      </trkpt>
      <trkpt lat="48.00252" lon="6.9633">
        <ele>1088</ele>
        <time>2019-01-03T11:26:45.000Z</time>
      </trkpt>
      <trkpt lat="48.00251" lon="6.96322">
        <ele>1088</ele>
        <time>2019-01-03T11:26:49.000Z</time>
      </trkpt>
      <trkpt lat="48.0025" lon="6.96314">
        <ele>1088</ele>
        <time>2019-01-03T11:26:53.000Z</time>
      </trkpt>
      <trkpt lat="48.00248" lon="6.96304">
        <ele>1089</ele>
        <time>2019-01-03T11:27:01.000Z</time>
      </trkpt>
      <trkpt lat="48.00246" lon="6.96291">
        <ele>1091</ele>
        <time>2019-01-03T11:27:09.000Z</time>
      </trkpt>
      <trkpt lat="48.00245" lon="6.96282">
        <ele>1091</ele>
        <time>2019-01-03T11:27:13.000Z</time>
      </trkpt>
      <trkpt lat="48.00245" lon="6.96274">
        <ele>1091</ele>
        <time>2019-01-03T11:27:17.000Z</time>
      </trkpt>
      <trkpt lat="48.00245" lon="6.96265">
        <ele>1092</ele>
        <time>2019-01-03T11:28:06.000Z</time>
      </trkpt>
      <trkpt lat="48.00245" lon="6.96251">
        <ele>1093</ele>
        <time>2019-01-03T11:28:13.000Z</time>
      </trkpt>
      <trkpt lat="48.00244" lon="6.96244">
        <ele>1093</ele>
        <time>2019-01-03T11:28:17.000Z</time>
      </trkpt>
      <trkpt lat="48.00244" lon="6.96237">
        <ele>1094</ele>
        <time>2019-01-03T11:28:21.000Z</time>
      </trkpt>
      <trkpt lat="48.00244" lon="6.96229">
        <ele>1095</ele>
        <time>2019-01-03T11:28:25.000Z</time>
      </trkpt>
      <trkpt lat="48.00245" lon="6.96221">
        <ele>1096</ele>
        <time>2019-01-03T11:28:29.000Z</time>
      </trkpt>
      <trkpt lat="48.00245" lon="6.96214">
        <ele>1097</ele>
        <time>2019-01-03T11:28:33.000Z</time>
      </trkpt>
      <trkpt lat="48.00247" lon="6.96207">
        <ele>1096</ele>
        <time>2019-01-03T11:28:36.000Z</time>
      </trkpt>
      <trkpt lat="48.00247" lon="6.96198">
        <ele>1097</ele>
        <time>2019-01-03T11:28:40.000Z</time>
      </trkpt>
      <trkpt lat="48.00247" lon="6.96189">
        <ele>1097</ele>
        <time>2019-01-03T11:28:44.000Z</time>
      </trkpt>
      <trkpt lat="48.00248" lon="6.9618">
        <ele>1098</ele>
        <time>2019-01-03T11:28:48.000Z</time>
      </trkpt>
      <trkpt lat="48.0025" lon="6.96165">
        <ele>1098</ele>
        <time>2019-01-03T11:28:55.000Z</time>
      </trkpt>
      <trkpt lat="48.00254" lon="6.96153">
        <ele>1099</ele>
        <time>2019-01-03T11:29:02.000Z</time>
      </trkpt>
      <trkpt lat="48.00256" lon="6.96146">
        <ele>1099</ele>
        <time>2019-01-03T11:29:05.000Z</time>
      </trkpt>
      <trkpt lat="48.00258" lon="6.96139">
        <ele>1100</ele>
        <time>2019-01-03T11:29:09.000Z</time>
      </trkpt>
      <trkpt lat="48.00262" lon="6.96131">
        <ele>1100</ele>
        <time>2019-01-03T11:29:13.000Z</time>
      </trkpt>
      <trkpt lat="48.00263" lon="6.96124">
        <ele>1102</ele>
        <time>2019-01-03T11:29:17.000Z</time>
      </trkpt>
      <trkpt lat="48.00263" lon="6.96117">
        <ele>1102</ele>
        <time>2019-01-03T11:29:21.000Z</time>
      </trkpt>
      <trkpt lat="48.00264" lon="6.96104">
        <ele>1104</ele>
        <time>2019-01-03T11:29:27.000Z</time>
      </trkpt>
      <trkpt lat="48.00265" lon="6.96096">
        <ele>1104</ele>
        <time>2019-01-03T11:29:31.000Z</time>
      </trkpt>
      <trkpt lat="48.00265" lon="6.96088">
        <ele>1105</ele>
        <time>2019-01-03T11:29:35.000Z</time>
      </trkpt>
      <trkpt lat="48.00265" lon="6.96079">
        <ele>1104</ele>
        <time>2019-01-03T11:29:39.000Z</time>
      </trkpt>
      <trkpt lat="48.00268" lon="6.96064">
        <ele>1104</ele>
        <time>2019-01-03T11:29:47.000Z</time>
      </trkpt>
      <trkpt lat="48.00269" lon="6.96057">
        <ele>1105</ele>
        <time>2019-01-03T11:29:51.000Z</time>
      </trkpt>
      <trkpt lat="48.0027" lon="6.9605">
        <ele>1106</ele>
        <time>2019-01-03T11:29:54.000Z</time>
      </trkpt>
      <trkpt lat="48.00272" lon="6.96044">
        <ele>1106</ele>
        <time>2019-01-03T11:29:57.000Z</time>
      </trkpt>
      <trkpt lat="48.00274" lon="6.96037">
        <ele>1107</ele>
        <time>2019-01-03T11:30:01.000Z</time>
      </trkpt>
      <trkpt lat="48.00277" lon="6.96026">
        <ele>1108</ele>
        <time>2019-01-03T11:30:07.000Z</time>
      </trkpt>
      <trkpt lat="48.0028" lon="6.96017">
        <ele>1109</ele>
        <time>2019-01-03T11:30:11.000Z</time>
      </trkpt>
      <trkpt lat="48.00281" lon="6.96009">
        <ele>1109</ele>
        <time>2019-01-03T11:30:15.000Z</time>
      </trkpt>
      <trkpt lat="48.00282" lon="6.96">
        <ele>1109</ele>
        <time>2019-01-03T11:30:19.000Z</time>
      </trkpt>
      <trkpt lat="48.00285" lon="6.95992">
        <ele>1110</ele>
        <time>2019-01-03T11:30:23.000Z</time>
      </trkpt>
      <trkpt lat="48.00287" lon="6.95983">
        <ele>1111</ele>
        <time>2019-01-03T11:30:27.000Z</time>
      </trkpt>
      <trkpt lat="48.0029" lon="6.95972">
        <ele>1114</ele>
        <time>2019-01-03T11:30:33.000Z</time>
      </trkpt>
      <trkpt lat="48.00293" lon="6.95965">
        <ele>1115</ele>
        <time>2019-01-03T11:30:37.000Z</time>
      </trkpt>
      <trkpt lat="48.00297" lon="6.95958">
        <ele>1116</ele>
        <time>2019-01-03T11:30:41.000Z</time>
      </trkpt>
      <trkpt lat="48.003" lon="6.95945">
        <ele>1118</ele>
        <time>2019-01-03T11:30:48.000Z</time>
      </trkpt>
      <trkpt lat="48.00302" lon="6.95937">
        <ele>1119</ele>
        <time>2019-01-03T11:30:52.000Z</time>
      </trkpt>
      <trkpt lat="48.00303" lon="6.95928">
        <ele>1121</ele>
        <time>2019-01-03T11:30:56.000Z</time>
      </trkpt>
      <trkpt lat="48.00305" lon="6.95922">
        <ele>1121</ele>
        <time>2019-01-03T11:30:59.000Z</time>
      </trkpt>
      <trkpt lat="48.00308" lon="6.95917">
        <ele>1122</ele>
        <time>2019-01-03T11:31:02.000Z</time>
      </trkpt>
      <trkpt lat="48.00311" lon="6.95909">
        <ele>1123</ele>
        <time>2019-01-03T11:31:06.000Z</time>
      </trkpt>
      <trkpt lat="48.00313" lon="6.95901">
        <ele>1123</ele>
        <time>2019-01-03T11:31:10.000Z</time>
      </trkpt>
      <trkpt lat="48.00316" lon="6.95894">
        <ele>1124</ele>
        <time>2019-01-03T11:31:14.000Z</time>
      </trkpt>
      <trkpt lat="48.00319" lon="6.95886">
        <ele>1124</ele>
        <time>2019-01-03T11:31:18.000Z</time>
      </trkpt>
      <trkpt lat="48.00324" lon="6.95873">
        <ele>1126</ele>
        <time>2019-01-03T11:31:25.000Z</time>
      </trkpt>
      <trkpt lat="48.00327" lon="6.95867">
        <ele>1126</ele>
        <time>2019-01-03T11:31:28.000Z</time>
      </trkpt>
      <trkpt lat="48.00332" lon="6.95854">
        <ele>1126</ele>
        <time>2019-01-03T11:31:35.000Z</time>
      </trkpt>
      <trkpt lat="48.00336" lon="6.95846">
        <ele>1125</ele>
        <time>2019-01-03T11:31:39.000Z</time>
      </trkpt>
      <trkpt lat="48.0034" lon="6.95838">
        <ele>1126</ele>
        <time>2019-01-03T11:31:43.000Z</time>
      </trkpt>
      <trkpt lat="48.00344" lon="6.95831">
        <ele>1126</ele>
        <time>2019-01-03T11:31:47.000Z</time>
      </trkpt>
      <trkpt lat="48.00347" lon="6.95823">
        <ele>1126</ele>
        <time>2019-01-03T11:31:51.000Z</time>
      </trkpt>
      <trkpt lat="48.00351" lon="6.95816">
        <ele>1126</ele>
        <time>2019-01-03T11:31:55.000Z</time>
      </trkpt>
      <trkpt lat="48.00355" lon="6.9581">
        <ele>1126</ele>
        <time>2019-01-03T11:31:59.000Z</time>
      </trkpt>
      <trkpt lat="48.00362" lon="6.95799">
        <ele>1127</ele>
        <time>2019-01-03T11:32:06.000Z</time>
      </trkpt>
      <trkpt lat="48.00367" lon="6.95794">
        <ele>1127</ele>
        <time>2019-01-03T11:32:10.000Z</time>
      </trkpt>
      <trkpt lat="48.00373" lon="6.95791">
        <ele>1127</ele>
        <time>2019-01-03T11:32:14.000Z</time>
      </trkpt>
      <trkpt lat="48.00379" lon="6.95787">
        <ele>1128</ele>
        <time>2019-01-03T11:32:18.000Z</time>
      </trkpt>
      <trkpt lat="48.00384" lon="6.95782">
        <ele>1127</ele>
        <time>2019-01-03T11:32:22.000Z</time>
      </trkpt>
      <trkpt lat="48.00391" lon="6.95779">
        <ele>1127</ele>
        <time>2019-01-03T11:32:28.000Z</time>
      </trkpt>
      <trkpt lat="48.00398" lon="6.95776">
        <ele>1128</ele>
        <time>2019-01-03T11:32:34.000Z</time>
      </trkpt>
      <trkpt lat="48.00403" lon="6.95773">
        <ele>1126</ele>
        <time>2019-01-03T11:32:38.000Z</time>
      </trkpt>
      <trkpt lat="48.00411" lon="6.95765">
        <ele>1126</ele>
        <time>2019-01-03T11:32:45.000Z</time>
      </trkpt>
      <trkpt lat="48.00415" lon="6.95761">
        <ele>1126</ele>
        <time>2019-01-03T11:32:49.000Z</time>
      </trkpt>
      <trkpt lat="48.0042" lon="6.95759">
        <ele>1125</ele>
        <time>2019-01-03T11:32:52.000Z</time>
      </trkpt>
      <trkpt lat="48.00425" lon="6.95756">
        <ele>1126</ele>
        <time>2019-01-03T11:32:56.000Z</time>
      </trkpt>
      <trkpt lat="48.00436" lon="6.95753">
        <ele>1126</ele>
        <time>2019-01-03T11:33:03.000Z</time>
      </trkpt>
      <trkpt lat="48.00442" lon="6.9575">
        <ele>1127</ele>
        <time>2019-01-03T11:33:07.000Z</time>
      </trkpt>
      <trkpt lat="48.00448" lon="6.95746">
        <ele>1126</ele>
        <time>2019-01-03T11:33:11.000Z</time>
      </trkpt>
      <trkpt lat="48.00451" lon="6.9574">
        <ele>1129</ele>
        <time>2019-01-03T11:33:19.000Z</time>
      </trkpt>
      <trkpt lat="48.00459" lon="6.95739">
        <ele>1130</ele>
        <time>2019-01-03T11:33:34.000Z</time>
      </trkpt>
      <trkpt lat="48.00463" lon="6.95735">
        <ele>1134</ele>
        <time>2019-01-03T11:33:44.000Z</time>
      </trkpt>
      <trkpt lat="48.00467" lon="6.95737">
        <ele>1132</ele>
        <time>2019-01-03T11:34:09.000Z</time>
      </trkpt>
      <trkpt lat="48.00474" lon="6.95735">
        <ele>1139</ele>
        <time>2019-01-03T11:35:53.000Z</time>
      </trkpt>
      <trkpt lat="48.00481" lon="6.95731">
        <ele>1140</ele>
        <time>2019-01-03T11:36:00.000Z</time>
      </trkpt>
      <trkpt lat="48.00486" lon="6.95729">
        <ele>1139</ele>
        <time>2019-01-03T11:36:04.000Z</time>
      </trkpt>
      <trkpt lat="48.00492" lon="6.95726">
        <ele>1139</ele>
        <time>2019-01-03T11:36:07.000Z</time>
      </trkpt>
      <trkpt lat="48.00497" lon="6.95723">
        <ele>1139</ele>
        <time>2019-01-03T11:36:11.000Z</time>
      </trkpt>
      <trkpt lat="48.00502" lon="6.9572">
        <ele>1138</ele>
        <time>2019-01-03T11:36:15.000Z</time>
      </trkpt>
      <trkpt lat="48.00511" lon="6.95716">
        <ele>1136</ele>
        <time>2019-01-03T11:36:23.000Z</time>
      </trkpt>
      <trkpt lat="48.00517" lon="6.95711">
        <ele>1136</ele>
        <time>2019-01-03T11:36:27.000Z</time>
      </trkpt>
      <trkpt lat="48.00522" lon="6.95706">
        <ele>1135</ele>
        <time>2019-01-03T11:36:31.000Z</time>
      </trkpt>
      <trkpt lat="48.00526" lon="6.95702">
        <ele>1135</ele>
        <time>2019-01-03T11:36:35.000Z</time>
      </trkpt>
      <trkpt lat="48.00531" lon="6.95698">
        <ele>1134</ele>
        <time>2019-01-03T11:36:39.000Z</time>
      </trkpt>
      <trkpt lat="48.00536" lon="6.95692">
        <ele>1133</ele>
        <time>2019-01-03T11:36:43.000Z</time>
      </trkpt>
      <trkpt lat="48.00539" lon="6.95686">
        <ele>1132</ele>
        <time>2019-01-03T11:36:47.000Z</time>
      </trkpt>
      <trkpt lat="48.00543" lon="6.95681">
        <ele>1132</ele>
        <time>2019-01-03T11:36:50.000Z</time>
      </trkpt>
      <trkpt lat="48.00548" lon="6.95674">
        <ele>1131</ele>
        <time>2019-01-03T11:36:54.000Z</time>
      </trkpt>
      <trkpt lat="48.00551" lon="6.95668">
        <ele>1131</ele>
        <time>2019-01-03T11:36:57.000Z</time>
      </trkpt>
      <trkpt lat="48.00554" lon="6.95662">
        <ele>1130</ele>
        <time>2019-01-03T11:37:00.000Z</time>
      </trkpt>
      <trkpt lat="48.00559" lon="6.95655">
        <ele>1130</ele>
        <time>2019-01-03T11:37:04.000Z</time>
      </trkpt>
      <trkpt lat="48.00563" lon="6.9565">
        <ele>1129</ele>
        <time>2019-01-03T11:37:07.000Z</time>
      </trkpt>
      <trkpt lat="48.00569" lon="6.95644">
        <ele>1127</ele>
        <time>2019-01-03T11:37:11.000Z</time>
      </trkpt>
      <trkpt lat="48.00573" lon="6.95638">
        <ele>1126</ele>
        <time>2019-01-03T11:37:15.000Z</time>
      </trkpt>
      <trkpt lat="48.0058" lon="6.95627">
        <ele>1123</ele>
        <time>2019-01-03T11:37:22.000Z</time>
      </trkpt>
      <trkpt lat="48.00584" lon="6.95622">
        <ele>1123</ele>
        <time>2019-01-03T11:37:25.000Z</time>
      </trkpt>
      <trkpt lat="48.00589" lon="6.95618">
        <ele>1122</ele>
        <time>2019-01-03T11:37:29.000Z</time>
      </trkpt>
      <trkpt lat="48.00596" lon="6.95613">
        <ele>1122</ele>
        <time>2019-01-03T11:37:33.000Z</time>
      </trkpt>
      <trkpt lat="48.006" lon="6.95607">
        <ele>1121</ele>
        <time>2019-01-03T11:37:37.000Z</time>
      </trkpt>
      <trkpt lat="48.00609" lon="6.95597">
        <ele>1121</ele>
        <time>2019-01-03T11:37:44.000Z</time>
      </trkpt>
      <trkpt lat="48.00613" lon="6.95592">
        <ele>1120</ele>
        <time>2019-01-03T11:37:48.000Z</time>
      </trkpt>
      <trkpt lat="48.00618" lon="6.95589">
        <ele>1119</ele>
        <time>2019-01-03T11:37:51.000Z</time>
      </trkpt>
      <trkpt lat="48.00622" lon="6.95585">
        <ele>1119</ele>
        <time>2019-01-03T11:37:54.000Z</time>
      </trkpt>
      <trkpt lat="48.00626" lon="6.95578">
        <ele>1119</ele>
        <time>2019-01-03T11:37:58.000Z</time>
      </trkpt>
      <trkpt lat="48.00629" lon="6.95572">
        <ele>1119</ele>
        <time>2019-01-03T11:38:02.000Z</time>
      </trkpt>
      <trkpt lat="48.00632" lon="6.95564">
        <ele>1117</ele>
        <time>2019-01-03T11:38:06.000Z</time>
      </trkpt>
      <trkpt lat="48.00634" lon="6.95559">
        <ele>1117</ele>
        <time>2019-01-03T11:38:09.000Z</time>
      </trkpt>
      <trkpt lat="48.00637" lon="6.95549">
        <ele>1115</ele>
        <time>2019-01-03T11:38:13.000Z</time>
      </trkpt>
      <trkpt lat="48.00641" lon="6.9554">
        <ele>1115</ele>
        <time>2019-01-03T11:38:17.000Z</time>
      </trkpt>
      <trkpt lat="48.00644" lon="6.95535">
        <ele>1115</ele>
        <time>2019-01-03T11:38:20.000Z</time>
      </trkpt>
      <trkpt lat="48.00646" lon="6.95529">
        <ele>1115</ele>
        <time>2019-01-03T11:38:23.000Z</time>
      </trkpt>
      <trkpt lat="48.0065" lon="6.9552">
        <ele>1115</ele>
        <time>2019-01-03T11:38:27.000Z</time>
      </trkpt>
      <trkpt lat="48.00654" lon="6.95514">
        <ele>1115</ele>
        <time>2019-01-03T11:38:31.000Z</time>
      </trkpt>
      <trkpt lat="48.00658" lon="6.95506">
        <ele>1114</ele>
        <time>2019-01-03T11:38:35.000Z</time>
      </trkpt>
      <trkpt lat="48.00662" lon="6.95498">
        <ele>1112</ele>
        <time>2019-01-03T11:38:39.000Z</time>
      </trkpt>
      <trkpt lat="48.00665" lon="6.95492">
        <ele>1112</ele>
        <time>2019-01-03T11:38:42.000Z</time>
      </trkpt>
      <trkpt lat="48.00669" lon="6.95486">
        <ele>1111</ele>
        <time>2019-01-03T11:38:46.000Z</time>
      </trkpt>
      <trkpt lat="48.00673" lon="6.95478">
        <ele>1110</ele>
        <time>2019-01-03T11:38:50.000Z</time>
      </trkpt>
      <trkpt lat="48.0068" lon="6.95467">
        <ele>1109</ele>
        <time>2019-01-03T11:38:57.000Z</time>
      </trkpt>
      <trkpt lat="48.00684" lon="6.9546">
        <ele>1108</ele>
        <time>2019-01-03T11:39:01.000Z</time>
      </trkpt>
      <trkpt lat="48.00689" lon="6.95453">
        <ele>1108</ele>
        <time>2019-01-03T11:39:05.000Z</time>
      </trkpt>
      <trkpt lat="48.00692" lon="6.95448">
        <ele>1108</ele>
        <time>2019-01-03T11:39:08.000Z</time>
      </trkpt>
      <trkpt lat="48.00695" lon="6.9544">
        <ele>1108</ele>
        <time>2019-01-03T11:39:12.000Z</time>
      </trkpt>
      <trkpt lat="48.00699" lon="6.95433">
        <ele>1108</ele>
        <time>2019-01-03T11:39:16.000Z</time>
      </trkpt>
      <trkpt lat="48.00703" lon="6.95425">
        <ele>1107</ele>
        <time>2019-01-03T11:39:20.000Z</time>
      </trkpt>
      <trkpt lat="48.00706" lon="6.95418">
        <ele>1106</ele>
        <time>2019-01-03T11:39:23.000Z</time>
      </trkpt>
      <trkpt lat="48.00708" lon="6.95411">
        <ele>1105</ele>
        <time>2019-01-03T11:39:26.000Z</time>
      </trkpt>
      <trkpt lat="48.0071" lon="6.95404">
        <ele>1104</ele>
        <time>2019-01-03T11:39:30.000Z</time>
      </trkpt>
      <trkpt lat="48.00713" lon="6.95395">
        <ele>1102</ele>
        <time>2019-01-03T11:39:34.000Z</time>
      </trkpt>
      <trkpt lat="48.00716" lon="6.95386">
        <ele>1102</ele>
        <time>2019-01-03T11:39:38.000Z</time>
      </trkpt>
      <trkpt lat="48.00717" lon="6.95378">
        <ele>1101</ele>
        <time>2019-01-03T11:39:41.000Z</time>
      </trkpt>
      <trkpt lat="48.00718" lon="6.95371">
        <ele>1101</ele>
        <time>2019-01-03T11:39:44.000Z</time>
      </trkpt>
      <trkpt lat="48.00719" lon="6.95362">
        <ele>1100</ele>
        <time>2019-01-03T11:39:48.000Z</time>
      </trkpt>
      <trkpt lat="48.0072" lon="6.95355">
        <ele>1099</ele>
        <time>2019-01-03T11:39:51.000Z</time>
      </trkpt>
      <trkpt lat="48.00723" lon="6.95347">
        <ele>1098</ele>
        <time>2019-01-03T11:39:55.000Z</time>
      </trkpt>
      <trkpt lat="48.00724" lon="6.95334">
        <ele>1098</ele>
        <time>2019-01-03T11:40:01.000Z</time>
      </trkpt>
      <trkpt lat="48.00726" lon="6.95327">
        <ele>1098</ele>
        <time>2019-01-03T11:40:04.000Z</time>
      </trkpt>
      <trkpt lat="48.00726" lon="6.95317">
        <ele>1097</ele>
        <time>2019-01-03T11:40:08.000Z</time>
      </trkpt>
      <trkpt lat="48.00727" lon="6.95307">
        <ele>1097</ele>
        <time>2019-01-03T11:40:12.000Z</time>
      </trkpt>
      <trkpt lat="48.00728" lon="6.95296">
        <ele>1096</ele>
        <time>2019-01-03T11:40:16.000Z</time>
      </trkpt>
      <trkpt lat="48.00728" lon="6.95288">
        <ele>1096</ele>
        <time>2019-01-03T11:40:20.000Z</time>
      </trkpt>
      <trkpt lat="48.00727" lon="6.95274">
        <ele>1098</ele>
        <time>2019-01-03T11:40:27.000Z</time>
      </trkpt>
      <trkpt lat="48.00727" lon="6.95265">
        <ele>1099</ele>
        <time>2019-01-03T11:40:31.000Z</time>
      </trkpt>
      <trkpt lat="48.00726" lon="6.95258">
        <ele>1099</ele>
        <time>2019-01-03T11:40:34.000Z</time>
      </trkpt>
      <trkpt lat="48.00724" lon="6.95246">
        <ele>1097</ele>
        <time>2019-01-03T11:40:38.000Z</time>
      </trkpt>
      <trkpt lat="48.00722" lon="6.95237">
        <ele>1096</ele>
        <time>2019-01-03T11:40:42.000Z</time>
      </trkpt>
      <trkpt lat="48.00719" lon="6.95228">
        <ele>1095</ele>
        <time>2019-01-03T11:40:46.000Z</time>
      </trkpt>
      <trkpt lat="48.00716" lon="6.95222">
        <ele>1096</ele>
        <time>2019-01-03T11:40:49.000Z</time>
      </trkpt>
      <trkpt lat="48.00712" lon="6.95214">
        <ele>1096</ele>
        <time>2019-01-03T11:40:53.000Z</time>
      </trkpt>
      <trkpt lat="48.00708" lon="6.95207">
        <ele>1096</ele>
        <time>2019-01-03T11:40:57.000Z</time>
      </trkpt>
      <trkpt lat="48.00703" lon="6.95195">
        <ele>1097</ele>
        <time>2019-01-03T11:41:03.000Z</time>
      </trkpt>
      <trkpt lat="48.007" lon="6.95187">
        <ele>1095</ele>
        <time>2019-01-03T11:41:07.000Z</time>
      </trkpt>
      <trkpt lat="48.00698" lon="6.95178">
        <ele>1095</ele>
        <time>2019-01-03T11:41:11.000Z</time>
      </trkpt>
      <trkpt lat="48.00697" lon="6.95169">
        <ele>1096</ele>
        <time>2019-01-03T11:41:15.000Z</time>
      </trkpt>
      <trkpt lat="48.00692" lon="6.95156">
        <ele>1096</ele>
        <time>2019-01-03T11:41:22.000Z</time>
      </trkpt>
      <trkpt lat="48.00689" lon="6.9515">
        <ele>1096</ele>
        <time>2019-01-03T11:41:25.000Z</time>
      </trkpt>
      <trkpt lat="48.00686" lon="6.95143">
        <ele>1096</ele>
        <time>2019-01-03T11:41:29.000Z</time>
      </trkpt>
      <trkpt lat="48.00678" lon="6.95132">
        <ele>1096</ele>
        <time>2019-01-03T11:41:36.000Z</time>
      </trkpt>
      <trkpt lat="48.00675" lon="6.95126">
        <ele>1098</ele>
        <time>2019-01-03T11:41:39.000Z</time>
      </trkpt>
      <trkpt lat="48.00669" lon="6.95116">
        <ele>1095</ele>
        <time>2019-01-03T11:41:46.000Z</time>
      </trkpt>
      <trkpt lat="48.00665" lon="6.9511">
        <ele>1095</ele>
        <time>2019-01-03T11:41:50.000Z</time>
      </trkpt>
      <trkpt lat="48.00662" lon="6.95105">
        <ele>1096</ele>
        <time>2019-01-03T11:41:54.000Z</time>
      </trkpt>
      <trkpt lat="48.00657" lon="6.95102">
        <ele>1092</ele>
        <time>2019-01-03T11:41:58.000Z</time>
      </trkpt>
      <trkpt lat="48.00653" lon="6.95098">
        <ele>1090</ele>
        <time>2019-01-03T11:42:02.000Z</time>
      </trkpt>
      <trkpt lat="48.00649" lon="6.95093">
        <ele>1092</ele>
        <time>2019-01-03T11:42:05.000Z</time>
      </trkpt>
      <trkpt lat="48.00645" lon="6.95087">
        <ele>1090</ele>
        <time>2019-01-03T11:42:09.000Z</time>
      </trkpt>
      <trkpt lat="48.00641" lon="6.95082">
        <ele>1091</ele>
        <time>2019-01-03T11:42:13.000Z</time>
      </trkpt>
      <trkpt lat="48.00638" lon="6.95076">
        <ele>1090</ele>
        <time>2019-01-03T11:42:16.000Z</time>
      </trkpt>
      <trkpt lat="48.00635" lon="6.95069">
        <ele>1090</ele>
        <time>2019-01-03T11:42:19.000Z</time>
      </trkpt>
      <trkpt lat="48.00633" lon="6.95063">
        <ele>1092</ele>
        <time>2019-01-03T11:42:22.000Z</time>
      </trkpt>
      <trkpt lat="48.00631" lon="6.9505">
        <ele>1093</ele>
        <time>2019-01-03T11:42:28.000Z</time>
      </trkpt>
      <trkpt lat="48.00629" lon="6.95041">
        <ele>1091</ele>
        <time>2019-01-03T11:42:35.000Z</time>
      </trkpt>
      <trkpt lat="48.00625" lon="6.9503">
        <ele>1091</ele>
        <time>2019-01-03T11:42:41.000Z</time>
      </trkpt>
      <trkpt lat="48.00623" lon="6.95023">
        <ele>1090</ele>
        <time>2019-01-03T11:42:45.000Z</time>
      </trkpt>
      <trkpt lat="48.0062" lon="6.95016">
        <ele>1089</ele>
        <time>2019-01-03T11:42:49.000Z</time>
      </trkpt>
      <trkpt lat="48.00617" lon="6.95008">
        <ele>1088</ele>
        <time>2019-01-03T11:42:53.000Z</time>
      </trkpt>
      <trkpt lat="48.00615" lon="6.95001">
        <ele>1088</ele>
        <time>2019-01-03T11:42:56.000Z</time>
      </trkpt>
      <trkpt lat="48.00612" lon="6.94994">
        <ele>1088</ele>
        <time>2019-01-03T11:42:59.000Z</time>
      </trkpt>
      <trkpt lat="48.00607" lon="6.94981">
        <ele>1087</ele>
        <time>2019-01-03T11:43:06.000Z</time>
      </trkpt>
      <trkpt lat="48.00604" lon="6.94973">
        <ele>1087</ele>
        <time>2019-01-03T11:43:10.000Z</time>
      </trkpt>
      <trkpt lat="48.00601" lon="6.94967">
        <ele>1085</ele>
        <time>2019-01-03T11:43:13.000Z</time>
      </trkpt>
      <trkpt lat="48.00595" lon="6.9496">
        <ele>1085</ele>
        <time>2019-01-03T11:43:17.000Z</time>
      </trkpt>
      <trkpt lat="48.00591" lon="6.94954">
        <ele>1084</ele>
        <time>2019-01-03T11:43:21.000Z</time>
      </trkpt>
      <trkpt lat="48.00588" lon="6.94946">
        <ele>1084</ele>
        <time>2019-01-03T11:43:25.000Z</time>
      </trkpt>
      <trkpt lat="48.00585" lon="6.94939">
        <ele>1084</ele>
        <time>2019-01-03T11:43:28.000Z</time>
      </trkpt>
      <trkpt lat="48.00583" lon="6.94931">
        <ele>1083</ele>
        <time>2019-01-03T11:43:32.000Z</time>
      </trkpt>
      <trkpt lat="48.00579" lon="6.94924">
        <ele>1082</ele>
        <time>2019-01-03T11:43:36.000Z</time>
      </trkpt>
      <trkpt lat="48.00576" lon="6.94915">
        <ele>1081</ele>
        <time>2019-01-03T11:43:40.000Z</time>
      </trkpt>
      <trkpt lat="48.00573" lon="6.94907">
        <ele>1080</ele>
        <time>2019-01-03T11:43:44.000Z</time>
      </trkpt>
      <trkpt lat="48.0057" lon="6.94901">
        <ele>1080</ele>
        <time>2019-01-03T11:43:47.000Z</time>
      </trkpt>
      <trkpt lat="48.00566" lon="6.94895">
        <ele>1079</ele>
        <time>2019-01-03T11:43:50.000Z</time>
      </trkpt>
      <trkpt lat="48.00562" lon="6.94885">
        <ele>1078</ele>
        <time>2019-01-03T11:43:54.000Z</time>
      </trkpt>
      <trkpt lat="48.00557" lon="6.94877">
        <ele>1076</ele>
        <time>2019-01-03T11:43:58.000Z</time>
      </trkpt>
      <trkpt lat="48.00554" lon="6.9487">
        <ele>1077</ele>
        <time>2019-01-03T11:44:01.000Z</time>
      </trkpt>
      <trkpt lat="48.0055" lon="6.94864">
        <ele>1077</ele>
        <time>2019-01-03T11:44:04.000Z</time>
      </trkpt>
      <trkpt lat="48.00546" lon="6.94855">
        <ele>1077</ele>
        <time>2019-01-03T11:44:08.000Z</time>
      </trkpt>
      <trkpt lat="48.00544" lon="6.94849">
        <ele>1076</ele>
        <time>2019-01-03T11:44:11.000Z</time>
      </trkpt>
      <trkpt lat="48.0054" lon="6.94843">
        <ele>1075</ele>
        <time>2019-01-03T11:44:14.000Z</time>
      </trkpt>
      <trkpt lat="48.00537" lon="6.94836">
        <ele>1074</ele>
        <time>2019-01-03T11:44:18.000Z</time>
      </trkpt>
      <trkpt lat="48.00534" lon="6.94829">
        <ele>1073</ele>
        <time>2019-01-03T11:44:22.000Z</time>
      </trkpt>
      <trkpt lat="48.00531" lon="6.94823">
        <ele>1072</ele>
        <time>2019-01-03T11:44:25.000Z</time>
      </trkpt>
      <trkpt lat="48.00527" lon="6.94817">
        <ele>1071</ele>
        <time>2019-01-03T11:44:28.000Z</time>
      </trkpt>
      <trkpt lat="48.00523" lon="6.94809">
        <ele>1071</ele>
        <time>2019-01-03T11:44:32.000Z</time>
      </trkpt>
      <trkpt lat="48.00516" lon="6.94801">
        <ele>1069</ele>
        <time>2019-01-03T11:44:38.000Z</time>
      </trkpt>
      <trkpt lat="48.0051" lon="6.94793">
        <ele>1070</ele>
        <time>2019-01-03T11:44:42.000Z</time>
      </trkpt>
      <trkpt lat="48.00505" lon="6.94788">
        <ele>1069</ele>
        <time>2019-01-03T11:44:45.000Z</time>
      </trkpt>
      <trkpt lat="48.00501" lon="6.94781">
        <ele>1069</ele>
        <time>2019-01-03T11:44:49.000Z</time>
      </trkpt>
      <trkpt lat="48.00493" lon="6.94771">
        <ele>1067</ele>
        <time>2019-01-03T11:44:55.000Z</time>
      </trkpt>
      <trkpt lat="48.00488" lon="6.94764">
        <ele>1066</ele>
        <time>2019-01-03T11:44:59.000Z</time>
      </trkpt>
      <trkpt lat="48.00484" lon="6.94757">
        <ele>1064</ele>
        <time>2019-01-03T11:45:03.000Z</time>
      </trkpt>
      <trkpt lat="48.00479" lon="6.94752">
        <ele>1061</ele>
        <time>2019-01-03T11:45:07.000Z</time>
      </trkpt>
      <trkpt lat="48.00475" lon="6.94747">
        <ele>1059</ele>
        <time>2019-01-03T11:45:10.000Z</time>
      </trkpt>
      <trkpt lat="48.00469" lon="6.94744">
        <ele>1059</ele>
        <time>2019-01-03T11:45:13.000Z</time>
      </trkpt>
      <trkpt lat="48.00462" lon="6.9474">
        <ele>1059</ele>
        <time>2019-01-03T11:45:17.000Z</time>
      </trkpt>
      <trkpt lat="48.00456" lon="6.94737">
        <ele>1058</ele>
        <time>2019-01-03T11:45:20.000Z</time>
      </trkpt>
      <trkpt lat="48.00451" lon="6.94735">
        <ele>1057</ele>
        <time>2019-01-03T11:45:23.000Z</time>
      </trkpt>
      <trkpt lat="48.00443" lon="6.94733">
        <ele>1056</ele>
        <time>2019-01-03T11:45:29.000Z</time>
      </trkpt>
      <trkpt lat="48.00437" lon="6.94729">
        <ele>1055</ele>
        <time>2019-01-03T11:45:33.000Z</time>
      </trkpt>
      <trkpt lat="48.00432" lon="6.94728">
        <ele>1054</ele>
        <time>2019-01-03T11:45:36.000Z</time>
      </trkpt>
      <trkpt lat="48.00424" lon="6.94725">
        <ele>1054</ele>
        <time>2019-01-03T11:45:40.000Z</time>
      </trkpt>
      <trkpt lat="48.00419" lon="6.94723">
        <ele>1053</ele>
        <time>2019-01-03T11:45:43.000Z</time>
      </trkpt>
      <trkpt lat="48.00414" lon="6.94721">
        <ele>1053</ele>
        <time>2019-01-03T11:45:46.000Z</time>
      </trkpt>
      <trkpt lat="48.00409" lon="6.94718">
        <ele>1053</ele>
        <time>2019-01-03T11:45:49.000Z</time>
      </trkpt>
      <trkpt lat="48.00403" lon="6.94715">
        <ele>1054</ele>
        <time>2019-01-03T11:45:53.000Z</time>
      </trkpt>
      <trkpt lat="48.00396" lon="6.94712">
        <ele>1053</ele>
        <time>2019-01-03T11:45:57.000Z</time>
      </trkpt>
      <trkpt lat="48.00391" lon="6.94709">
        <ele>1052</ele>
        <time>2019-01-03T11:46:00.000Z</time>
      </trkpt>
      <trkpt lat="48.00381" lon="6.94703">
        <ele>1052</ele>
        <time>2019-01-03T11:46:07.000Z</time>
      </trkpt>
      <trkpt lat="48.00376" lon="6.94701">
        <ele>1050</ele>
        <time>2019-01-03T11:46:11.000Z</time>
      </trkpt>
      <trkpt lat="48.00371" lon="6.94701">
        <ele>1049</ele>
        <time>2019-01-03T11:46:14.000Z</time>
      </trkpt>
      <trkpt lat="48.00364" lon="6.947">
        <ele>1048</ele>
        <time>2019-01-03T11:46:17.000Z</time>
      </trkpt>
      <trkpt lat="48.00357" lon="6.94699">
        <ele>1047</ele>
        <time>2019-01-03T11:46:21.000Z</time>
      </trkpt>
      <trkpt lat="48.0035" lon="6.94697">
        <ele>1045</ele>
        <time>2019-01-03T11:46:25.000Z</time>
      </trkpt>
      <trkpt lat="48.00342" lon="6.94695">
        <ele>1044</ele>
        <time>2019-01-03T11:46:29.000Z</time>
      </trkpt>
      <trkpt lat="48.00334" lon="6.94694">
        <ele>1044</ele>
        <time>2019-01-03T11:46:33.000Z</time>
      </trkpt>
      <trkpt lat="48.0033" lon="6.94693">
        <ele>1042</ele>
        <time>2019-01-03T11:46:36.000Z</time>
      </trkpt>
      <trkpt lat="48.00325" lon="6.94694">
        <ele>1043</ele>
        <time>2019-01-03T11:46:40.000Z</time>
      </trkpt>
      <trkpt lat="48.00316" lon="6.94696">
        <ele>1042</ele>
        <time>2019-01-03T11:46:46.000Z</time>
      </trkpt>
      <trkpt lat="48.0031" lon="6.94694">
        <ele>1041</ele>
        <time>2019-01-03T11:46:49.000Z</time>
      </trkpt>
      <trkpt lat="48.00303" lon="6.94693">
        <ele>1039</ele>
        <time>2019-01-03T11:46:53.000Z</time>
      </trkpt>
      <trkpt lat="48.00296" lon="6.94691">
        <ele>1038</ele>
        <time>2019-01-03T11:46:57.000Z</time>
      </trkpt>
      <trkpt lat="48.0029" lon="6.94688">
        <ele>1038</ele>
        <time>2019-01-03T11:47:01.000Z</time>
      </trkpt>
      <trkpt lat="48.00283" lon="6.94686">
        <ele>1036</ele>
        <time>2019-01-03T11:47:05.000Z</time>
      </trkpt>
      <trkpt lat="48.00277" lon="6.94684">
        <ele>1037</ele>
        <time>2019-01-03T11:47:09.000Z</time>
      </trkpt>
      <trkpt lat="48.00273" lon="6.94683">
        <ele>1037</ele>
        <time>2019-01-03T11:47:12.000Z</time>
      </trkpt>
      <trkpt lat="48.00268" lon="6.94682">
        <ele>1037</ele>
        <time>2019-01-03T11:47:15.000Z</time>
      </trkpt>
      <trkpt lat="48.00261" lon="6.94678">
        <ele>1037</ele>
        <time>2019-01-03T11:47:19.000Z</time>
      </trkpt>
      <trkpt lat="48.00257" lon="6.94676">
        <ele>1037</ele>
        <time>2019-01-03T11:47:23.000Z</time>
      </trkpt>
      <trkpt lat="48.00247" lon="6.94671">
        <ele>1037</ele>
        <time>2019-01-03T11:47:30.000Z</time>
      </trkpt>
      <trkpt lat="48.00242" lon="6.94666">
        <ele>1036</ele>
        <time>2019-01-03T11:47:34.000Z</time>
      </trkpt>
      <trkpt lat="48.00234" lon="6.94655">
        <ele>1035</ele>
        <time>2019-01-03T11:47:41.000Z</time>
      </trkpt>
      <trkpt lat="48.00228" lon="6.94649">
        <ele>1035</ele>
        <time>2019-01-03T11:47:45.000Z</time>
      </trkpt>
      <trkpt lat="48.00224" lon="6.94646">
        <ele>1034</ele>
        <time>2019-01-03T11:47:48.000Z</time>
      </trkpt>
      <trkpt lat="48.00215" lon="6.94644">
        <ele>1033</ele>
        <time>2019-01-03T11:47:55.000Z</time>
      </trkpt>
      <trkpt lat="48.00208" lon="6.94641">
        <ele>1032</ele>
        <time>2019-01-03T11:47:59.000Z</time>
      </trkpt>
      <trkpt lat="48.00202" lon="6.9464">
        <ele>1031</ele>
        <time>2019-01-03T11:48:02.000Z</time>
      </trkpt>
      <trkpt lat="48.00195" lon="6.94639">
        <ele>1031</ele>
        <time>2019-01-03T11:48:06.000Z</time>
      </trkpt>
      <trkpt lat="48.0019" lon="6.94638">
        <ele>1030</ele>
        <time>2019-01-03T11:48:09.000Z</time>
      </trkpt>
      <trkpt lat="48.00184" lon="6.94638">
        <ele>1029</ele>
        <time>2019-01-03T11:48:13.000Z</time>
      </trkpt>
      <trkpt lat="48.00179" lon="6.94639">
        <ele>1028</ele>
        <time>2019-01-03T11:48:17.000Z</time>
      </trkpt>
      <trkpt lat="48.00174" lon="6.94641">
        <ele>1027</ele>
        <time>2019-01-03T11:48:21.000Z</time>
      </trkpt>
      <trkpt lat="48.00163" lon="6.9464">
        <ele>1026</ele>
        <time>2019-01-03T11:48:28.000Z</time>
      </trkpt>
      <trkpt lat="48.00156" lon="6.94638">
        <ele>1025</ele>
        <time>2019-01-03T11:48:32.000Z</time>
      </trkpt>
      <trkpt lat="48.00149" lon="6.94634">
        <ele>1025</ele>
        <time>2019-01-03T11:48:39.000Z</time>
      </trkpt>
      <trkpt lat="48.0014" lon="6.94626">
        <ele>1026</ele>
        <time>2019-01-03T11:48:46.000Z</time>
      </trkpt>
      <trkpt lat="48.00136" lon="6.94622">
        <ele>1027</ele>
        <time>2019-01-03T11:48:49.000Z</time>
      </trkpt>
      <trkpt lat="48.0013" lon="6.9462">
        <ele>1027</ele>
        <time>2019-01-03T11:48:53.000Z</time>
      </trkpt>
      <trkpt lat="48.00119" lon="6.94616">
        <ele>1025</ele>
        <time>2019-01-03T11:49:00.000Z</time>
      </trkpt>
      <trkpt lat="48.00114" lon="6.94615">
        <ele>1025</ele>
        <time>2019-01-03T11:49:03.000Z</time>
      </trkpt>
      <trkpt lat="48.00109" lon="6.94614">
        <ele>1025</ele>
        <time>2019-01-03T11:49:06.000Z</time>
      </trkpt>
      <trkpt lat="48.00103" lon="6.94609">
        <ele>1022</ele>
        <time>2019-01-03T11:49:10.000Z</time>
      </trkpt>
      <trkpt lat="48.00098" lon="6.94603">
        <ele>1022</ele>
        <time>2019-01-03T11:49:14.000Z</time>
      </trkpt>
      <trkpt lat="48.00093" lon="6.94598">
        <ele>1024</ele>
        <time>2019-01-03T11:49:18.000Z</time>
      </trkpt>
      <trkpt lat="48.00088" lon="6.9459">
        <ele>1023</ele>
        <time>2019-01-03T11:49:22.000Z</time>
      </trkpt>
      <trkpt lat="48.00085" lon="6.94581">
        <ele>1022</ele>
        <time>2019-01-03T11:49:26.000Z</time>
      </trkpt>
      <trkpt lat="48.00082" lon="6.94574">
        <ele>1022</ele>
        <time>2019-01-03T11:49:29.000Z</time>
      </trkpt>
      <trkpt lat="48.00075" lon="6.94562">
        <ele>1022</ele>
        <time>2019-01-03T11:49:36.000Z</time>
      </trkpt>
      <trkpt lat="48.00071" lon="6.94559">
        <ele>1020</ele>
        <time>2019-01-03T11:49:39.000Z</time>
      </trkpt>
      <trkpt lat="48.00065" lon="6.94553">
        <ele>1019</ele>
        <time>2019-01-03T11:49:43.000Z</time>
      </trkpt>
      <trkpt lat="48.00059" lon="6.9455">
        <ele>1019</ele>
        <time>2019-01-03T11:49:47.000Z</time>
      </trkpt>
      <trkpt lat="48.00048" lon="6.9455">
        <ele>1018</ele>
        <time>2019-01-03T11:49:54.000Z</time>
      </trkpt>
      <trkpt lat="48.00053" lon="6.94545">
        <ele>1018</ele>
        <time>2019-01-03T11:50:04.000Z</time>
      </trkpt>
      <trkpt lat="48.00057" lon="6.94543">
        <ele>1017</ele>
        <time>2019-01-03T11:50:07.000Z</time>
      </trkpt>
      <trkpt lat="48.00063" lon="6.94542">
        <ele>1017</ele>
        <time>2019-01-03T11:50:11.000Z</time>
      </trkpt>
      <trkpt lat="48.00071" lon="6.94541">
        <ele>1017</ele>
        <time>2019-01-03T11:50:17.000Z</time>
      </trkpt>
      <trkpt lat="48.0008" lon="6.94538">
        <ele>1016</ele>
        <time>2019-01-03T11:50:25.000Z</time>
      </trkpt>
      <trkpt lat="48.00086" lon="6.94538">
        <ele>1017</ele>
        <time>2019-01-03T11:50:28.000Z</time>
      </trkpt>
      <trkpt lat="48.00091" lon="6.94539">
        <ele>1017</ele>
        <time>2019-01-03T11:50:32.000Z</time>
      </trkpt>
      <trkpt lat="48.00099" lon="6.94539">
        <ele>1015</ele>
        <time>2019-01-03T11:50:38.000Z</time>
      </trkpt>
      <trkpt lat="48.00091" lon="6.94538">
        <ele>1013</ele>
        <time>2019-01-03T11:50:49.000Z</time>
      </trkpt>
      <trkpt lat="48.00083" lon="6.94536">
        <ele>1011</ele>
        <time>2019-01-03T11:50:56.000Z</time>
      </trkpt>
      <trkpt lat="48.00079" lon="6.9453">
        <ele>1014</ele>
        <time>2019-01-03T11:51:12.000Z</time>
      </trkpt>
      <trkpt lat="48.00076" lon="6.94537">
        <ele>1009</ele>
        <time>2019-01-03T11:51:26.000Z</time>
      </trkpt>
      <trkpt lat="48.00077" lon="6.94544">
        <ele>1002</ele>
        <time>2019-01-03T11:51:46.000Z</time>
      </trkpt>
    </trkseg>
  </trk>
</gpx>